Provisional Data: North Branch Muddy Creek near Muddy Creek Forks, PA


Please select a monitoring station.
Please select start date.
Please select start date.

Toggle Unit: C/F Toggle Unit: C/F
Sample Time Temperature (C) Temperature (F) Specific Conductivity (mS/cm) pH   Turbidity (NTU+) DO (mg/L)
12/23/2021 12:00:00 AM 2.35 36.23 0.177 6.92 -0.06 12.94
12/23/2021 12:15:00 AM 2.31 36.158 0.177 6.91 0.23 12.97
12/23/2021 12:30:00 AM 2.28 36.104 0.177 6.91 -0.05 12.99
12/23/2021 12:45:00 AM 2.23 36.014 0.177 6.91 0.18 12.98
12/23/2021 1:00:00 AM 2.2 35.96 0.177 6.91 -0.12 13.01
12/23/2021 1:15:00 AM 2.16 35.888 0.177 6.91 -0.09 13.03
12/23/2021 1:30:00 AM 2.12 35.816 0.177 6.91 -0.05 13.04
12/23/2021 1:45:00 AM 2.08 35.744 0.177 6.9 -0.04 13.06
12/23/2021 2:00:00 AM 2.03 35.654 0.177 6.9 -0.3 13.1
12/23/2021 2:15:00 AM 1.99 35.582 0.177 6.9 -0.23 13.11
12/23/2021 2:30:00 AM 1.94 35.492 0.177 6.9 -0.02 13.14
12/23/2021 2:45:00 AM 1.91 35.438 0.177 6.9 0.31 13.13
12/23/2021 3:00:00 AM 1.85 35.33 0.177 6.9 -0.01 13.15
12/23/2021 3:15:00 AM 1.82 35.276 0.177 6.9 -0.03 13.19
12/23/2021 3:30:00 AM 1.77 35.186 0.177 6.9 0.48 13.21
12/23/2021 3:45:00 AM 1.73 35.114 0.177 6.9 -0.21 13.22
12/23/2021 4:00:00 AM 1.69 35.042 0.177 6.89 -0.35 13.24
12/23/2021 4:15:00 AM 1.66 34.988 0.177 6.89 -0.33 13.27
12/23/2021 4:30:00 AM 1.62 34.916 0.177 6.89 -0.02 13.28
12/23/2021 4:45:00 AM 1.59 34.862 0.177 6.9 -0.23 13.29
12/23/2021 5:00:00 AM 1.55 34.79 0.177 6.89 -0.24 13.33
12/23/2021 5:15:00 AM 1.51 34.718 0.177 6.89 -0.18 13.34
12/23/2021 5:30:00 AM 1.47 34.646 0.177 6.89 -0.33 13.35
12/23/2021 5:45:00 AM 1.42 34.556 0.177 6.89 -0.48 13.39
12/23/2021 6:00:00 AM 1.39 34.502 0.177 6.88 -0.44 13.39
12/23/2021 6:15:00 AM 1.34 34.412 0.178 6.89 -0.39 13.41
12/23/2021 6:30:00 AM 1.3 34.34 0.177 6.89 -0.34 13.45
12/23/2021 6:45:00 AM 1.25 34.25 0.178 6.88 -0.34 13.46
12/23/2021 7:00:00 AM 1.22 34.196 0.178 6.88 -0.3 13.48
12/23/2021 7:15:00 AM 1.18 34.124 0.178 6.88 -0.26 13.49
12/23/2021 7:30:00 AM 1.15 34.07 0.178 6.88 0.01 13.51
12/23/2021 7:45:00 AM 1.1 33.98 0.178 6.88 0.27 13.54
12/23/2021 8:00:00 AM 1.07 33.926 0.178 6.88 -0.48 13.59
12/23/2021 8:15:00 AM 1.04 33.872 0.178 6.88 -0.23 13.63
12/23/2021 8:30:00 AM 1 33.8 0.178 6.87 -0.42 13.69
12/23/2021 8:45:00 AM 0.97 33.746 0.178 6.87 -0.34 13.74
12/23/2021 9:00:00 AM 0.96 33.728 0.178 6.87 -0.21 13.79
12/23/2021 9:15:00 AM 0.94 33.692 0.178 6.87 -0.43 13.82
12/23/2021 9:30:00 AM 0.93 33.674 0.178 6.88 -0.46 13.86
12/23/2021 9:45:00 AM 0.92 33.656 0.178 6.88 -0.52 13.93
12/23/2021 10:00:00 AM 0.94 33.692 0.178 6.88 -0.48 13.96
12/23/2021 10:15:00 AM 0.96 33.728 0.178 6.88 -0.3 14
12/23/2021 10:30:00 AM 1.02 33.836 0.178 6.88 -0.36 13.99
12/23/2021 10:45:00 AM 1.07 33.926 0.178 6.88 -0.4 14.05
12/23/2021 11:00:00 AM 1.16 34.088 0.177 6.88 -0.52 14.09
12/23/2021 11:15:00 AM 1.29 34.322 0.177 6.89 -0.59 14.12
12/23/2021 11:30:00 AM 1.37 34.466 0.177 6.9 -0.4 14.14
12/23/2021 11:45:00 AM 1.49 34.682 0.177 6.91 -0.3 14.12
12/23/2021 12:00:00 PM 1.63 34.934 0.177 6.92 -0.26 14.13
12/23/2021 12:15:00 PM 1.78 35.204 0.177 6.92 -0.23 14.11
12/23/2021 12:30:00 PM 1.9 35.42 0.177 6.93 -0.29 14.11
12/23/2021 12:45:00 PM 2.04 35.672 0.177 6.95 -0.18 14.08
12/23/2021 1:00:00 PM 2.21 35.978 0.176 6.95 -0.26 14.07
12/23/2021 1:15:00 PM 2.41 36.338 0.176 6.95 -0.4 14.04
12/23/2021 1:30:00 PM 2.48 36.464 0.176 6.95 -0.4 14.03
12/23/2021 1:45:00 PM 2.55 36.59 0.176 6.96 -0.3 14
12/23/2021 2:00:00 PM 2.57 36.626 0.176 6.95 -0.29 13.97
12/23/2021 2:15:00 PM 2.61 36.698 0.176 6.97 -0.27 13.94
12/23/2021 2:30:00 PM 2.66 36.788 0.176 6.97 -0.29 13.91
12/23/2021 2:45:00 PM 2.71 36.878 0.176 6.97 -0.27 13.89
12/23/2021 3:00:00 PM 2.74 36.932 0.176 6.97 -0.38 13.85
12/23/2021 3:15:00 PM 2.75 36.95 0.176 6.97 -0.3 13.82
12/23/2021 3:30:00 PM 2.77 36.986 0.176 6.97 -0.31 13.77
12/23/2021 3:45:00 PM 2.77 36.986 0.176 6.97 -0.47 13.74
12/23/2021 4:00:00 PM 2.75 36.95 0.176 6.98 -0.44 13.68
12/23/2021 4:15:00 PM 2.71 36.878 0.177 6.98 -0.33 13.64
12/23/2021 4:30:00 PM 2.66 36.788 0.177 6.98 -0.3 13.6
12/23/2021 4:45:00 PM 2.61 36.698 0.177 6.99 -0.28 13.58
12/23/2021 5:00:00 PM 2.55 36.59 0.177 7 -0.25 13.53
12/23/2021 5:15:00 PM 2.5 36.5 0.177 6.99 -0.31 13.5
12/23/2021 5:30:00 PM 2.45 36.41 0.177 6.99 -0.13 13.46
12/23/2021 5:45:00 PM 2.38 36.284 0.177 6.99 -0.29 13.41
12/23/2021 6:00:00 PM 2.33 36.194 0.177 6.98 -0.43 13.42
12/23/2021 6:15:00 PM 2.26 36.068 0.177 6.97 -0.33 13.41
12/23/2021 6:30:00 PM 2.22 35.996 0.177 6.97 -0.56 13.4
12/23/2021 6:45:00 PM 2.16 35.888 0.177 6.95 -0.25 13.41
12/23/2021 7:00:00 PM 2.13 35.834 0.177 6.95 -0.15 13.4
12/23/2021 7:15:00 PM 2.1 35.78 0.177 6.95 -0.14 13.41
12/23/2021 7:30:00 PM 2.04 35.672 0.177 6.94 -0.29 13.4
12/23/2021 7:45:00 PM 2 35.6 0.177 6.94 -0.45 13.42
12/23/2021 8:00:00 PM 1.96 35.528 0.177 6.94 -0.37 13.42
12/23/2021 8:15:00 PM 1.9 35.42 0.177 6.93 -0.31 13.42
12/23/2021 8:30:00 PM 1.85 35.33 0.177 6.92 -0.46 13.42
12/23/2021 8:45:00 PM 1.81 35.258 0.177 6.91 -0.23 13.46
12/23/2021 9:00:00 PM 1.77 35.186 0.177 6.91 -0.09 13.46
12/23/2021 9:15:00 PM 1.74 35.132 0.177 6.9 0 13.46
12/23/2021 9:30:00 PM 1.71 35.078 0.177 6.9 -0.32 13.47
12/23/2021 9:45:00 PM 1.68 35.024 0.177 6.89 -0.49 13.49
12/23/2021 10:00:00 PM 1.64 34.952 0.177 6.9 -0.45 13.49
12/23/2021 10:15:00 PM 1.63 34.934 0.177 6.89 -0.28 13.49
12/23/2021 10:30:00 PM 1.59 34.862 0.177 6.89 -0.38 13.5
12/23/2021 10:45:00 PM 1.58 34.844 0.177 6.88 -0.27 13.51
12/23/2021 11:00:00 PM 1.56 34.808 0.177 6.88 -0.24 13.51
12/23/2021 11:15:00 PM 1.54 34.772 0.177 6.89 -0.3 13.5
12/23/2021 11:30:00 PM 1.55 34.79 0.177 6.88 -0.29 13.51
12/23/2021 11:45:00 PM 1.56 34.808 0.177 6.89 -0.48 13.5
12/24/2021 12:00:00 AM 1.57 34.826 0.177 6.88 -0.33 13.5
12/24/2021 12:15:00 AM 1.59 34.862 0.177 6.88 -0.39 13.5
12/24/2021 12:30:00 AM 1.6 34.88 0.177 6.87 -0.28 13.49
12/24/2021 12:45:00 AM 1.62 34.916 0.177 6.87 -0.38 13.49
12/24/2021 1:00:00 AM 1.64 34.952 0.177 6.87 -0.37 13.48
12/24/2021 1:15:00 AM 1.66 34.988 0.177 6.87 -0.48 13.47
12/24/2021 1:30:00 AM 1.69 35.042 0.177 6.88 -0.28 13.44
12/24/2021 1:45:00 AM 1.7 35.06 0.177 6.87 -0.35 13.43
12/24/2021 2:00:00 AM 1.73 35.114 0.177 6.87 -0.33 13.44
12/24/2021 2:15:00 AM 1.74 35.132 0.177 6.87 -0.11 13.44
12/24/2021 2:30:00 AM 1.76 35.168 0.177 6.87 -0.23 13.42
12/24/2021 2:45:00 AM 1.78 35.204 0.177 6.87 -0.42 13.42
12/24/2021 3:00:00 AM 1.8 35.24 0.177 6.87 -0.4 13.4
12/24/2021 3:15:00 AM 1.82 35.276 0.177 6.87 -0.26 13.39
12/24/2021 3:30:00 AM 1.85 35.33 0.177 6.87 -0.21 13.39
12/24/2021 3:45:00 AM 1.86 35.348 0.177 6.87 -0.43 13.37
12/24/2021 4:00:00 AM 1.87 35.366 0.177 6.86 -0.31 13.38
12/24/2021 4:15:00 AM 1.87 35.366 0.177 6.87 -0.57 13.36
12/24/2021 4:30:00 AM 1.85 35.33 0.177 6.87 -0.08 13.35
12/24/2021 4:45:00 AM 1.85 35.33 0.177 6.87 -0.25 13.33
12/24/2021 5:00:00 AM 1.87 35.366 0.177 6.87 -0.02 13.31
12/24/2021 5:15:00 AM 1.87 35.366 0.177 6.87 -0.36 13.32
12/24/2021 5:30:00 AM 1.9 35.42 0.177 6.87 -0.05 13.32
12/24/2021 5:45:00 AM 1.91 35.438 0.177 6.87 -0.12 13.32
12/24/2021 6:00:00 AM 1.93 35.474 0.177 6.86 -0.21 13.31
12/24/2021 6:15:00 AM 1.95 35.51 0.177 6.87 -0.09 13.31
12/24/2021 6:30:00 AM 1.95 35.51 0.177 6.87 -0.44 13.3
12/24/2021 6:45:00 AM 1.94 35.492 0.177 6.87 -0.42 13.29
12/24/2021 7:00:00 AM 1.91 35.438 0.177 6.88 -0.15 13.28
12/24/2021 7:15:00 AM 1.89 35.402 0.177 6.87 -0.22 13.28
12/24/2021 7:30:00 AM 1.85 35.33 0.177 6.89 -0.36 13.3
12/24/2021 7:45:00 AM 1.83 35.294 0.177 6.89 -0.14 13.3
12/24/2021 8:00:00 AM 1.82 35.276 0.177 6.89 -0.45 13.32
12/24/2021 8:15:00 AM 1.8 35.24 0.177 6.89 -0.31 13.31
12/24/2021 8:30:00 AM 1.78 35.204 0.177 6.89 -0.17 13.38
12/24/2021 8:45:00 AM 1.76 35.168 0.177 6.89 -0.35 13.41
12/24/2021 9:00:00 AM 1.77 35.186 0.177 6.88 -0.47 13.43
12/24/2021 9:15:00 AM 1.76 35.168 0.177 6.88 0.06 13.49
12/24/2021 9:30:00 AM 1.76 35.168 0.177 6.88 -0.37 13.5
12/24/2021 9:45:00 AM 1.78 35.204 0.177 6.89 -0.39 13.55
12/24/2021 10:00:00 AM 1.79 35.222 0.177 6.89 -0.27 13.58
12/24/2021 10:15:00 AM 1.82 35.276 0.177 6.88 -0.41 13.6
12/24/2021 10:30:00 AM 1.87 35.366 0.177 6.89 -0.18 13.63
12/24/2021 10:45:00 AM 1.94 35.492 0.177 6.89 -0.5 13.66
12/24/2021 11:00:00 AM 2.05 35.69 0.177 6.89 -0.2 13.7
12/24/2021 11:15:00 AM 2.16 35.888 0.177 6.9 -0.32 13.72
12/24/2021 11:30:00 AM 2.28 36.104 0.177 6.9 -0.35 13.71
12/24/2021 11:45:00 AM 2.4 36.32 0.177 6.89 -0.29 13.72
12/24/2021 12:00:00 PM 2.54 36.572 0.176 6.9 -0.31 13.71
12/24/2021 12:15:00 PM 2.67 36.806 0.176 6.9 -0.33 13.68
12/24/2021 12:30:00 PM 2.79 37.022 0.176 6.91 -0.43 13.68
12/24/2021 12:45:00 PM 2.96 37.328 0.176 6.92 -0.4 13.66
12/24/2021 1:00:00 PM 3.13 37.634 0.176 6.92 0.15 13.62
12/24/2021 1:15:00 PM 3.24 37.832 0.176 6.92 -0.03 13.59
12/24/2021 1:30:00 PM 3.35 38.03 0.176 6.93 -0.1 13.56
12/24/2021 1:45:00 PM 3.48 38.264 0.176 6.94 0.08 13.54
12/24/2021 2:00:00 PM 3.58 38.444 0.176 6.96 -0.13 13.5
12/24/2021 2:15:00 PM 3.66 38.588 0.176 6.96 -0.24 13.46
12/24/2021 2:30:00 PM 3.71 38.678 0.176 6.97 -0.32 13.43
12/24/2021 2:45:00 PM 3.76 38.768 0.176 6.96 -0.26 13.4
12/24/2021 3:00:00 PM 3.79 38.822 0.176 6.97 -0.29 13.33
12/24/2021 3:15:00 PM 3.82 38.876 0.176 6.97 -0.12 13.3
12/24/2021 3:30:00 PM 3.83 38.894 0.176 6.97 0.1 13.24
12/24/2021 3:45:00 PM 3.85 38.93 0.176 6.97 -0.22 13.19
12/24/2021 4:00:00 PM 3.86 38.948 0.176 6.97 -0.12 13.16
12/24/2021 4:15:00 PM 3.87 38.966 0.176 6.98 -0.16 13.11
12/24/2021 4:30:00 PM 3.86 38.948 0.176 6.98 -0.14 13.04
12/24/2021 4:45:00 PM 3.86 38.948 0.176 6.98 -0.07 13.02
12/24/2021 5:00:00 PM 3.85 38.93 0.176 6.98 0.09 12.95
12/24/2021 5:15:00 PM 3.84 38.912 0.176 6.97 -0.08 12.91
12/24/2021 5:30:00 PM 3.84 38.912 0.176 6.97 -0.33 12.86
12/24/2021 5:45:00 PM 3.83 38.894 0.176 6.97 -0.19 12.82
12/24/2021 6:00:00 PM 3.82 38.876 0.176 6.96 -0.22 12.78
12/24/2021 6:15:00 PM 3.8 38.84 0.176 6.95 -0.27 12.77
12/24/2021 6:30:00 PM 3.78 38.804 0.176 6.95 -0.26 12.75
12/24/2021 6:45:00 PM 3.77 38.786 0.176 6.94 -0.31 12.71
12/24/2021 7:00:00 PM 3.74 38.732 0.176 6.94 -0.3 12.7
12/24/2021 7:15:00 PM 3.71 38.678 0.176 6.93 -0.23 12.68
12/24/2021 7:30:00 PM 3.69 38.642 0.176 6.93 -0.09 12.68
12/24/2021 7:45:00 PM 3.67 38.606 0.176 6.94 -0.14 12.65
12/24/2021 8:00:00 PM 3.63 38.534 0.176 6.94 -0.05 12.65
12/24/2021 8:15:00 PM 3.6 38.48 0.176 6.94 -0.13 12.65
12/24/2021 8:30:00 PM 3.56 38.408 0.176 6.93 -0.34 12.66
12/24/2021 8:45:00 PM 3.53 38.354 0.176 6.93 -0.29 12.65
12/24/2021 9:00:00 PM 3.51 38.318 0.176 6.93 0.04 12.64
12/24/2021 9:15:00 PM 3.49 38.282 0.176 6.92 -0.01 12.64
12/24/2021 9:30:00 PM 3.49 38.282 0.176 6.92 -0.04 12.64
12/24/2021 9:45:00 PM 3.48 38.264 0.176 6.91 -0.26 12.63
12/24/2021 10:00:00 PM 3.47 38.246 0.176 6.92 -0.21 12.63
12/24/2021 10:15:00 PM 3.47 38.246 0.176 6.9 -0.14 12.61
12/24/2021 10:30:00 PM 3.46 38.228 0.176 6.89 -0.13 12.63
12/24/2021 10:45:00 PM 3.45 38.21 0.176 6.9 -0.21 12.59
12/24/2021 11:00:00 PM 3.45 38.21 0.176 6.89 0.91 12.61
12/24/2021 11:15:00 PM 3.45 38.21 0.176 6.89 -0.15 12.61
12/24/2021 11:30:00 PM 3.45 38.21 0.176 6.89 -0.15 12.58
12/24/2021 11:45:00 PM 3.46 38.228 0.176 6.88 -0.22 12.6
12/25/2021 12:00:00 AM 3.46 38.228 0.176 6.88 -0.22 12.58
12/25/2021 12:15:00 AM 3.47 38.246 0.176 6.88 -0.3 12.57
12/25/2021 12:30:00 AM 3.48 38.264 0.176 6.89 -0.33 12.57
12/25/2021 12:45:00 AM 3.49 38.282 0.176 6.89 -0.04 12.56
12/25/2021 1:00:00 AM 3.5 38.3 0.176 6.9 -0.03 12.54
12/25/2021 1:15:00 AM 3.51 38.318 0.176 6.9 0.12 12.56
12/25/2021 1:30:00 AM 3.52 38.336 0.176 6.9 -0.16 12.53
12/25/2021 1:45:00 AM 3.53 38.354 0.176 6.89 -0.02 12.55
12/25/2021 2:00:00 AM 3.55 38.39 0.176 6.89 -0.16 12.51
12/25/2021 2:15:00 AM 3.57 38.426 0.176 6.9 -0.26 12.5
12/25/2021 2:30:00 AM 3.59 38.462 0.176 6.89 -0.34 12.5
12/25/2021 2:45:00 AM 3.61 38.498 0.176 6.89 -0.34 12.5
12/25/2021 3:00:00 AM 3.63 38.534 0.176 6.89 -0.25 12.48
12/25/2021 3:15:00 AM 3.65 38.57 0.176 6.89 -0.2 12.48
12/25/2021 3:30:00 AM 3.68 38.624 0.176 6.89 -0.16 12.45
12/25/2021 3:45:00 AM 3.7 38.66 0.176 6.89 -0.03 12.45
12/25/2021 4:00:00 AM 3.72 38.696 0.176 6.88 -0.3 12.44
12/25/2021 4:15:00 AM 3.75 38.75 0.176 6.88 -0.14 12.39
12/25/2021 4:30:00 AM 3.77 38.786 0.176 6.88 -0.2 12.41
12/25/2021 4:45:00 AM 3.8 38.84 0.176 6.88 -0.11 12.41
12/25/2021 5:00:00 AM 3.83 38.894 0.176 6.88 -0.09 12.39
12/25/2021 5:15:00 AM 3.85 38.93 0.176 6.89 0.31 12.37
12/25/2021 5:30:00 AM 3.88 38.984 0.176 6.89 -0.06 12.37
12/25/2021 5:45:00 AM 3.9 39.02 0.176 6.89 -0.15 12.35
12/25/2021 6:00:00 AM 3.92 39.056 0.176 6.89 -0.04 12.32
12/25/2021 6:15:00 AM 3.95 39.11 0.176 6.9 -0.28 12.32
12/25/2021 6:30:00 AM 3.97 39.146 0.176 6.89 -0.2 12.31
12/25/2021 6:45:00 AM 4 39.2 0.176 6.89 -0.08 12.29
12/25/2021 7:00:00 AM 4.02 39.236 0.176 6.89 -0.16 12.28
12/25/2021 7:15:00 AM 4.05 39.29 0.176 6.89 -0.08 12.26
12/25/2021 7:30:00 AM 4.08 39.344 0.176 6.88 -0.12 12.26
12/25/2021 7:45:00 AM 4.1 39.38 0.176 6.88 -0.13 12.26
12/25/2021 8:00:00 AM 4.13 39.434 0.176 6.88 -0.01 12.24
12/25/2021 8:15:00 AM 4.16 39.488 0.176 6.89 -0.11 12.23
12/25/2021 8:30:00 AM 4.2 39.56 0.176 6.88 -0.2 12.25
12/25/2021 8:45:00 AM 4.23 39.614 0.176 6.88 -0.04 12.27
12/25/2021 9:00:00 AM 4.26 39.668 0.176 6.89 -0.17 12.28
12/25/2021 9:15:00 AM 4.3 39.74 0.176 6.89 -0.05 12.3
12/25/2021 9:30:00 AM 4.34 39.812 0.176 6.89 -0.28 12.32
12/25/2021 9:45:00 AM 4.38 39.884 0.176 6.89 -0.25 12.32
12/25/2021 10:00:00 AM 4.43 39.974 0.176 6.9 -0.27 12.35
12/25/2021 10:15:00 AM 4.5 40.1 0.176 6.9 -0.33 12.36
12/25/2021 10:30:00 AM 4.58 40.244 0.176 6.91 -0.16 12.42
12/25/2021 10:45:00 AM 4.65 40.37 0.176 6.92 -0.14 12.46
12/25/2021 11:00:00 AM 4.71 40.478 0.176 6.92 -0.01 12.42
12/25/2021 11:15:00 AM 4.77 40.586 0.176 6.93 -0.09 12.41
12/25/2021 11:30:00 AM 4.85 40.73 0.176 6.92 -0.2 12.39
12/25/2021 11:45:00 AM 4.91 40.838 0.176 6.93 -0.26 12.39
12/25/2021 12:00:00 PM 4.98 40.964 0.176 6.93 -0.15 12.4
12/25/2021 12:15:00 PM 5.06 41.108 0.176 6.94 -0.21 12.38
12/25/2021 12:30:00 PM 5.13 41.234 0.176 6.95 -0.09 12.39
12/25/2021 12:45:00 PM 5.23 41.414 0.176 6.95 0.11 12.4
12/25/2021 1:00:00 PM 5.34 41.612 0.176 6.96 0.1 12.41
12/25/2021 1:15:00 PM 5.49 41.882 0.175 6.97 -0.07 12.41
12/25/2021 1:30:00 PM 5.58 42.044 0.175 6.98 -0.26 12.42
12/25/2021 1:45:00 PM 5.79 42.422 0.175 6.98 0.11 12.39
12/25/2021 2:00:00 PM 5.97 42.746 0.176 6.98 0.01 12.37
12/25/2021 2:15:00 PM 5.99 42.782 0.176 6.99 -0.19 12.38
12/25/2021 2:30:00 PM 6.02 42.836 0.176 7 -0.06 12.29
12/25/2021 2:45:00 PM 6.03 42.854 0.176 7.01 -0.17 12.22
12/25/2021 3:00:00 PM 6.05 42.89 0.176 7.01 -0.08 12.15
12/25/2021 3:15:00 PM 6.08 42.944 0.176 7 -0.1 12.08
12/25/2021 3:30:00 PM 6.11 42.998 0.176 7.01 -0.06 12.03
12/25/2021 3:45:00 PM 6.17 43.106 0.176 7.01 -0.08 11.98
12/25/2021 4:00:00 PM 6.19 43.142 0.176 7.01 0.13 11.92
12/25/2021 4:15:00 PM 6.21 43.178 0.176 7 -0.03 11.88
12/25/2021 4:30:00 PM 6.24 43.232 0.176 7 -0.1 11.81
12/25/2021 4:45:00 PM 6.28 43.304 0.176 7 0.03 11.75
12/25/2021 5:00:00 PM 6.29 43.322 0.176 7 0.03 11.7
12/25/2021 5:15:00 PM 6.31 43.358 0.17 6.99 -0.19 11.66
12/25/2021 5:30:00 PM 6.34 43.412 0.175 6.99 0.02 11.64
12/25/2021 5:45:00 PM 6.35 43.43 0.175 6.99 0.14 11.59
12/25/2021 6:00:00 PM 6.36 43.448 0.175 6.99 0.4 11.57
12/25/2021 6:15:00 PM 6.35 43.43 0.171 6.99 -0.02 11.54
12/25/2021 6:30:00 PM 6.38 43.484 0.17 6.98 -0.19 11.52
12/25/2021 6:45:00 PM 6.4 43.52 0.169 6.97 0.07 11.49
12/25/2021 7:00:00 PM 6.4 43.52 0.171 6.96 -0.12 11.47
12/25/2021 7:15:00 PM 6.42 43.556 0.17 6.95 0.21 11.44
12/25/2021 7:30:00 PM 6.44 43.592 0.169 6.96 0.7 11.44
12/25/2021 7:45:00 PM 6.46 43.628 0.168 6.95 0.14 11.39
12/25/2021 8:00:00 PM 6.46 43.628 0.174 6.96 -0.11 11.41
12/25/2021 8:15:00 PM 6.47 43.646 0.174 6.95 0.09 11.41
12/25/2021 8:30:00 PM 6.48 43.664 0.174 6.95 0.27 11.38
12/25/2021 8:45:00 PM 6.47 43.646 0.174 6.95 0.13 11.37
12/25/2021 9:00:00 PM 6.47 43.646 0.174 6.95 0.16 11.36
12/25/2021 9:15:00 PM 6.47 43.646 0.174 6.94 0.18 11.37
12/25/2021 9:30:00 PM 6.45 43.61 0.174 6.94 0.16 11.31
12/25/2021 9:45:00 PM 6.45 43.61 0.174 6.93 1.74 11.34
12/25/2021 10:00:00 PM 6.45 43.61 0.174 6.93 1.31 11.34
12/25/2021 10:15:00 PM 6.44 43.592 0.174 6.93 0.26 11.34
12/25/2021 10:30:00 PM 6.42 43.556 0.174 6.92 -0.05 11.31
12/25/2021 10:45:00 PM 6.41 43.538 0.174 6.92 0.53 11.33
12/25/2021 11:00:00 PM 6.39 43.502 0.174 6.93 0.06 11.32
12/25/2021 11:15:00 PM 6.37 43.466 0.174 6.93 0.33 11.32
12/25/2021 11:30:00 PM 6.35 43.43 0.174 6.93 -0.03 11.32
12/25/2021 11:45:00 PM 6.34 43.412 0.174 6.93 0.05 11.3
12/26/2021 12:00:00 AM 6.32 43.376 0.174 6.92 0.2 11.33
12/26/2021 12:15:00 AM 6.29 43.322 0.174 6.92 -0.14 11.32
12/26/2021 12:30:00 AM 6.26 43.268 0.174 6.91 0.48 11.31
12/26/2021 12:45:00 AM 6.24 43.232 0.174 6.92 0.21 11.32
12/26/2021 1:00:00 AM 6.21 43.178 0.174 6.91 0.04 11.32
12/26/2021 1:15:00 AM 6.18 43.124 0.174 6.91 -0.06 11.34
12/26/2021 1:30:00 AM 6.15 43.07 0.175 6.92 0.04 11.36
12/26/2021 1:45:00 AM 6.12 43.016 0.175 6.91 0.13 11.36
12/26/2021 2:00:00 AM 6.09 42.962 0.175 6.91 -0.03 11.37
12/26/2021 2:15:00 AM 6.05 42.89 0.175 6.9 -0.13 11.39
12/26/2021 2:30:00 AM 6.02 42.836 0.175 6.91 0.16 11.4
12/26/2021 2:45:00 AM 5.99 42.782 0.175 6.91 0.28 11.4
12/26/2021 3:00:00 AM 5.95 42.71 0.175 6.92 0.28 11.42
12/26/2021 3:15:00 AM 5.92 42.656 0.175 6.92 0.23 11.42
12/26/2021 3:30:00 AM 5.88 42.584 0.175 6.91 -0.13 11.44
12/26/2021 3:45:00 AM 5.85 42.53 0.175 6.91 0.14 11.44
12/26/2021 4:00:00 AM 5.81 42.458 0.175 6.91 0.09 11.47
12/26/2021 4:15:00 AM 5.77 42.386 0.175 6.91 0.04 11.48
12/26/2021 4:30:00 AM 5.73 42.314 0.175 6.91 0.26 11.48
12/26/2021 4:45:00 AM 5.69 42.242 0.175 6.9 -0.07 11.5
12/26/2021 5:00:00 AM 5.68 42.224 0.175 6.91 0.01 11.52
12/26/2021 5:15:00 AM 5.66 42.188 0.175 6.91 -0.05 11.55
12/26/2021 5:30:00 AM 5.65 42.17 0.175 6.91 -0.06 11.54
12/26/2021 5:45:00 AM 5.64 42.152 0.175 6.92 -0.09 11.55
12/26/2021 6:00:00 AM 5.62 42.116 0.175 6.92 -0.1 11.58
12/26/2021 6:15:00 AM 5.61 42.098 0.175 6.92 0.17 11.57
12/26/2021 6:30:00 AM 5.59 42.062 0.175 6.92 1.4 11.57
12/26/2021 6:45:00 AM 5.57 42.026 0.175 6.92 -0.13 11.59
12/26/2021 7:00:00 AM 5.53 41.954 0.175 6.92 0.01 11.61
12/26/2021 7:15:00 AM 5.5 41.9 0.175 6.92 -0.01 11.63
12/26/2021 7:30:00 AM 5.47 41.846 0.175 6.92 0.24 11.63
12/26/2021 7:45:00 AM 5.43 41.774 0.175 6.92 0.09 11.67
12/26/2021 8:00:00 AM 5.4 41.72 0.175 6.92 0.05 11.7
12/26/2021 8:15:00 AM 5.37 41.666 0.175 6.92 -0.02 11.73
12/26/2021 8:30:00 AM 5.34 41.612 0.175 6.93 0.11 11.78
12/26/2021 8:45:00 AM 5.31 41.558 0.175 6.92 -0.01 11.81
12/26/2021 9:00:00 AM 5.31 41.558 0.175 6.93 0.04 11.85
12/26/2021 9:15:00 AM 5.3 41.54 0.175 6.91 0.08 11.88
12/26/2021 9:30:00 AM 5.32 41.576 0.175 6.91 1.07 11.92
12/26/2021 9:45:00 AM 5.34 41.612 0.175 6.92 0.06 11.95
12/26/2021 10:00:00 AM 5.37 41.666 0.175 6.92 0.01 11.99
12/26/2021 10:15:00 AM 5.41 41.738 0.175 6.92 0.08 12.04
12/26/2021 10:30:00 AM 5.44 41.792 0.175 6.93 0.13 12.08
12/26/2021 10:45:00 AM 5.52 41.936 0.175 6.93 -0.02 12.09
12/26/2021 11:00:00 AM 5.62 42.116 0.175 6.94 0.12 12.14
12/26/2021 11:15:00 AM 5.76 42.368 0.175 6.96 0.01 12.16
12/26/2021 11:30:00 AM 5.86 42.548 0.175 6.96 -0.01 12.19
12/26/2021 11:45:00 AM 5.97 42.746 0.175 6.97 0.22 12.21
12/26/2021 12:00:00 PM 6.08 42.944 0.175 6.98 0.01 12.23
12/26/2021 12:15:00 PM 6.18 43.124 0.175 6.99 -0.03 12.23
12/26/2021 12:30:00 PM 6.29 43.322 0.175 7 -0.08 12.23
12/26/2021 12:45:00 PM 6.43 43.574 0.175 7.01 0.05 12.21
12/26/2021 1:00:00 PM 6.6 43.88 0.175 7.01 -0.05 12.21
12/26/2021 1:15:00 PM 6.77 44.186 0.175 7.02 -0.07 12.2
12/26/2021 1:30:00 PM 6.87 44.366 0.175 7.02 0.29 12.19
12/26/2021 1:45:00 PM 7.02 44.636 0.174 7.03 0.12 12.17
12/26/2021 2:00:00 PM 7.01 44.618 0.175 7.03 -0.1 12.14
12/26/2021 2:15:00 PM 7.02 44.636 0.175 7.03 0.01 12.13
12/26/2021 2:30:00 PM 7 44.6 0.175 7.03 -0.01 12.09
12/26/2021 2:45:00 PM 7.02 44.636 0.175 7.04 0.15 12.06
12/26/2021 3:00:00 PM 7.01 44.618 0.175 7.04 0.12 11.99
12/26/2021 3:15:00 PM 6.98 44.564 0.175 7.05 -0.1 11.95
12/26/2021 3:30:00 PM 6.97 44.546 0.175 7.05 0.05 11.89
12/26/2021 3:45:00 PM 6.94 44.492 0.175 7.05 0.12 11.86
12/26/2021 4:00:00 PM 6.9 44.42 0.175 7.05 0.03 11.84
12/26/2021 4:15:00 PM 6.85 44.33 0.175 7.04 -0.09 11.82
12/26/2021 4:30:00 PM 6.8 44.24 0.175 7.04 -0.01 11.79
12/26/2021 4:45:00 PM 6.75 44.15 0.175 7.04 0 11.79
12/26/2021 5:00:00 PM 6.69 44.042 0.175 7.04 0.03 11.77
12/26/2021 5:15:00 PM 6.62 43.916 0.175 7.03 -0.09 11.72
12/26/2021 5:30:00 PM 6.54 43.772 0.175 7.02 -0.05 11.71
12/26/2021 5:45:00 PM 6.48 43.664 0.175 7.02 0.1 11.66
12/26/2021 6:00:00 PM 6.41 43.538 0.175 7.02 0.18 11.65
12/26/2021 6:15:00 PM 6.32 43.376 0.175 7.02 0.39 11.63
12/26/2021 6:30:00 PM 6.25 43.25 0.175 7.01 0.09 11.65
12/26/2021 6:45:00 PM 6.14 43.052 0.175 7.01 0.03 11.64
12/26/2021 7:00:00 PM 6.07 42.926 0.175 7 0.16 11.64
12/26/2021 7:15:00 PM 5.98 42.764 0.175 7 0.04 11.65
12/26/2021 7:30:00 PM 5.89 42.602 0.175 7 0.14 11.66
12/26/2021 7:45:00 PM 5.81 42.458 0.175 7 0.22 11.68
12/26/2021 8:00:00 PM 5.72 42.296 0.175 6.99 0.03 11.71
12/26/2021 8:15:00 PM 5.65 42.17 0.175 6.98 0.4 11.72
12/26/2021 8:30:00 PM 5.57 42.026 0.175 6.96 0.04 11.74
12/26/2021 8:45:00 PM 5.51 41.918 0.175 6.95 0.09 11.77
12/26/2021 9:00:00 PM 5.44 41.792 0.175 6.96 -0.15 11.76
12/26/2021 9:15:00 PM 5.36 41.648 0.175 6.95 0.17 11.8
12/26/2021 9:30:00 PM 5.29 41.522 0.175 6.95 0.93 11.83
12/26/2021 9:45:00 PM 5.23 41.414 0.176 6.96 0.63 11.85
12/26/2021 10:00:00 PM 5.16 41.288 0.176 6.95 -0.12 11.85
12/26/2021 10:15:00 PM 5.1 41.18 0.176 6.95 -0.02 11.89
12/26/2021 10:30:00 PM 5.03 41.054 0.176 6.95 0.71 11.9
12/26/2021 10:45:00 PM 4.96 40.928 0.176 6.95 -0.22 11.93
12/26/2021 11:00:00 PM 4.9 40.82 0.176 6.95 0.31 11.96
12/26/2021 11:15:00 PM 4.85 40.73 0.176 6.94 -0.17 11.96
12/26/2021 11:30:00 PM 4.81 40.658 0.175 6.92 0.02 11.96
12/26/2021 11:45:00 PM 4.74 40.532 0.176 6.92 0.03 12
12/27/2021 12:00:00 AM 4.72 40.496 0.174 6.93 -0.06 12
12/27/2021 12:15:00 AM 4.68 40.424 0.168 6.93 0.01 12.03
12/27/2021 12:30:00 AM 4.62 40.316 0.169 6.93 0 12.06
12/27/2021 12:45:00 AM 4.6 40.28 0.163 6.93 0 12.08
12/27/2021 1:00:00 AM 4.54 40.172 0.172 6.93 0.16 12.09
12/27/2021 1:15:00 AM 4.5 40.1 0.176 6.92 0.28 12.1
12/27/2021 1:30:00 AM 4.44 39.992 0.176 6.93 0.21 12.12
12/27/2021 1:45:00 AM 4.39 39.902 0.176 6.93 -0.04 12.14
12/27/2021 2:00:00 AM 4.35 39.83 0.176 6.93 0.05 12.14
12/27/2021 2:15:00 AM 4.29 39.722 0.176 6.93 0.05 12.16
12/27/2021 2:30:00 AM 4.26 39.668 0.176 6.91 -0.05 12.18
12/27/2021 2:45:00 AM 4.21 39.578 0.176 6.91 -0.05 12.19
12/27/2021 3:00:00 AM 4.18 39.524 0.176 6.91 -0.12 12.22
12/27/2021 3:15:00 AM 4.15 39.47 0.176 6.91 -0.34 12.24
12/27/2021 3:30:00 AM 4.12 39.416 0.176 6.91 0.06 12.24
12/27/2021 3:45:00 AM 4.09 39.362 0.176 6.91 0.07 12.28
12/27/2021 4:00:00 AM 4.08 39.344 0.176 6.91 -0.16 12.27
12/27/2021 4:15:00 AM 4.03 39.254 0.176 6.9 -0.1 12.28
12/27/2021 4:30:00 AM 4.02 39.236 0.176 6.9 -0.03 12.31
12/27/2021 4:45:00 AM 4 39.2 0.167 6.9 -0.09 12.31
12/27/2021 5:00:00 AM 3.99 39.182 0.176 6.91 -0.08 12.31
12/27/2021 5:15:00 AM 3.97 39.146 0.176 6.9 -0.02 12.33
12/27/2021 5:30:00 AM 3.96 39.128 0.176 6.91 -0.17 12.34
12/27/2021 5:45:00 AM 3.94 39.092 0.177 6.9 0.03 12.35
12/27/2021 6:00:00 AM 3.94 39.092 0.176 6.9 0.5 12.35
12/27/2021 6:15:00 AM 3.93 39.074 0.176 6.9 -0.16 12.34
12/27/2021 6:30:00 AM 3.91 39.038 0.176 6.9 0.46 12.37
12/27/2021 6:45:00 AM 3.93 39.074 0.176 6.9 0.14 12.36
12/27/2021 7:00:00 AM 3.91 39.038 0.176 6.91 0.08 12.36
12/27/2021 7:15:00 AM 3.9 39.02 0.176 6.9 -0.02 12.39
12/27/2021 7:30:00 AM 3.9 39.02 0.176 6.9 -0.16 12.39
12/27/2021 7:45:00 AM 3.89 39.002 0.176 6.9 0.18 12.38
12/27/2021 8:00:00 AM 3.89 39.002 0.176 6.89 -0.22 12.41
12/27/2021 8:15:00 AM 3.89 39.002 0.176 6.89 -0.03 12.41
12/27/2021 8:30:00 AM 3.9 39.02 0.176 6.89 -0.11 12.44
12/27/2021 8:45:00 AM 3.91 39.038 0.176 6.9 -0.09 12.46
12/27/2021 9:00:00 AM 3.93 39.074 0.176 6.9 -0.09 12.49
12/27/2021 9:15:00 AM 3.95 39.11 0.176 6.9 0.06 12.53
12/27/2021 9:30:00 AM 3.97 39.146 0.176 6.9 -0.08 12.55
12/27/2021 9:45:00 AM 4 39.2 0.177 6.9 -0.2 12.58
12/27/2021 10:00:00 AM 4.02 39.236 0.177 6.91 0 12.61
12/27/2021 10:15:00 AM 4.03 39.254 0.177 6.91 -0.08 12.64
12/27/2021 10:30:00 AM 4.04 39.272 0.177 6.92 -0.05 12.66
12/27/2021 10:45:00 AM 4.02 39.236 0.177 6.92 -0.1 12.65
12/27/2021 11:00:00 AM 3.91 39.038 0.177 6.94 -0.04 12.66
12/27/2021 11:15:00 AM 3.76 38.768 0.176 6.95 0.27 12.68
12/27/2021 11:30:00 AM 3.67 38.606 0.176 6.96 -0.07 12.66
12/27/2021 11:45:00 AM 3.51 38.318 0.176 6.96 -0.18 12.7
12/27/2021 12:00:00 PM 3.39 38.102 0.175 6.96 -0.22 12.74
12/27/2021 12:15:00 PM 3.32 37.976 0.175 6.96 -0.14 12.77
12/27/2021 12:30:00 PM 3.29 37.922 0.175 6.95 -0.06 12.83
12/27/2021 12:45:00 PM 3.32 37.976 0.175 6.95 -0.14 12.84
12/27/2021 1:00:00 PM 3.36 38.048 0.174 6.94 -0.2 12.89
12/27/2021 1:15:00 PM 3.41 38.138 0.174 6.94 -0.08 12.91
12/27/2021 1:30:00 PM 3.45 38.21 0.174 6.93 -0.17 12.97
12/27/2021 1:45:00 PM 3.5 38.3 0.174 6.93 -0.27 13
12/27/2021 2:00:00 PM 3.54 38.372 0.174 6.93 -0.12 13.01
12/27/2021 2:15:00 PM 3.57 38.426 0.174 6.94 -0.17 13.01
12/27/2021 2:30:00 PM 3.59 38.462 0.174 6.94 0.04 13.04
12/27/2021 2:45:00 PM 3.6 38.48 0.174 6.95 0.57 13.03
12/27/2021 3:00:00 PM 3.61 38.498 0.174 6.95 -0.19 13.06
12/27/2021 3:15:00 PM 3.61 38.498 0.174 6.97 -0.29 13.03
12/27/2021 3:30:00 PM 3.62 38.516 0.174 6.97 -0.1 13.02
12/27/2021 3:45:00 PM 3.61 38.498 0.174 6.97 -0.07 13.01
12/27/2021 4:00:00 PM 3.61 38.498 0.174 6.97 -0.22 12.97
12/27/2021 4:15:00 PM 3.6 38.48 0.174 6.97 -0.05 12.93
12/27/2021 4:30:00 PM 3.59 38.462 0.174 6.97 -0.16 12.92
12/27/2021 4:45:00 PM 3.6 38.48 0.174 6.97 0.01 12.87
12/27/2021 5:00:00 PM 3.6 38.48 0.174 6.96 -0.17 12.83
12/27/2021 5:15:00 PM 3.6 38.48 0.174 6.95 0.02 12.79
12/27/2021 5:30:00 PM 3.61 38.498 0.174 6.94 -0.12 12.78
12/27/2021 5:45:00 PM 3.61 38.498 0.174 6.94 -0.08 12.76
12/27/2021 6:00:00 PM 3.62 38.516 0.174 6.94 1.54 12.72
12/27/2021 6:15:00 PM 3.64 38.552 0.174 6.94 -0.18 12.7
12/27/2021 6:30:00 PM 3.65 38.57 0.174 6.94 -0.22 12.68
12/27/2021 6:45:00 PM 3.66 38.588 0.174 6.94 -0.19 12.66
12/27/2021 7:00:00 PM 3.66 38.588 0.174 6.94 0.08 12.63
12/27/2021 7:15:00 PM 3.67 38.606 0.174 6.94 0.16 12.62
12/27/2021 7:30:00 PM 3.67 38.606 0.174 6.94 0.02 12.61
12/27/2021 7:45:00 PM 3.67 38.606 0.174 6.94 0.55 12.6
12/27/2021 8:00:00 PM 3.67 38.606 0.174 6.94 -0.08 12.58
12/27/2021 8:15:00 PM 3.67 38.606 0.174 6.93 -0.2 12.58
12/27/2021 8:30:00 PM 3.67 38.606 0.174 6.93 -0.08 12.57
12/27/2021 8:45:00 PM 3.66 38.588 0.174 6.93 -0.13 12.57
12/27/2021 9:00:00 PM 3.65 38.57 0.174 6.92 0.14 12.55
12/27/2021 9:15:00 PM 3.65 38.57 0.175 6.92 0.04 12.56
12/27/2021 9:30:00 PM 3.64 38.552 0.175 6.91 -0.07 12.56
12/27/2021 9:45:00 PM 3.64 38.552 0.175 6.91 0.05 12.54
12/27/2021 10:00:00 PM 3.63 38.534 0.175 6.92 0.11 12.55
12/27/2021 10:15:00 PM 3.62 38.516 0.175 6.92 -0.27 12.55
12/27/2021 10:30:00 PM 3.61 38.498 0.175 6.92 -0.12 12.54
12/27/2021 10:45:00 PM 3.61 38.498 0.175 6.92 -0.18 12.55
12/27/2021 11:00:00 PM 3.6 38.48 0.174 6.92 -0.15 12.55
12/27/2021 11:15:00 PM 3.59 38.462 0.174 6.91 0.21 12.55
12/27/2021 11:30:00 PM 3.59 38.462 0.174 6.91 -0.05 12.54
12/27/2021 11:45:00 PM 3.59 38.462 0.174 6.91 -0.08 12.55
12/28/2021 12:00:00 AM 3.58 38.444 0.174 6.91 -0.14 12.53
12/28/2021 12:15:00 AM 3.57 38.426 0.174 6.9 -0.2 12.55
12/28/2021 12:30:00 AM 3.57 38.426 0.174 6.9 0 12.53
12/28/2021 12:45:00 AM 3.57 38.426 0.174 6.9 0 12.51
12/28/2021 1:00:00 AM 3.57 38.426 0.174 6.91 0.01 12.53
12/28/2021 1:15:00 AM 3.57 38.426 0.174 6.91 -0.07 12.52
12/28/2021 1:30:00 AM 3.58 38.444 0.174 6.91 0 12.51
12/28/2021 1:45:00 AM 3.58 38.444 0.174 6.91 0 12.51
12/28/2021 2:00:00 AM 3.57 38.426 0.174 6.91 0 12.52
12/28/2021 2:15:00 AM 3.56 38.408 0.173 6.91 0.12 12.53
12/28/2021 2:30:00 AM 3.55 38.39 0.174 6.91 0.16 12.52
12/28/2021 2:45:00 AM 3.55 38.39 0.174 6.91 -0.28 12.52
12/28/2021 3:00:00 AM 3.53 38.354 0.174 6.9 -0.08 12.52
12/28/2021 3:15:00 AM 3.51 38.318 0.174 6.91 -0.17 12.53
12/28/2021 3:30:00 AM 3.49 38.282 0.174 6.89 0.09 12.5
12/28/2021 3:45:00 AM 3.46 38.228 0.174 6.89 -0.1 12.53
12/28/2021 4:00:00 AM 3.44 38.192 0.174 6.89 -0.07 12.53
12/28/2021 4:15:00 AM 3.41 38.138 0.174 6.89 -0.12 12.55
12/28/2021 4:30:00 AM 3.39 38.102 0.174 6.89 0 12.57
12/28/2021 4:45:00 AM 3.37 38.066 0.174 6.9 -0.11 12.57
12/28/2021 5:00:00 AM 3.35 38.03 0.175 6.9 -0.24 12.57
12/28/2021 5:15:00 AM 3.32 37.976 0.175 6.9 -0.15 12.54
12/28/2021 5:30:00 AM 3.3 37.94 0.175 6.9 -0.05 12.56
12/28/2021 5:45:00 AM 3.28 37.904 0.175 6.9 -0.05 12.58
12/28/2021 6:00:00 AM 3.26 37.868 0.175 6.9 0.46 12.58
12/28/2021 6:15:00 AM 3.24 37.832 0.175 6.9 0.1 12.6
12/28/2021 6:30:00 AM 3.21 37.778 0.175 6.89 -0.11 12.62
12/28/2021 6:45:00 AM 3.17 37.706 0.175 6.9 -0.28 12.6
12/28/2021 7:00:00 AM 3.15 37.67 0.175 6.9 -0.15 12.62
12/28/2021 7:15:00 AM 3.14 37.652 0.175 6.9 -0.22 12.64
12/28/2021 7:30:00 AM 3.11 37.598 0.175 6.89 0.54 12.65
12/28/2021 7:45:00 AM 3.12 37.616 0.175 6.9 -0.07 12.68
12/28/2021 8:00:00 AM 3.13 37.634 0.175 6.89 -0.2 12.69
12/28/2021 8:15:00 AM 3.13 37.634 0.175 6.89 -0.07 12.71
12/28/2021 8:30:00 AM 3.14 37.652 0.175 6.89 -0.17 12.75
12/28/2021 8:45:00 AM 3.15 37.67 0.175 6.88 -0.35 12.78
12/28/2021 9:00:00 AM 3.18 37.724 0.175 6.88 -0.06 12.83
12/28/2021 9:15:00 AM 3.2 37.76 0.175 6.88 -0.17 12.89
12/28/2021 9:30:00 AM 3.23 37.814 0.175 6.88 -0.22 12.93
12/28/2021 9:45:00 AM 3.28 37.904 0.175 6.89 -0.18 12.97
12/28/2021 10:00:00 AM 3.31 37.958 0.175 6.89 -0.21 13
12/28/2021 10:15:00 AM 3.35 38.03 0.175 6.9 0.13 13.03
12/28/2021 10:30:00 AM 3.39 38.102 0.175 6.9 -0.07 13.04
12/28/2021 10:45:00 AM 3.42 38.156 0.175 6.9 -0.13 13.04
12/28/2021 11:00:00 AM 3.45 38.21 0.175 6.91 -0.16 13.04
12/28/2021 11:15:00 AM 3.47 38.246 0.175 6.92 -0.05 13.02
12/28/2021 11:30:00 AM 3.49 38.282 0.175 6.93 -0.23 13.01
12/28/2021 11:45:00 AM 3.52 38.336 0.175 6.94 -0.27 13.01
12/28/2021 12:00:00 PM 3.55 38.39 0.175 6.94 -0.09 12.99
12/28/2021 12:15:00 PM 3.59 38.462 0.175 6.94 0.3 13
12/28/2021 12:30:00 PM 3.65 38.57 0.175 6.94 -0.19 13.01
12/28/2021 12:45:00 PM 3.71 38.678 0.175 6.95 -0.09 13.02
12/28/2021 1:00:00 PM 3.78 38.804 0.175 6.95 -0.15 13.03
12/28/2021 1:15:00 PM 3.85 38.93 0.175 6.94 0.15 13.03
12/28/2021 1:30:00 PM 3.94 39.092 0.175 6.94 0.41 13.05
12/28/2021 1:45:00 PM 4 39.2 0.175 6.95 -0.11 13.04
12/28/2021 2:00:00 PM 4.07 39.326 0.175 6.95 -0.06 13.02
12/28/2021 2:15:00 PM 4.12 39.416 0.175 6.96 -0.23 13.01
12/28/2021 2:30:00 PM 4.16 39.488 0.176 6.95 -0.23 12.97
12/28/2021 2:45:00 PM 4.19 39.542 0.176 6.96 -0.01 12.93
12/28/2021 3:00:00 PM 4.22 39.596 0.176 6.96 -0.2 12.91
12/28/2021 3:15:00 PM 4.25 39.65 0.176 6.97 -0.25 12.89
12/28/2021 3:30:00 PM 4.27 39.686 0.176 6.97 0.02 12.83
12/28/2021 3:45:00 PM 4.3 39.74 0.176 6.98 -0.1 12.77
12/28/2021 4:00:00 PM 4.31 39.758 0.176 6.98 0.11 12.76
12/28/2021 4:15:00 PM 4.34 39.812 0.176 6.98 0.03 12.72
12/28/2021 4:30:00 PM 4.35 39.83 0.176 6.97 0.06 12.68
12/28/2021 4:45:00 PM 4.36 39.848 0.176 6.97 -0.08 12.63
12/28/2021 5:00:00 PM 4.37 39.866 0.176 6.97 -0.11 12.6
12/28/2021 5:15:00 PM 4.38 39.884 0.176 6.97 0.79 12.54
12/28/2021 5:30:00 PM 4.39 39.902 0.176 6.96 -0.09 12.51
12/28/2021 5:45:00 PM 4.4 39.92 0.176 6.96 -0.08 12.48
12/28/2021 6:00:00 PM 4.41 39.938 0.176 6.94 -0.3 12.45
12/28/2021 6:15:00 PM 4.42 39.956 0.176 6.94 -0.11 12.43
12/28/2021 6:30:00 PM 4.43 39.974 0.176 6.95 0.21 12.42
12/28/2021 6:45:00 PM 4.44 39.992 0.176 6.95 0.09 12.38
12/28/2021 7:00:00 PM 4.45 40.01 0.176 6.95 0.26 12.35
12/28/2021 7:15:00 PM 4.46 40.028 0.176 6.94 0.48 12.34
12/28/2021 7:30:00 PM 4.47 40.046 0.176 6.94 0.29 12.32
12/28/2021 7:45:00 PM 4.47 40.046 0.176 6.93 0.37 12.31
12/28/2021 8:00:00 PM 4.48 40.064 0.176 6.93 0.65 12.3
12/28/2021 8:15:00 PM 4.48 40.064 0.176 6.93 0.11 12.27
12/28/2021 8:30:00 PM 4.49 40.082 0.176 6.93 0.19 12.28
12/28/2021 8:45:00 PM 4.49 40.082 0.176 6.93 0.48 12.26
12/28/2021 9:00:00 PM 4.5 40.1 0.176 6.91 0 12.25
12/28/2021 9:15:00 PM 4.51 40.118 0.176 6.92 0.2 12.24
12/28/2021 9:30:00 PM 4.51 40.118 0.176 6.92 0.33 12.23
12/28/2021 9:45:00 PM 4.52 40.136 0.176 6.91 0.16 12.22
12/28/2021 10:00:00 PM 4.53 40.154 0.176 6.91 0.11 12.19
12/28/2021 10:15:00 PM 4.54 40.172 0.176 6.91 0.18 12.19
12/28/2021 10:30:00 PM 4.55 40.19 0.176 6.91 0.04 12.19
12/28/2021 10:45:00 PM 4.55 40.19 0.177 6.91 0.32 12.19
12/28/2021 11:00:00 PM 4.56 40.208 0.177 6.92 -0.07 12.18
12/28/2021 11:15:00 PM 4.57 40.226 0.177 6.92 -0.16 12.17
12/28/2021 11:30:00 PM 4.58 40.244 0.177 6.92 -0.15 12.18
12/28/2021 11:45:00 PM 4.59 40.262 0.177 6.91 -0.02 12.16
12/29/2021 12:00:00 AM 4.6 40.28 0.177 6.91 0.1 12.15
12/29/2021 12:15:00 AM 4.62 40.316 0.177 6.9 -0.11 12.13
12/29/2021 12:30:00 AM 4.63 40.334 0.177 6.9 0.33 12.11
12/29/2021 12:45:00 AM 4.64 40.352 0.177 6.91 -0.17 12.09
12/29/2021 1:00:00 AM 4.65 40.37 0.177 6.9 0.02 12.1
12/29/2021 1:15:00 AM 4.67 40.406 0.177 6.9 0.7 12.1
12/29/2021 1:30:00 AM 4.68 40.424 0.177 6.91 -0.09 12.08
12/29/2021 1:45:00 AM 4.7 40.46 0.178 6.91 -0.04 12.07
12/29/2021 2:00:00 AM 4.71 40.478 0.178 6.91 0 12.06
12/29/2021 2:15:00 AM 4.73 40.514 0.178 6.91 -0.07 12.07
12/29/2021 2:30:00 AM 4.74 40.532 0.178 6.91 0.03 12.05
12/29/2021 2:45:00 AM 4.75 40.55 0.178 6.91 0 12.04
12/29/2021 3:00:00 AM 4.76 40.568 0.178 6.91 0 12.03
12/29/2021 3:15:00 AM 4.77 40.586 0.178 6.91 1.02 12.03
12/29/2021 3:30:00 AM 4.78 40.604 0.179 6.92 0.2 12.03
12/29/2021 3:45:00 AM 4.79 40.622 0.179 6.92 0.37 12.02
12/29/2021 4:00:00 AM 4.8 40.64 0.179 6.91 -0.08 12.01
12/29/2021 4:15:00 AM 4.81 40.658 0.179 6.91 -0.18 12.01
12/29/2021 4:30:00 AM 4.83 40.694 0.179 6.9 0.14 11.99
12/29/2021 4:45:00 AM 4.84 40.712 0.18 6.91 -0.13 11.99
12/29/2021 5:00:00 AM 4.86 40.748 0.18 6.91 -0.03 12
12/29/2021 5:15:00 AM 4.87 40.766 0.18 6.91 -0.17 11.96
12/29/2021 5:30:00 AM 4.88 40.784 0.18 6.91 0.04 11.98
12/29/2021 5:45:00 AM 4.9 40.82 0.181 6.91 -0.01 11.96
12/29/2021 6:00:00 AM 4.91 40.838 0.181 6.91 -0.06 11.96
12/29/2021 6:15:00 AM 4.92 40.856 0.181 6.91 -0.07 11.96
12/29/2021 6:30:00 AM 4.93 40.874 0.182 6.91 0.44 11.94
12/29/2021 6:45:00 AM 4.94 40.892 0.182 6.91 0.6 11.95
12/29/2021 7:00:00 AM 4.95 40.91 0.182 6.9 -0.1 11.94
12/29/2021 7:15:00 AM 4.96 40.928 0.182 6.9 -0.19 11.95
12/29/2021 7:30:00 AM 4.97 40.946 0.183 6.91 0 11.96
12/29/2021 7:45:00 AM 4.98 40.964 0.183 6.91 1 11.95
12/29/2021 8:00:00 AM 4.99 40.982 0.183 6.91 0.64 11.96
12/29/2021 8:15:00 AM 5 41 0.184 6.91 0.3 11.93
12/29/2021 8:30:00 AM 5.01 41.018 0.184 6.9 -0.05 11.97
12/29/2021 8:45:00 AM 5.03 41.054 0.185 6.9 0 11.99
12/29/2021 9:00:00 AM 5.06 41.108 0.185 6.91 -0.18 12.03
12/29/2021 9:15:00 AM 5.09 41.162 0.186 6.91 -0.16 12.07
12/29/2021 9:30:00 AM 5.12 41.216 0.186 6.91 -0.21 12.11
12/29/2021 9:45:00 AM 5.17 41.306 0.186 6.93 0 12.15
12/29/2021 10:00:00 AM 5.23 41.414 0.187 6.93 0 12.2
12/29/2021 10:15:00 AM 5.28 41.504 0.187 6.94 -0.14 12.25
12/29/2021 10:30:00 AM 5.35 41.63 0.188 6.95 -0.05 12.27
12/29/2021 10:45:00 AM 5.41 41.738 0.188 6.95 -0.07 12.31
12/29/2021 11:00:00 AM 5.5 41.9 0.189 6.96 0.01 12.33
12/29/2021 11:15:00 AM 5.57 42.026 0.189 6.95 0.16 12.36
12/29/2021 11:30:00 AM 5.65 42.17 0.19 6.96 0.02 12.36
12/29/2021 11:45:00 AM 5.73 42.314 0.19 6.97 0.41 12.38
12/29/2021 12:00:00 PM 5.89 42.602 0.19 6.98 0.31 12.4
12/29/2021 12:15:00 PM 5.97 42.746 0.191 6.99 0.23 12.41
12/29/2021 12:30:00 PM 6.04 42.872 0.191 6.98 -0.08 12.42
12/29/2021 12:45:00 PM 6.14 43.052 0.191 7 -0.09 12.38
12/29/2021 1:00:00 PM 6.2 43.16 0.191 7.01 -0.12 12.38
12/29/2021 1:15:00 PM 6.24 43.232 0.192 7.01 -0.03 12.35
12/29/2021 1:30:00 PM 6.34 43.412 0.192 7.02 -0.02 12.31
12/29/2021 1:45:00 PM 6.38 43.484 0.192 7.01 0.21 12.34
12/29/2021 2:00:00 PM 6.41 43.538 0.192 7.02 0 12.31
12/29/2021 2:15:00 PM 6.48 43.664 0.192 7.02 0.08 12.27
12/29/2021 2:30:00 PM 6.53 43.754 0.192 7.03 -0.01 12.25
12/29/2021 2:45:00 PM 6.59 43.862 0.192 7.03 0.01 12.24
12/29/2021 3:00:00 PM 6.66 43.988 0.192 7.04 0.89 12.22
12/29/2021 3:15:00 PM 6.69 44.042 0.192 7.04 0 12.19
12/29/2021 3:30:00 PM 6.7 44.06 0.192 7.04 0.3 12.16
12/29/2021 3:45:00 PM 6.72 44.096 0.192 7.03 -0.06 12.1
12/29/2021 4:00:00 PM 6.72 44.096 0.192 7.03 0.01 12.09
12/29/2021 4:15:00 PM 6.7 44.06 0.192 7.03 0.24 12.07
12/29/2021 4:30:00 PM 6.68 44.024 0.192 7.03 0.15 12.01
12/29/2021 4:45:00 PM 6.66 43.988 0.192 7.03 0.19 11.96
12/29/2021 5:00:00 PM 6.63 43.934 0.192 7.03 0.17 11.91
12/29/2021 5:15:00 PM 6.6 43.88 0.192 7.03 0.19 11.84
12/29/2021 5:30:00 PM 6.58 43.844 0.192 7.02 0 11.78
12/29/2021 5:45:00 PM 6.55 43.79 0.191 7.02 0.19 11.73
12/29/2021 6:00:00 PM 6.53 43.754 0.191 7.02 0.72 11.7
12/29/2021 6:15:00 PM 6.51 43.718 0.191 7.02 0.4 11.67
12/29/2021 6:30:00 PM 6.49 43.682 0.191 7.01 0.79 11.66
12/29/2021 6:45:00 PM 6.47 43.646 0.191 7 0.99 11.63
12/29/2021 7:00:00 PM 6.45 43.61 0.191 7 0.86 11.62
12/29/2021 7:15:00 PM 6.43 43.574 0.19 7 0.74 11.61
12/29/2021 7:30:00 PM 6.41 43.538 0.19 6.99 0.69 11.59
12/29/2021 7:45:00 PM 6.39 43.502 0.19 6.98 0.46 11.58
12/29/2021 8:00:00 PM 6.37 43.466 0.19 6.98 0.33 11.57
12/29/2021 8:15:00 PM 6.34 43.412 0.19 6.98 0.32 11.58
12/29/2021 8:30:00 PM 6.32 43.376 0.189 6.98 0.45 11.57
12/29/2021 8:45:00 PM 6.31 43.358 0.189 6.97 0.48 11.57
12/29/2021 9:00:00 PM 6.3 43.34 0.189 6.97 0.09 11.58
12/29/2021 9:15:00 PM 6.28 43.304 0.189 6.96 0.08 11.56
12/29/2021 9:30:00 PM 6.28 43.304 0.189 6.96 0.68 11.56
12/29/2021 9:45:00 PM 6.27 43.286 0.189 6.96 0.55 11.54
12/29/2021 10:00:00 PM 6.25 43.25 0.189 6.95 0.2 11.55
12/29/2021 10:15:00 PM 6.24 43.232 0.188 6.95 0.25 11.55
12/29/2021 10:30:00 PM 6.23 43.214 0.188 6.95 0.09 11.54
12/29/2021 10:45:00 PM 6.23 43.214 0.188 6.94 0.08 11.54
12/29/2021 11:00:00 PM 6.23 43.214 0.188 6.94 0.84 11.54
12/29/2021 11:15:00 PM 6.23 43.214 0.188 6.94 0.12 11.54
12/29/2021 11:30:00 PM 6.22 43.196 0.188 6.94 0.75 11.53
12/29/2021 11:45:00 PM 6.23 43.214 0.182 6.94 0.3 11.53
12/30/2021 12:00:00 AM 6.23 43.214 0.185 6.94 0.3 11.51
12/30/2021 12:15:00 AM 6.23 43.214 0.187 6.94 0.06 11.51
12/30/2021 12:30:00 AM 6.23 43.214 0.187 6.94 0.22 11.54
12/30/2021 12:45:00 AM 6.24 43.232 0.186 6.94 0.04 11.52
12/30/2021 1:00:00 AM 6.24 43.232 0.186 6.95 -0.07 11.5
12/30/2021 1:15:00 AM 6.25 43.25 0.186 6.94 -0.01 11.52
12/30/2021 1:30:00 AM 6.26 43.268 0.185 6.94 0.14 11.52
12/30/2021 1:45:00 AM 6.26 43.268 0.185 6.94 0 11.52
12/30/2021 2:00:00 AM 6.27 43.286 0.184 6.94 0.42 11.51
12/30/2021 2:15:00 AM 6.27 43.286 0.184 6.94 0.04 11.5
12/30/2021 2:30:00 AM 6.28 43.304 0.184 6.94 0.89 11.49
12/30/2021 2:45:00 AM 6.29 43.322 0.184 6.94 0.32 11.48
12/30/2021 3:00:00 AM 6.3 43.34 0.184 6.93 0.05 11.48
12/30/2021 3:15:00 AM 6.3 43.34 0.184 6.93 0.5 11.48
12/30/2021 3:30:00 AM 6.32 43.376 0.182 6.92 0.08 11.47
12/30/2021 3:45:00 AM 6.32 43.376 0.18 6.93 0.14 11.47
12/30/2021 4:00:00 AM 6.33 43.394 0.177 6.92 0.62 11.45
12/30/2021 4:15:00 AM 6.34 43.412 0.177 6.93 0.49 11.46
12/30/2021 4:30:00 AM 6.36 43.448 0.177 6.92 0.04 11.44
12/30/2021 4:45:00 AM 6.37 43.466 0.177 6.92 0.05 11.44
12/30/2021 5:00:00 AM 6.38 43.484 0.177 6.92 0.38 11.43
12/30/2021 5:15:00 AM 6.39 43.502 0.176 6.92 0.4 11.43
12/30/2021 5:30:00 AM 6.4 43.52 0.175 6.92 0.04 11.45
12/30/2021 5:45:00 AM 6.42 43.556 0.174 6.92 0.01 11.43
12/30/2021 6:00:00 AM 6.42 43.556 0.174 6.91 -0.06 11.42
12/30/2021 6:15:00 AM 6.44 43.592 0.174 6.92 -0.14 11.41
12/30/2021 6:30:00 AM 6.45 43.61 0.173 6.92 0.45 11.4
12/30/2021 6:45:00 AM 6.46 43.628 0.175 6.92 0.02 11.42
12/30/2021 7:00:00 AM 6.47 43.646 0.175 6.92 1.48 11.41
12/30/2021 7:15:00 AM 6.48 43.664 0.175 6.91 0.18 11.42
12/30/2021 7:30:00 AM 6.49 43.682 0.175 6.91 0.23 11.41
12/30/2021 7:45:00 AM 6.5 43.7 0.178 6.91 0.08 11.4
12/30/2021 8:00:00 AM 6.51 43.718 0.178 6.91 0.98 11.41
12/30/2021 8:15:00 AM 6.53 43.754 0.178 6.91 0.38 11.39
12/30/2021 8:30:00 AM 6.54 43.772 0.178 6.91 0.22 11.43
12/30/2021 8:45:00 AM 6.57 43.826 0.178 6.91 0.14 11.47
12/30/2021 9:00:00 AM 6.59 43.862 0.18 6.91 0.29 11.5
12/30/2021 9:15:00 AM 6.61 43.898 0.18 6.91 0.1 11.54
12/30/2021 9:30:00 AM 6.63 43.934 0.18 6.92 -0.05 11.54
12/30/2021 9:45:00 AM 6.67 44.006 0.18 6.92 0.42 11.59
12/30/2021 10:00:00 AM 6.7 44.06 0.18 6.93 0.23 11.62
12/30/2021 10:15:00 AM 6.74 44.132 0.181 6.93 0.35 11.67
12/30/2021 10:30:00 AM 6.79 44.222 0.181 6.94 0.14 11.71
12/30/2021 10:45:00 AM 6.83 44.294 0.181 6.94 0.03 11.74
12/30/2021 11:00:00 AM 6.89 44.402 0.181 6.95 0.17 11.77
12/30/2021 11:15:00 AM 6.96 44.528 0.181 6.96 0.13 11.81
12/30/2021 11:30:00 AM 7.02 44.636 0.18 6.97 0.22 11.82
12/30/2021 11:45:00 AM 7.09 44.762 0.18 6.97 0.1 11.85
12/30/2021 12:00:00 PM 7.15 44.87 0.18 6.98 0.26 11.86
12/30/2021 12:15:00 PM 7.25 45.05 0.18 6.98 0.04 11.87
12/30/2021 12:30:00 PM 7.33 45.194 0.18 6.99 0.49 11.9
12/30/2021 12:45:00 PM 7.4 45.32 0.18 7 0.67 11.89
12/30/2021 1:00:00 PM 7.46 45.428 0.18 7 0.19 11.88
12/30/2021 1:15:00 PM 7.51 45.518 0.18 7.01 0.32 11.85
12/30/2021 1:30:00 PM 7.56 45.608 0.18 7.02 0.58 11.82
12/30/2021 1:45:00 PM 7.61 45.698 0.18 7.03 0.18 11.82
12/30/2021 2:00:00 PM 7.64 45.752 0.18 7.03 0.45 11.79
12/30/2021 2:15:00 PM 7.67 45.806 0.18 7.03 0.32 11.75
12/30/2021 2:30:00 PM 7.71 45.878 0.18 7.03 0.61 11.72
12/30/2021 2:45:00 PM 7.73 45.914 0.18 7.04 0.29 11.69
12/30/2021 3:00:00 PM 7.75 45.95 0.18 7.04 0.2 11.63
12/30/2021 3:15:00 PM 7.78 46.004 0.18 7.04 0.31 11.6
12/30/2021 3:30:00 PM 7.8 46.04 0.18 7.04 0.16 11.56
12/30/2021 3:45:00 PM 7.81 46.058 0.181 7.04 0.27 11.49
12/30/2021 4:00:00 PM 7.83 46.094 0.181 7.03 0.27 11.46
12/30/2021 4:15:00 PM 7.83 46.094 0.18 7.03 0.01 11.44
12/30/2021 4:30:00 PM 7.84 46.112 0.181 7.04 0.07 11.4
12/30/2021 4:45:00 PM 7.84 46.112 0.18 7.03 0.2 11.37
12/30/2021 5:00:00 PM 7.83 46.094 0.181 7.03 0.23 11.31
12/30/2021 5:15:00 PM 7.83 46.094 0.18 7.02 0.32 11.29
12/30/2021 5:30:00 PM 7.81 46.058 0.18 7.02 0.16 11.26
12/30/2021 5:45:00 PM 7.8 46.04 0.179 7.01 0.13 11.2
12/30/2021 6:00:00 PM 7.79 46.022 0.179 7.01 0.23 11.18
12/30/2021 6:15:00 PM 7.78 46.004 0.18 7 0.25 11.16
12/30/2021 6:30:00 PM 7.77 45.986 0.18 6.99 0.78 11.16
12/30/2021 6:45:00 PM 7.76 45.968 0.18 6.98 0.21 11.15
12/30/2021 7:00:00 PM 7.75 45.95 0.18 6.98 1.02 11.11
12/30/2021 7:15:00 PM 7.75 45.95 0.18 6.98 0.95 11.09
12/30/2021 7:30:00 PM 7.74 45.932 0.18 6.97 0.44 11.07
12/30/2021 7:45:00 PM 7.74 45.932 0.18 6.97 0.46 11.07
12/30/2021 8:00:00 PM 7.73 45.914 0.18 6.96 1.09 11.05
12/30/2021 8:15:00 PM 7.73 45.914 0.179 6.96 0.33 11.06
12/30/2021 8:30:00 PM 7.72 45.896 0.177 6.96 0.91 11.06
12/30/2021 8:45:00 PM 7.71 45.878 0.18 6.95 0.56 11.04
12/30/2021 9:00:00 PM 7.71 45.878 0.173 6.95 2.8 11.04
12/30/2021 9:15:00 PM 7.71 45.878 0.175 6.94 1.32 11.04
12/30/2021 9:30:00 PM 7.71 45.878 0.172 6.94 0.6 11.01
12/30/2021 9:45:00 PM 7.71 45.878 0.17 6.95 1.15 11.03
12/30/2021 10:00:00 PM 7.71 45.878 0.17 6.95 0.3 10.99
12/30/2021 10:15:00 PM 7.71 45.878 0.17 6.94 0.54 11.01
12/30/2021 10:30:00 PM 7.71 45.878 0.17 6.94 0.67 11
12/30/2021 10:45:00 PM 7.72 45.896 0.169 6.94 0.89 11.02
12/30/2021 11:00:00 PM 7.73 45.914 0.174 6.94 0.57 11.01
12/30/2021 11:15:00 PM 7.73 45.914 0.174 6.93 0.5 10.98
12/30/2021 11:30:00 PM 7.73 45.914 0.174 6.93 0.16 10.98
12/30/2021 11:45:00 PM 7.74 45.932 0.174 6.93 0.64 10.99
12/31/2021 12:00:00 AM 7.74 45.932 0.174 6.93 1.04 10.96
12/31/2021 12:15:00 AM 7.75 45.95 0.174 6.92 0.31 10.98
12/31/2021 12:30:00 AM 7.75 45.95 0.179 6.92 0.97 10.95
12/31/2021 12:45:00 AM 7.76 45.968 0.181 6.92 0.37 10.93
12/31/2021 1:00:00 AM 7.77 45.986 0.18 6.92 0.75 10.95
12/31/2021 1:15:00 AM 7.77 45.986 0.181 6.92 0.43 10.95
12/31/2021 1:30:00 AM 7.78 46.004 0.175 6.92 2.77 10.93
12/31/2021 1:45:00 AM 7.79 46.022 0.181 6.92 0.92 10.91
12/31/2021 2:00:00 AM 7.79 46.022 0.181 6.92 0.64 10.94
12/31/2021 2:15:00 AM 7.8 46.04 0.181 6.92 0.86 10.94
12/31/2021 2:30:00 AM 7.8 46.04 0.181 6.92 0.32 10.89
12/31/2021 2:45:00 AM 7.8 46.04 0.181 6.92 0.27 10.93
12/31/2021 3:00:00 AM 7.8 46.04 0.181 6.92 0.91 10.92
12/31/2021 3:15:00 AM 7.81 46.058 0.181 6.92 0.86 10.92
12/31/2021 3:30:00 AM 7.81 46.058 0.181 6.92 0.12 10.92
12/31/2021 3:45:00 AM 7.82 46.076 0.181 6.92 0.58 10.89
12/31/2021 4:00:00 AM 7.82 46.076 0.181 6.92 0.1 10.73
12/31/2021 4:15:00 AM 7.83 46.094 0.181 6.92 0.45 10.92
12/31/2021 4:30:00 AM 7.82 46.076 0.181 6.92 1.25 10.92
12/31/2021 4:45:00 AM 7.81 46.058 0.181 6.92 0.37 10.93
12/31/2021 5:00:00 AM 7.83 46.094 0.181 6.92 0.43 10.94
12/31/2021 5:15:00 AM 7.82 46.076 0.181 6.92 1.14 10.92
12/31/2021 5:30:00 AM 7.82 46.076 0.181 6.92 0.61 10.93
12/31/2021 5:45:00 AM 7.82 46.076 0.181 6.93 0.54 10.93
12/31/2021 6:00:00 AM 7.82 46.076 0.18 6.93 0.16 10.92
12/31/2021 6:15:00 AM 7.82 46.076 0.18 6.93 0.78 10.93
12/31/2021 6:30:00 AM 7.82 46.076 0.18 6.93 0.82 10.94
12/31/2021 6:45:00 AM 7.82 46.076 0.18 6.93 0.44 10.93
12/31/2021 7:00:00 AM 7.83 46.094 0.181 6.93 0.64 10.94
12/31/2021 7:15:00 AM 7.83 46.094 0.181 6.93 0.32 10.93
12/31/2021 7:30:00 AM 7.82 46.076 0.181 6.93 0.03 10.95
12/31/2021 7:45:00 AM 7.83 46.094 0.181 6.93 0.67 10.96
12/31/2021 8:00:00 AM 7.83 46.094 0.181 6.93 0.71 10.95
12/31/2021 8:15:00 AM 7.83 46.094 0.181 6.93 0.13 10.95
12/31/2021 8:30:00 AM 7.83 46.094 0.181 6.94 0.26 10.99
12/31/2021 8:45:00 AM 7.84 46.112 0.181 6.94 0.09 11
12/31/2021 9:00:00 AM 7.85 46.13 0.181 6.94 0.31 11.04
12/31/2021 9:15:00 AM 7.87 46.166 0.181 6.94 0.34 11.04
12/31/2021 9:30:00 AM 7.9 46.22 0.181 6.95 1.03 11.1
12/31/2021 9:45:00 AM 7.92 46.256 0.181 6.95 0.76 11.13
12/31/2021 10:00:00 AM 7.95 46.31 0.181 6.95 0.03 11.17
12/31/2021 10:15:00 AM 7.99 46.382 0.181 6.96 0.7 11.24
12/31/2021 10:30:00 AM 8.03 46.454 0.181 6.96 0.07 11.28
12/31/2021 10:45:00 AM 8.06 46.508 0.181 6.97 0.16 11.31
12/31/2021 11:00:00 AM 8.08 46.544 0.181 6.98 0.03 11.31
12/31/2021 11:15:00 AM 8.11 46.598 0.182 6.98 0.21 11.31
12/31/2021 11:30:00 AM 8.13 46.634 0.182 6.99 0.1 11.33
12/31/2021 11:45:00 AM 8.17 46.706 0.182 6.99 0.11 11.33
12/31/2021 12:00:00 PM 8.2 46.76 0.182 6.99 0.22 11.35
12/31/2021 12:15:00 PM 8.25 46.85 0.182 7 0.23 11.35
12/31/2021 12:30:00 PM 8.3 46.94 0.181 7.01 0.12 11.4
12/31/2021 12:45:00 PM 8.34 47.012 0.181 7.01 0 11.41
12/31/2021 1:00:00 PM 8.4 47.12 0.181 7.02 0.2 11.44
12/31/2021 1:15:00 PM 8.45 47.21 0.181 7.02 0.3 11.45
12/31/2021 1:30:00 PM 8.49 47.282 0.181 7.02 0.16 11.46
12/31/2021 1:45:00 PM 8.56 47.408 0.181 7.04 0.32 11.43
12/31/2021 2:00:00 PM 8.62 47.516 0.181 7.04 0.3 11.48
12/31/2021 2:15:00 PM 8.65 47.57 0.181 7.04 0.29 11.47
12/31/2021 2:30:00 PM 8.71 47.678 0.181 7.05 0.47 11.46
12/31/2021 2:45:00 PM 8.73 47.714 0.181 7.05 0.1 11.45
12/31/2021 3:00:00 PM 8.76 47.768 0.181 7.05 0.72 11.42
12/31/2021 3:15:00 PM 8.78 47.804 0.181 7.06 0.33 11.39
12/31/2021 3:30:00 PM 8.8 47.84 0.181 7.06 0.18 11.36
12/31/2021 3:45:00 PM 8.82 47.876 0.181 7.06 0.24 11.34
12/31/2021 4:00:00 PM 8.84 47.912 0.181 7.06 0.11 11.32
12/31/2021 4:15:00 PM 8.84 47.912 0.181 7.07 0.27 11.3
12/31/2021 4:30:00 PM 8.85 47.93 0.181 7.06 0.18 11.25
12/31/2021 4:45:00 PM 8.85 47.93 0.181 7.06 0.16 11.18
12/31/2021 5:00:00 PM 8.85 47.93 0.181 7.06 0.34 11.1
12/31/2021 5:15:00 PM 8.85 47.93 0.181 7.06 0.71 11.03
12/31/2021 5:30:00 PM 8.84 47.912 0.181 7.05 0.45 10.98
12/31/2021 5:45:00 PM 8.84 47.912 0.181 7.05 0.11 10.94
12/31/2021 6:00:00 PM 8.84 47.912 0.181 7.04 0.1 10.92
12/31/2021 6:15:00 PM 8.84 47.912 0.181 7.03 0.56 10.86
12/31/2021 6:30:00 PM 8.83 47.894 0.181 7.03 0.03 10.85
12/31/2021 6:45:00 PM 8.82 47.876 0.181 7.02 0.29 10.83
12/31/2021 7:00:00 PM 8.82 47.876 0.181 7.02 0.26 10.82
12/31/2021 7:15:00 PM 8.81 47.858 0.181 7.01 0.34 10.79
12/31/2021 7:30:00 PM 8.81 47.858 0.181 7.01 0.52 10.78
12/31/2021 7:45:00 PM 8.8 47.84 0.181 7.01 0.22 10.74
12/31/2021 8:00:00 PM 8.79 47.822 0.181 7 0.73 10.76
12/31/2021 8:15:00 PM 8.78 47.804 0.181 7 0.17 10.74
12/31/2021 8:30:00 PM 8.77 47.786 0.181 6.99 0.39 10.72
12/31/2021 8:45:00 PM 8.77 47.786 0.18 6.99 0.53 10.69
12/31/2021 9:00:00 PM 8.76 47.768 0.18 6.99 0.31 10.7
12/31/2021 9:15:00 PM 8.75 47.75 0.167 6.99 0.49 10.71
12/31/2021 9:30:00 PM 8.75 47.75 0.174 6.99 0.57 10.67
12/31/2021 9:45:00 PM 8.74 47.732 0.18 6.98 0.45 10.69
12/31/2021 10:00:00 PM 8.73 47.714 0.17 6.98 0.66 10.68
12/31/2021 10:15:00 PM 8.73 47.714 0.181 6.98 0.92 10.68
12/31/2021 10:30:00 PM 8.72 47.696 0.174 6.98 2.08 10.67
12/31/2021 10:45:00 PM 8.72 47.696 0.172 6.97 0.7 10.66
12/31/2021 11:00:00 PM 8.72 47.696 0.169 6.97 1.41 10.66
12/31/2021 11:15:00 PM 8.71 47.678 0.178 6.97 0.78 10.67
12/31/2021 11:30:00 PM 8.71 47.678 0.178 6.97 1.95 10.67
12/31/2021 11:45:00 PM 8.71 47.678 0.178 6.97 0.14 10.68
1/1/2022 12:00:00 AM 8.71 47.678 0.178 6.96 0.42 10.66
1/1/2022 12:15:00 AM 8.71 47.678 0.178 6.97 0.29 10.67
1/1/2022 12:30:00 AM 8.71 47.678 0.178 6.97 0.82 10.66
1/1/2022 12:45:00 AM 8.71 47.678 0.178 6.97 0.44 10.64
1/1/2022 1:00:00 AM 8.71 47.678 0.178 6.97 0.32 10.66
1/1/2022 1:15:00 AM 8.71 47.678 0.178 6.96 0.16 10.65
1/1/2022 1:30:00 AM 8.71 47.678 0.178 6.96 0.16 10.65
1/1/2022 1:45:00 AM 8.71 47.678 0.177 6.96 0.43 10.65
1/1/2022 2:00:00 AM 8.71 47.678 0.177 6.96 0.68 10.64
1/1/2022 2:15:00 AM 8.71 47.678 0.177 6.96 1.83 10.62
1/1/2022 2:30:00 AM 8.72 47.696 0.178 6.96 0.23 10.62
1/1/2022 2:45:00 AM 8.72 47.696 0.178 6.96 0.93 10.61
1/1/2022 3:00:00 AM 8.72 47.696 0.178 6.96 1.17 10.61
1/1/2022 3:15:00 AM 8.72 47.696 0.178 6.96 1.5 10.62
1/1/2022 3:30:00 AM 8.72 47.696 0.178 6.96 2.09 10.62
1/1/2022 3:45:00 AM 8.73 47.714 0.178 6.96 1.11 10.63
1/1/2022 4:00:00 AM 8.73 47.714 0.178 6.96 0.87 10.63
1/1/2022 4:15:00 AM 8.73 47.714 0.178 6.96 0.35 10.62
1/1/2022 4:30:00 AM 8.73 47.714 0.178 6.96 0.36 10.63
1/1/2022 4:45:00 AM 8.74 47.732 0.178 6.95 0.65 10.6
1/1/2022 5:00:00 AM 8.74 47.732 0.178 6.96 0.17 10.61
1/1/2022 5:15:00 AM 8.74 47.732 0.178 6.95 0.38 10.59
1/1/2022 5:30:00 AM 8.74 47.732 0.178 6.95 2.8 10.6
1/1/2022 5:45:00 AM 8.75 47.75 0.178 6.95 1.93 10.6
1/1/2022 6:00:00 AM 8.75 47.75 0.178 6.95 1.34 10.6
1/1/2022 6:15:00 AM 8.75 47.75 0.178 6.95 0.4 10.6
1/1/2022 6:30:00 AM 8.75 47.75 0.178 6.94 0.98 10.58
1/1/2022 6:45:00 AM 8.76 47.768 0.178 6.94 0.83 10.6
1/1/2022 7:00:00 AM 8.76 47.768 0.178 6.94 0.26 10.58
1/1/2022 7:15:00 AM 8.76 47.768 0.179 6.94 0.15 10.59
1/1/2022 7:30:00 AM 8.77 47.786 0.179 6.94 0.4 10.6
1/1/2022 7:45:00 AM 8.77 47.786 0.179 6.94 0.26 10.59
1/1/2022 8:00:00 AM 8.78 47.804 0.176 6.94 0.15 10.59
1/1/2022 8:15:00 AM 8.78 47.804 0.175 6.94 0.15 10.6
1/1/2022 8:30:00 AM 8.79 47.822 0.175 6.94 0.96 10.61
1/1/2022 8:45:00 AM 8.8 47.84 0.176 6.94 0.71 10.63
1/1/2022 9:00:00 AM 8.82 47.876 0.179 6.94 0.15 10.66
1/1/2022 9:15:00 AM 8.83 47.894 0.179 6.95 0.26 10.69
1/1/2022 9:30:00 AM 8.85 47.93 0.179 6.95 0.58 10.71
1/1/2022 9:45:00 AM 8.86 47.948 0.179 6.95 0.2 10.75
1/1/2022 10:00:00 AM 8.88 47.984 0.179 6.95 0.53 10.76
1/1/2022 10:15:00 AM 8.9 48.02 0.178 6.95 0.3 10.77
1/1/2022 10:30:00 AM 8.93 48.074 0.178 6.96 0.17 10.82
1/1/2022 10:45:00 AM 8.95 48.11 0.178 6.96 0.24 10.85
1/1/2022 11:00:00 AM 8.97 48.146 0.178 6.97 0.6 10.89
1/1/2022 11:15:00 AM 8.99 48.182 0.177 6.97 0.3 10.9
1/1/2022 11:30:00 AM 9.01 48.218 0.177 6.98 0.95 10.87
1/1/2022 11:45:00 AM 9.03 48.254 0.176 6.98 0.74 10.85
1/1/2022 12:00:00 PM 9.05 48.29 0.176 6.98 0.31 10.85
1/1/2022 12:15:00 PM 9.1 48.38 0.175 6.98 0.13 10.88
1/1/2022 12:30:00 PM 9.14 48.452 0.175 6.98 1.41 10.92
1/1/2022 12:45:00 PM 9.17 48.506 0.175 6.99 1.07 10.96
1/1/2022 1:00:00 PM 9.2 48.56 0.175 6.99 0.41 10.98
1/1/2022 1:15:00 PM 9.23 48.614 0.175 6.99 0.4 11
1/1/2022 1:30:00 PM 9.25 48.65 0.176 7 0.24 10.96
1/1/2022 1:45:00 PM 9.26 48.668 0.176 7.01 1.12 10.94
1/1/2022 2:00:00 PM 9.28 48.704 0.176 7.01 0.57 10.93
1/1/2022 2:15:00 PM 9.29 48.722 0.176 7.01 0.38 10.91
1/1/2022 2:30:00 PM 9.31 48.758 0.175 7.01 0.19 10.88
1/1/2022 2:45:00 PM 9.32 48.776 0.175 7.01 0.52 10.84
1/1/2022 3:00:00 PM 9.34 48.812 0.175 7 0.36 10.84
1/1/2022 3:15:00 PM 9.36 48.848 0.174 7 0.77 10.82
1/1/2022 3:30:00 PM 9.38 48.884 0.174 7.01 1.08 10.83
1/1/2022 3:45:00 PM 9.39 48.902 0.174 7.01 0.55 10.8
1/1/2022 4:00:00 PM 9.4 48.92 0.174 7.01 0.83 10.76
1/1/2022 4:15:00 PM 9.4 48.92 0.174 7.01 0.57 10.73
1/1/2022 4:30:00 PM 9.41 48.938 0.174 7 0.63 10.68
1/1/2022 4:45:00 PM 9.41 48.938 0.174 7 0.95 10.65
1/1/2022 5:00:00 PM 9.41 48.938 0.173 7.01 0.53 10.62
1/1/2022 5:15:00 PM 9.41 48.938 0.166 7.01 1.16 10.6
1/1/2022 5:30:00 PM 9.42 48.956 0.168 7.01 1.12 10.58
1/1/2022 5:45:00 PM 9.42 48.956 0.165 7 0.92 10.57
1/1/2022 6:00:00 PM 9.43 48.974 0.164 7 1.28 10.53
1/1/2022 6:15:00 PM 9.44 48.992 0.16 7 1.94 10.53
1/1/2022 6:30:00 PM 9.45 49.01 0.171 7 1.01 10.51
1/1/2022 6:45:00 PM 9.45 49.01 0.171 6.99 1.17 10.49
1/1/2022 7:00:00 PM 9.45 49.01 0.171 6.99 1.2 10.48
1/1/2022 7:15:00 PM 9.45 49.01 0.172 6.99 1.93 10.46
1/1/2022 7:30:00 PM 9.45 49.01 0.172 6.98 1.23 10.47
1/1/2022 7:45:00 PM 9.46 49.028 0.172 6.98 2.07 10.44
1/1/2022 8:00:00 PM 9.47 49.046 0.172 6.98 2.29 10.43
1/1/2022 8:15:00 PM 9.48 49.064 0.171 6.98 1.46 10.43
1/1/2022 8:30:00 PM 9.57 49.226 0.166 6.98 5.17 10.41
1/1/2022 8:45:00 PM 9.61 49.298 0.163 6.98 7.9 10.45
1/1/2022 9:00:00 PM 9.63 49.334 0.162 6.98 7.47 10.42
1/1/2022 9:15:00 PM 9.64 49.352 0.163 6.98 7.27 10.4
1/1/2022 9:30:00 PM 9.64 49.352 0.163 6.98 17.17 10.39
1/1/2022 9:45:00 PM 9.64 49.352 0.164 6.97 20.5 10.37
1/1/2022 10:00:00 PM 9.64 49.352 0.164 6.98 23.27 10.35
1/1/2022 10:15:00 PM 9.65 49.37 0.164 6.98 17.26 10.36
1/1/2022 10:30:00 PM 9.65 49.37 0.163 6.97 25.83 10.36
1/1/2022 10:45:00 PM 9.67 49.406 0.161 6.98 15.49 10.36
1/1/2022 11:00:00 PM 9.69 49.442 0.156 6.97 109.8 10.35
1/1/2022 11:15:00 PM 9.72 49.496 0.153 6.96 255.8 10.34
1/1/2022 11:30:00 PM 9.75 49.55 0.154 6.95 285.3 10.33
1/1/2022 11:45:00 PM 9.76 49.568 0.156 6.95 202.8 10.31
1/2/2022 12:00:00 AM 9.78 49.604 0.157 6.95 211.9 10.31
1/2/2022 12:15:00 AM 9.83 49.694 0.157 6.95 184.3 10.32
1/2/2022 12:30:00 AM 9.87 49.766 0.158 6.95 177.5 10.33
1/2/2022 12:45:00 AM 9.9 49.82 0.161 6.96 125.2 10.35
1/2/2022 1:00:00 AM 9.9 49.82 0.163 6.97 145.1 10.35
1/2/2022 1:15:00 AM 9.91 49.838 0.164 6.98 169.5 10.35
1/2/2022 1:30:00 AM 9.93 49.874 0.165 7 173 10.33
1/2/2022 1:45:00 AM 9.95 49.91 0.164 7 236.9 10.3
1/2/2022 2:00:00 AM 9.98 49.964 0.161 7.01 335.9 10.26
1/2/2022 2:15:00 AM 10 50 0.157 7.02 380.8 10.25
1/2/2022 2:30:00 AM 10.02 50.036 0.153 7.02 481 10.24
1/2/2022 2:45:00 AM 10.03 50.054 0.151 7.02 473.6 10.22
1/2/2022 3:00:00 AM 10.04 50.072 0.149 7.02 613 10.22
1/2/2022 3:15:00 AM 10.04 50.072 0.148 7.02 415.9 10.21
1/2/2022 3:30:00 AM 10.05 50.09 0.147 7.02 401.3 10.2
1/2/2022 3:45:00 AM 10.04 50.072 0.146 7.02 430.2 10.19
1/2/2022 4:00:00 AM 10.04 50.072 0.145 7.02 367 10.19
1/2/2022 4:15:00 AM 10.03 50.054 0.144 7.03 338.4 10.19
1/2/2022 4:30:00 AM 10.02 50.036 0.144 7.02 392.3 10.2
1/2/2022 4:45:00 AM 10.02 50.036 0.144 7.02 258.7 10.19
1/2/2022 5:00:00 AM 10.01 50.018 0.145 7.03 259 10.2
1/2/2022 5:15:00 AM 10 50 0.145 7.03 291.2 10.2
1/2/2022 5:30:00 AM 10 50 0.145 7.03 216.4 10.19
1/2/2022 5:45:00 AM 9.99 49.982 0.146 7.03 258.3 10.2
1/2/2022 6:00:00 AM 9.97 49.946 0.146 7.03 198 10.19
1/2/2022 6:15:00 AM 9.96 49.928 0.145 7.02 219.4 10.2
1/2/2022 6:30:00 AM 9.95 49.91 0.145 7.02 195.3 10.19
1/2/2022 6:45:00 AM 9.94 49.892 0.144 7.02 224.9 10.19
1/2/2022 7:00:00 AM 9.93 49.874 0.144 7.02 147.4 10.21
1/2/2022 7:15:00 AM 9.91 49.838 0.143 7.01 196.6 10.21
1/2/2022 7:30:00 AM 9.9 49.82 0.143 7.02 153.1 10.2
1/2/2022 7:45:00 AM 9.89 49.802 0.143 7.01 153.8 10.22
1/2/2022 8:00:00 AM 9.88 49.784 0.143 7.01 119.4 10.2
1/2/2022 8:15:00 AM 9.88 49.784 0.143 7.02 133 10.2
1/2/2022 8:30:00 AM 9.87 49.766 0.143 7.01 121.1 10.22
1/2/2022 8:45:00 AM 9.87 49.766 0.143 7.01 143.2 10.23
1/2/2022 9:00:00 AM 9.86 49.748 0.143 7.01 82.38 10.24
1/2/2022 9:15:00 AM 9.86 49.748 0.143 7.01 108 10.26
1/2/2022 9:30:00 AM 9.87 49.766 0.143 7.01 101.1 10.27
1/2/2022 9:45:00 AM 9.88 49.784 0.143 7.01 76.37 10.28
1/2/2022 10:00:00 AM 9.9 49.82 0.143 7.01 104.3 10.28
1/2/2022 10:15:00 AM 9.94 49.892 0.143 7.01 84.36 10.31
1/2/2022 10:30:00 AM 9.96 49.928 0.143 7.01 67.89 10.32
1/2/2022 10:45:00 AM 9.98 49.964 0.144 7.02 71.69 10.33
1/2/2022 11:00:00 AM 10.01 50.018 0.144 7.02 64.01 10.33
1/2/2022 11:15:00 AM 10.05 50.09 0.144 7.02 73.83 10.35
1/2/2022 11:30:00 AM 10.1 50.18 0.144 7.02 60.02 10.38
1/2/2022 11:45:00 AM 10.13 50.234 0.145 7.03 86.96 10.38
1/2/2022 12:00:00 PM 10.17 50.306 0.145 7.03 58.13 10.39
1/2/2022 12:15:00 PM 10.23 50.414 0.146 7.03 55.45 10.4
1/2/2022 12:30:00 PM 10.29 50.522 0.146 7.03 46.44 10.42
1/2/2022 12:45:00 PM 10.36 50.648 0.147 7.03 55.09 10.45
1/2/2022 1:00:00 PM 10.41 50.738 0.148 7.04 50.72 10.46
1/2/2022 1:15:00 PM 10.47 50.846 0.148 7.04 47.08 10.45
1/2/2022 1:30:00 PM 10.53 50.954 0.149 7.05 37.73 10.46
1/2/2022 1:45:00 PM 10.58 51.044 0.149 7.05 43.37 10.46
1/2/2022 2:00:00 PM 10.62 51.116 0.15 7.06 43.33 10.46
1/2/2022 2:15:00 PM 10.65 51.17 0.151 7.06 41.18 10.45
1/2/2022 2:30:00 PM 10.67 51.206 0.151 7.06 35.13 10.45
1/2/2022 2:45:00 PM 10.69 51.242 0.152 7.06 34.78 10.45
1/2/2022 3:00:00 PM 10.71 51.278 0.152 7.07 30.96 10.43
1/2/2022 3:15:00 PM 10.72 51.296 0.153 7.07 28.8 10.42
1/2/2022 3:30:00 PM 10.72 51.296 0.154 7.07 30.2 10.41
1/2/2022 3:45:00 PM 10.72 51.296 0.154 7.07 40.1 10.38
1/2/2022 4:00:00 PM 10.72 51.296 0.155 7.07 28.53 10.33
1/2/2022 4:15:00 PM 10.71 51.278 0.155 7.07 23.44 10.32
1/2/2022 4:30:00 PM 10.7 51.26 0.156 7.07 24.01 10.33
1/2/2022 4:45:00 PM 10.69 51.242 0.156 7.07 24.15 10.29
1/2/2022 5:00:00 PM 10.66 51.188 0.157 7.07 21.55 10.26
1/2/2022 5:15:00 PM 10.62 51.116 0.157 7.07 90.97 10.25
1/2/2022 5:30:00 PM 10.58 51.044 0.158 7.06 18.91 10.24
1/2/2022 5:45:00 PM 10.54 50.972 0.158 7.06 21.79 10.22
1/2/2022 6:00:00 PM 10.51 50.918 0.158 7.06 13.71 10.22
1/2/2022 6:15:00 PM 10.46 50.828 0.159 7.06 26.8 10.21
1/2/2022 6:30:00 PM 10.42 50.756 0.159 7.06 20.02 10.22
1/2/2022 6:45:00 PM 10.38 50.684 0.16 7.05 17.82 10.2
1/2/2022 7:00:00 PM 10.34 50.612 0.16 7.05 15.53 10.2
1/2/2022 7:15:00 PM 10.3 50.54 0.16 7.05 15.97 10.22
1/2/2022 7:30:00 PM 10.26 50.468 0.161 7.05 11.41 10.21
1/2/2022 7:45:00 PM 10.22 50.396 0.161 7.04 16.17 10.21
1/2/2022 8:00:00 PM 10.17 50.306 0.161 7.04 15.62 10.22
1/2/2022 8:15:00 PM 10.11 50.198 0.161 7.04 12.07 10.21
1/2/2022 8:30:00 PM 10.06 50.108 0.159 7.04 10.3 10.24
1/2/2022 8:45:00 PM 10 50 0.161 7.04 14.16 10.23
1/2/2022 9:00:00 PM 9.93 49.874 0.159 7.04 9.21 10.24
1/2/2022 9:15:00 PM 9.87 49.766 0.163 7.03 12.58 10.26
1/2/2022 9:30:00 PM 9.82 49.676 0.162 7.03 12.86 10.27
1/2/2022 9:45:00 PM 9.76 49.568 0.162 7.03 12.63 10.29
1/2/2022 10:00:00 PM 9.71 49.478 0.164 7.03 11.05 10.3
1/2/2022 10:15:00 PM 9.64 49.352 0.164 7.03 10.76 10.34
1/2/2022 10:30:00 PM 9.58 49.244 0.164 7.02 10.91 10.34
1/2/2022 10:45:00 PM 9.52 49.136 0.165 7.03 11.32 10.36
1/2/2022 11:00:00 PM 9.45 49.01 0.162 7.02 10.61 10.39
1/2/2022 11:15:00 PM 9.38 48.884 0.165 7.02 10.62 10.41
1/2/2022 11:30:00 PM 9.31 48.758 0.164 7.02 9.72 10.4
1/2/2022 11:45:00 PM 9.24 48.632 0.166 7.02 9.14 10.42
1/3/2022 12:00:00 AM 9.17 48.506 0.162 7.02 8.1 10.43
1/3/2022 12:15:00 AM 9.11 48.398 0.166 7.01 9.09 10.48
1/3/2022 12:30:00 AM 9.05 48.29 0.166 6.99 9.42 10.49
1/3/2022 12:45:00 AM 8.99 48.182 0.167 6.99 8.62 10.52
1/3/2022 1:00:00 AM 8.93 48.074 0.163 7.01 6.42 10.55
1/3/2022 1:15:00 AM 8.87 47.966 0.164 7.01 11.68 10.56
1/3/2022 1:30:00 AM 8.82 47.876 0.167 7.02 11.88 10.6
1/3/2022 1:45:00 AM 8.76 47.768 0.166 7.02 8.81 10.59
1/3/2022 2:00:00 AM 8.71 47.678 0.168 7.01 7.79 10.64
1/3/2022 2:15:00 AM 8.65 47.57 0.168 7.02 7.87 10.64
1/3/2022 2:30:00 AM 8.58 47.444 0.168 7.01 5.7 10.66
1/3/2022 2:45:00 AM 8.52 47.336 0.163 7.02 8.49 10.67
1/3/2022 3:00:00 AM 8.46 47.228 0.168 7.01 7.74 10.72
1/3/2022 3:15:00 AM 8.39 47.102 0.168 7.01 5.87 10.73
1/3/2022 3:30:00 AM 8.33 46.994 0.169 7.01 7.23 10.74
1/3/2022 3:45:00 AM 8.26 46.868 0.169 7.01 8.2 10.77
1/3/2022 4:00:00 AM 8.19 46.742 0.169 7.01 6.94 10.81
1/3/2022 4:15:00 AM 8.13 46.634 0.169 7.01 5.56 10.82
1/3/2022 4:30:00 AM 8.07 46.526 0.169 7.01 6.83 10.83
1/3/2022 4:45:00 AM 8.01 46.418 0.169 7.01 6.29 10.86
1/3/2022 5:00:00 AM 7.96 46.328 0.169 7.01 6.49 10.86
1/3/2022 5:15:00 AM 7.89 46.202 0.168 7.01 5.69 10.9
1/3/2022 5:30:00 AM 7.83 46.094 0.169 7.01 6.27 10.93
1/3/2022 5:45:00 AM 7.75 45.95 0.169 7 6.45 10.94
1/3/2022 6:00:00 AM 7.7 45.86 0.169 7 9.13 10.95
1/3/2022 6:15:00 AM 7.64 45.752 0.167 7 6.32 10.99
1/3/2022 6:30:00 AM 7.58 45.644 0.166 7 7.38 11.03
1/3/2022 6:45:00 AM 7.52 45.536 0.168 6.99 7.14 11.04
1/3/2022 7:00:00 AM 7.46 45.428 0.17 7 5.2 11.04
1/3/2022 7:15:00 AM 7.4 45.32 0.169 6.99 15.71 11.04
1/3/2022 7:30:00 AM 7.33 45.194 0.169 6.99 7.79 11.1
1/3/2022 7:45:00 AM 7.26 45.068 0.17 6.99 12.64 11.04
1/3/2022 8:00:00 AM 7.2 44.96 0.17 6.99 7.92 11.16
1/3/2022 8:15:00 AM 7.15 44.87 0.17 6.99 9.34 11.16
1/3/2022 8:30:00 AM 7.08 44.744 0.171 6.99 3.5 11.2
1/3/2022 8:45:00 AM 7.01 44.618 0.17 6.99 3.86 11.24
1/3/2022 9:00:00 AM 6.96 44.528 0.172 6.99 7.29 11.28
1/3/2022 9:15:00 AM 6.88 44.384 0.172 6.99 18.42 11.3
1/3/2022 9:30:00 AM 6.81 44.258 0.172 6.99 4.1 11.33
1/3/2022 9:45:00 AM 6.76 44.168 0.171 6.99 4.61 11.37
1/3/2022 10:00:00 AM 6.69 44.042 0.172 6.99 2.66 11.4
1/3/2022 10:15:00 AM 6.64 43.952 0.172 6.99 5.08 11.45
1/3/2022 10:30:00 AM 6.56 43.808 0.171 6.99 3.67 11.54
1/3/2022 10:45:00 AM 6.5 43.7 0.172 6.99 3.97 11.57
1/3/2022 11:00:00 AM 6.42 43.556 0.172 6.99 329.4 11.59
1/3/2022 11:15:00 AM 6.39 43.502 0.172 7 187.8 11.65
1/3/2022 11:30:00 AM 6.34 43.412 0.172 7.01 4.33 11.65
1/3/2022 11:45:00 AM 6.28 43.304 0.172 7 14.78 11.7
1/3/2022 12:00:00 PM 6.23 43.214 0.173 7.01 1567 11.76
1/3/2022 12:15:00 PM 6.17 43.106 0.173 7.01 1566 11.82
1/3/2022 12:30:00 PM 6.12 43.016 0.173 7.01 1188 11.89
1/3/2022 12:45:00 PM 6.08 42.944 0.173 7.02 1080 11.94
1/3/2022 1:00:00 PM 6.04 42.872 0.173 7.02 1056 11.98
1/3/2022 1:15:00 PM 6 42.8 0.173 7.02 1033 12
1/3/2022 1:30:00 PM 5.95 42.71 0.173 7.02 1029 12.03
1/3/2022 1:45:00 PM 5.89 42.602 0.173 7.02 1032 12.05
1/3/2022 2:00:00 PM 5.85 42.53 0.173 7.03 1043 12.1
1/3/2022 2:15:00 PM 5.8 42.44 0.173 7.03 1035 12.14
1/3/2022 2:30:00 PM 5.77 42.386 0.173 7.03 1037 12.18
1/3/2022 2:45:00 PM 5.76 42.368 0.173 7.04 1041 12.23
1/3/2022 3:00:00 PM 5.71 42.278 0.173 7.04 1038 12.24
1/3/2022 3:15:00 PM 5.65 42.17 0.173 7.04 1033 12.25
1/3/2022 3:30:00 PM 5.58 42.044 0.173 7.04 1027 12.27
1/3/2022 3:45:00 PM 5.52 41.936 0.173 7.04 1022 12.28
1/3/2022 4:00:00 PM 5.47 41.846 0.172 7.04 1013 12.25
1/3/2022 4:15:00 PM 5.41 41.738 0.172 7.04 1010 12.28
1/3/2022 4:30:00 PM 5.32 41.576 0.172 7.04 996.7 12.31
1/3/2022 4:45:00 PM 5.24 41.432 0.172 7.04 980.8 12.29
1/3/2022 5:00:00 PM 5.17 41.306 0.172 7.04 965.9 12.25
1/3/2022 5:15:00 PM 5.09 41.162 0.172 7.03 955.2 12.25
1/3/2022 5:30:00 PM 5.01 41.018 0.172 7.03 936.9 12.23
1/3/2022 5:45:00 PM 4.93 40.874 0.165 7.02 925.8 12.24
1/3/2022 6:00:00 PM 4.84 40.712 0.166 7.02 907.8 12.23
1/3/2022 6:15:00 PM 4.75 40.55 0.168 7.02 874.3 12.24
1/3/2022 6:30:00 PM 4.68 40.424 0.171 7.01 846.1 12.26
1/3/2022 6:45:00 PM 4.61 40.298 0.171 7 825.7 12.26
1/3/2022 7:00:00 PM 4.55 40.19 0.174 7 801.5 12.27
1/3/2022 7:15:00 PM 4.47 40.046 0.171 6.99 773.9 12.3
1/3/2022 7:30:00 PM 4.4 39.92 0.171 6.98 743 12.31
1/3/2022 7:45:00 PM 4.33 39.794 0.167 6.99 702.7 12.3
1/3/2022 8:00:00 PM 4.27 39.686 0.172 6.98 672.3 12.34
1/3/2022 8:15:00 PM 4.19 39.542 0.171 6.97 631.5 12.36
1/3/2022 8:30:00 PM 4.11 39.398 0.171 6.98 576.9 12.39
1/3/2022 8:45:00 PM 4.04 39.272 0.171 6.97 522.5 12.4
1/3/2022 9:00:00 PM 3.96 39.128 0.162 6.97 11.88 12.41
1/3/2022 9:15:00 PM 3.9 39.02 0.164 6.96 2.29 12.38
1/3/2022 9:30:00 PM 3.84 38.912 0.168 6.96 46.04 12.42
1/3/2022 9:45:00 PM 3.76 38.768 0.168 6.96 1.81 12.47
1/3/2022 10:00:00 PM 3.71 38.678 0.168 6.96 1568 12.47
1/3/2022 10:15:00 PM 3.64 38.552 0.167 6.96 3.45 12.5
1/3/2022 10:30:00 PM 3.6 38.48 0.173 6.95 6.36 12.53
1/3/2022 10:45:00 PM 3.56 38.408 0.172 6.95 4.18 12.54
1/3/2022 11:00:00 PM 3.48 38.264 0.173 6.95 2.1 12.59
1/3/2022 11:15:00 PM 3.42 38.156 0.173 6.95 2.95 12.59
1/3/2022 11:30:00 PM 3.36 38.048 0.171 6.94 2.19 12.62
1/3/2022 11:45:00 PM 3.31 37.958 0.172 6.94 2.29 12.62
1/4/2022 12:00:00 AM 3.26 37.868 0.173 6.94 1.05 12.66
1/4/2022 12:15:00 AM 3.23 37.814 0.171 6.94 2.9 12.66
1/4/2022 12:30:00 AM 3.15 37.67 0.171 6.94 2.42 12.71
1/4/2022 12:45:00 AM 3.09 37.562 0.171 6.94 1.95 12.74
1/4/2022 1:00:00 AM 3.04 37.472 0.166 6.94 1.96 12.77
1/4/2022 1:15:00 AM 2.98 37.364 0.173 6.93 1.97 12.81
1/4/2022 1:30:00 AM 2.93 37.274 0.173 6.93 1.94 12.79
1/4/2022 1:45:00 AM 2.89 37.202 0.173 6.93 1.9 12.85
1/4/2022 2:00:00 AM 2.84 37.112 0.173 6.93 1.98 12.86
1/4/2022 2:15:00 AM 2.78 37.004 0.173 6.93 1.93 12.89
1/4/2022 2:30:00 AM 2.73 36.914 0.175 6.93 3.56 12.91
1/4/2022 2:45:00 AM 2.69 36.842 0.173 6.93 2.02 12.96
1/4/2022 3:00:00 AM 2.64 36.752 0.174 6.92 1.88 12.98
1/4/2022 3:15:00 AM 2.59 36.662 0.173 6.92 2.77 12.99
1/4/2022 3:30:00 AM 2.53 36.554 0.173 6.93 1.64 13.03
1/4/2022 3:45:00 AM 2.48 36.464 0.173 6.93 2.3 13.06
1/4/2022 4:00:00 AM 2.43 36.374 0.173 6.93 2.24 13.08
1/4/2022 4:15:00 AM 2.4 36.32 0.173 6.93 1.59 13.12
1/4/2022 4:30:00 AM 2.35 36.23 0.173 6.93 1.6 13.11
1/4/2022 4:45:00 AM 2.32 36.176 0.173 6.92 1.99 13.15
1/4/2022 5:00:00 AM 2.27 36.086 0.174 6.92 2.1 13.18
1/4/2022 5:15:00 AM 2.22 35.996 0.172 6.91 1.75 13.19
1/4/2022 5:30:00 AM 2.18 35.924 0.173 6.9 3 13.21
1/4/2022 5:45:00 AM 2.14 35.852 0.174 6.91 2.54 13.22
1/4/2022 6:00:00 AM 2.09 35.762 0.173 6.92 2.09 13.26
1/4/2022 6:15:00 AM 2.03 35.654 0.174 6.92 1.92 13.27
1/4/2022 6:30:00 AM 1.99 35.582 0.174 6.92 1.89 13.31
1/4/2022 6:45:00 AM 1.94 35.492 0.174 6.91 1.82 13.32
1/4/2022 7:00:00 AM 1.89 35.402 0.174 6.91 2.04 13.34
1/4/2022 7:15:00 AM 1.84 35.312 0.174 6.91 1.68 13.37
1/4/2022 7:30:00 AM 1.79 35.222 0.174 6.92 2.2 13.4
1/4/2022 7:45:00 AM 1.76 35.168 0.174 6.92 1.47 13.41
1/4/2022 8:00:00 AM 1.7 35.06 0.175 6.92 2.37 13.47
1/4/2022 8:15:00 AM 1.66 34.988 0.175 6.92 9.88 13.52
1/4/2022 8:30:00 AM 1.64 34.952 0.175 6.92 1.52 13.55
1/4/2022 8:45:00 AM 1.61 34.898 0.175 6.92 2.14 13.62
1/4/2022 9:00:00 AM 1.6 34.88 0.175 6.92 1.31 13.65
1/4/2022 9:15:00 AM 1.59 34.862 0.175 6.92 0.95 13.69
1/4/2022 9:30:00 AM 1.57 34.826 0.175 6.92 1.46 13.71
1/4/2022 9:45:00 AM 1.56 34.808 0.175 6.93 1.27 13.75
1/4/2022 10:00:00 AM 1.57 34.826 0.176 6.93 1.26 13.79
1/4/2022 10:15:00 AM 1.59 34.862 0.175 6.93 1.95 13.83
1/4/2022 10:30:00 AM 1.63 34.934 0.175 6.94 1.45 13.83
1/4/2022 10:45:00 AM 1.68 35.024 0.175 6.94 1.29 13.88
1/4/2022 11:00:00 AM 1.77 35.186 0.175 6.94 1.01 13.88
1/4/2022 11:15:00 AM 1.88 35.384 0.175 6.95 1.09 13.9
1/4/2022 11:30:00 AM 1.97 35.546 0.175 6.95 0.87 13.91
1/4/2022 11:45:00 AM 2.08 35.744 0.175 6.96 1.37 13.92
1/4/2022 12:00:00 PM 2.2 35.96 0.175 6.96 1.19 13.92
1/4/2022 12:15:00 PM 2.28 36.104 0.174 6.97 1.38 13.91
1/4/2022 12:30:00 PM 2.37 36.266 0.174 6.98 1.5 13.88
1/4/2022 12:45:00 PM 2.48 36.464 0.174 6.98 0.86 13.86
1/4/2022 1:00:00 PM 2.62 36.716 0.174 6.98 1.1 13.85
1/4/2022 1:15:00 PM 2.75 36.95 0.174 6.99 0.94 13.82
1/4/2022 1:30:00 PM 2.85 37.13 0.174 6.99 1 13.81
1/4/2022 1:45:00 PM 2.92 37.256 0.174 7 1.37 13.8
1/4/2022 2:00:00 PM 2.98 37.364 0.174 7 1.42 13.77
1/4/2022 2:15:00 PM 2.99 37.382 0.174 7 1.13 13.75
1/4/2022 2:30:00 PM 2.99 37.382 0.174 7 1.27 13.72
1/4/2022 2:45:00 PM 3.01 37.418 0.173 7.01 4.06 13.67
1/4/2022 3:00:00 PM 3.01 37.418 0.173 7.01 0.89 13.66
1/4/2022 3:15:00 PM 2.98 37.364 0.174 7.01 0.97 13.62
1/4/2022 3:30:00 PM 2.94 37.292 0.174 7.01 1.4 13.58
1/4/2022 3:45:00 PM 2.9 37.22 0.174 7 1 13.56
1/4/2022 4:00:00 PM 2.86 37.148 0.174 7 1.05 13.54
1/4/2022 4:15:00 PM 2.81 37.058 0.174 7 0.87 13.54
1/4/2022 4:30:00 PM 2.77 36.986 0.174 7 0.96 13.5
1/4/2022 4:45:00 PM 2.71 36.878 0.174 6.99 0.97 13.52
1/4/2022 5:00:00 PM 2.65 36.77 0.175 6.99 1.27 13.49
1/4/2022 5:15:00 PM 2.61 36.698 0.175 6.99 0.66 13.46
1/4/2022 5:30:00 PM 2.54 36.572 0.175 6.98 0.89 13.46
1/4/2022 5:45:00 PM 2.47 36.446 0.175 6.98 1.18 13.44
1/4/2022 6:00:00 PM 2.42 36.356 0.175 6.98 1.18 13.42
1/4/2022 6:15:00 PM 2.36 36.248 0.174 6.96 1.84 13.42
1/4/2022 6:30:00 PM 2.32 36.176 0.174 6.96 1.08 13.41
1/4/2022 6:45:00 PM 2.27 36.086 0.174 6.95 1.21 13.41
1/4/2022 7:00:00 PM 2.21 35.978 0.174 6.94 0.93 13.43
1/4/2022 7:15:00 PM 2.18 35.924 0.174 6.94 1.18 13.42
1/4/2022 7:30:00 PM 2.13 35.834 0.174 6.94 1.12 13.39
1/4/2022 7:45:00 PM 2.09 35.762 0.174 6.93 1.08 13.41
1/4/2022 8:00:00 PM 2.05 35.69 0.174 6.93 1.32 13.41
1/4/2022 8:15:00 PM 2.02 35.636 0.174 6.93 1.19 13.41
1/4/2022 8:30:00 PM 1.98 35.564 0.174 6.93 1.14 13.42
1/4/2022 8:45:00 PM 1.94 35.492 0.174 6.93 1.09 13.43
1/4/2022 9:00:00 PM 1.91 35.438 0.175 6.92 0.94 13.43
1/4/2022 9:15:00 PM 1.87 35.366 0.174 6.91 0.99 13.43
1/4/2022 9:30:00 PM 1.83 35.294 0.175 6.91 1.38 13.45
1/4/2022 9:45:00 PM 1.82 35.276 0.175 6.91 0.8 13.44
1/4/2022 10:00:00 PM 1.81 35.258 0.175 6.91 1.43 13.45
1/4/2022 10:15:00 PM 1.81 35.258 0.175 6.91 1.01 13.43
1/4/2022 10:30:00 PM 1.81 35.258 0.175 6.91 1.16 13.43
1/4/2022 10:45:00 PM 1.81 35.258 0.174 6.91 1.25 13.44
1/4/2022 11:00:00 PM 1.82 35.276 0.174 6.91 1.12 13.43
1/4/2022 11:15:00 PM 1.83 35.294 0.174 6.91 1.28 13.43
1/4/2022 11:30:00 PM 1.83 35.294 0.174 6.91 1.42 13.42
1/4/2022 11:45:00 PM 1.83 35.294 0.173 6.91 1.48 13.45
1/5/2022 12:00:00 AM 1.81 35.258 0.173 6.91 0.88 13.45
1/5/2022 12:15:00 AM 1.8 35.24 0.175 6.91 2.54 13.44
1/5/2022 12:30:00 AM 1.78 35.204 0.173 6.91 1.48 13.43
1/5/2022 12:45:00 AM 1.76 35.168 0.173 6.91 1.2 13.45
1/5/2022 1:00:00 AM 1.75 35.15 0.173 6.91 1.43 13.45
1/5/2022 1:15:00 AM 1.73 35.114 0.174 6.91 1.51 13.46
1/5/2022 1:30:00 AM 1.71 35.078 0.174 6.91 0.6 13.44
1/5/2022 1:45:00 AM 1.69 35.042 0.174 6.9 0.9 13.44
1/5/2022 2:00:00 AM 1.68 35.024 0.174 6.89 0.87 13.43
1/5/2022 2:15:00 AM 1.67 35.006 0.174 6.9 0.87 13.44
1/5/2022 2:30:00 AM 1.64 34.952 0.174 6.89 0.91 13.44
1/5/2022 2:45:00 AM 1.63 34.934 0.174 6.89 1.2 13.44
1/5/2022 3:00:00 AM 1.62 34.916 0.174 6.89 1.24 13.46
1/5/2022 3:15:00 AM 1.6 34.88 0.174 6.89 1.29 13.44
1/5/2022 3:30:00 AM 1.58 34.844 0.174 6.89 0.91 13.45
1/5/2022 3:45:00 AM 1.56 34.808 0.174 6.89 1.25 13.45
1/5/2022 4:00:00 AM 1.54 34.772 0.174 6.89 0.74 13.47
1/5/2022 4:15:00 AM 1.52 34.736 0.174 6.89 1.13 13.45
1/5/2022 4:30:00 AM 1.5 34.7 0.174 6.89 1.2 13.47
1/5/2022 4:45:00 AM 1.48 34.664 0.174 6.89 1.16 13.45
1/5/2022 5:00:00 AM 1.47 34.646 0.174 6.89 0.99 13.48
1/5/2022 5:15:00 AM 1.46 34.628 0.174 6.88 0.92 13.47
1/5/2022 5:30:00 AM 1.46 34.628 0.174 6.88 0.87 13.48
1/5/2022 5:45:00 AM 1.44 34.592 0.174 6.88 0.76 13.49
1/5/2022 6:00:00 AM 1.42 34.556 0.175 6.88 1.12 13.51
1/5/2022 6:15:00 AM 1.41 34.538 0.174 6.88 1.24 13.5
1/5/2022 6:30:00 AM 1.41 34.538 0.174 6.88 1.07 13.5
1/5/2022 6:45:00 AM 1.43 34.574 0.174 6.88 1.07 13.5
1/5/2022 7:00:00 AM 1.44 34.592 0.174 6.88 0.99 13.5
1/5/2022 7:15:00 AM 1.45 34.61 0.174 6.88 0.71 13.5
1/5/2022 7:30:00 AM 1.48 34.664 0.174 6.88 0.86 13.5
1/5/2022 7:45:00 AM 1.5 34.7 0.174 6.87 0.88 13.5
1/5/2022 8:00:00 AM 1.52 34.736 0.174 6.88 1.69 13.49
1/5/2022 8:15:00 AM 1.54 34.772 0.174 6.88 0.94 13.52
1/5/2022 8:30:00 AM 1.57 34.826 0.174 6.88 1.86 13.54
1/5/2022 8:45:00 AM 1.6 34.88 0.175 6.88 0.77 13.57
1/5/2022 9:00:00 AM 1.64 34.952 0.174 6.89 1.08 13.59
1/5/2022 9:15:00 AM 1.69 35.042 0.174 6.9 0.8 13.62
1/5/2022 9:30:00 AM 1.75 35.15 0.174 6.9 0.77 13.64
1/5/2022 9:45:00 AM 1.8 35.24 0.174 6.9 0.79 13.66
1/5/2022 10:00:00 AM 1.86 35.348 0.174 6.91 0.87 13.66
1/5/2022 10:15:00 AM 1.92 35.456 0.174 6.91 0.79 13.68
1/5/2022 10:30:00 AM 1.99 35.582 0.174 6.91 1.01 13.67
1/5/2022 10:45:00 AM 2.06 35.708 0.174 6.92 0.63 13.69
1/5/2022 11:00:00 AM 2.16 35.888 0.174 6.92 1 13.68
1/5/2022 11:15:00 AM 2.26 36.068 0.174 6.93 0.66 13.66
1/5/2022 11:30:00 AM 2.35 36.23 0.174 6.94 0.79 13.68
1/5/2022 11:45:00 AM 2.44 36.392 0.174 6.94 0.81 13.67
1/5/2022 12:00:00 PM 2.53 36.554 0.174 6.94 0.74 13.65
1/5/2022 12:15:00 PM 2.62 36.716 0.174 6.95 0.74 13.62
1/5/2022 12:30:00 PM 2.7 36.86 0.174 6.95 1.05 13.6
1/5/2022 12:45:00 PM 2.78 37.004 0.174 6.96 0.76 13.58
1/5/2022 1:00:00 PM 2.87 37.166 0.173 6.96 1.18 13.55
1/5/2022 1:15:00 PM 2.96 37.328 0.173 6.97 1.1 13.5
1/5/2022 1:30:00 PM 3.07 37.526 0.173 6.97 0.98 13.5
1/5/2022 1:45:00 PM 3.18 37.724 0.173 6.97 0.92 13.47
1/5/2022 2:00:00 PM 3.25 37.85 0.173 6.98 1.23 13.45
1/5/2022 2:15:00 PM 3.31 37.958 0.173 6.98 0.62 13.41
1/5/2022 2:30:00 PM 3.35 38.03 0.173 6.99 0.86 13.39
1/5/2022 2:45:00 PM 3.4 38.12 0.173 6.99 1.78 13.34
1/5/2022 3:00:00 PM 3.44 38.192 0.173 6.99 0.88 13.3
1/5/2022 3:15:00 PM 3.48 38.264 0.173 6.99 0.82 13.28
1/5/2022 3:30:00 PM 3.51 38.318 0.173 7 0.93 13.23
1/5/2022 3:45:00 PM 3.54 38.372 0.173 7 1.69 13.18
1/5/2022 4:00:00 PM 3.56 38.408 0.173 7.01 0.82 13.17
1/5/2022 4:15:00 PM 3.58 38.444 0.173 7.01 1.45 13.13
1/5/2022 4:30:00 PM 3.58 38.444 0.173 7 1.2 13.07
1/5/2022 4:45:00 PM 3.57 38.426 0.173 7 0.79 13.03
1/5/2022 5:00:00 PM 3.54 38.372 0.173 7 1.25 12.97
1/5/2022 5:15:00 PM 3.51 38.318 0.173 7 1.44 12.94
1/5/2022 5:30:00 PM 3.47 38.246 0.173 7 0.93 12.89
1/5/2022 5:45:00 PM 3.44 38.192 0.173 6.99 1.17 12.84
1/5/2022 6:00:00 PM 3.4 38.12 0.173 6.98 1.29 12.83
1/5/2022 6:15:00 PM 3.37 38.066 0.173 6.98 0.97 12.8
1/5/2022 6:30:00 PM 3.33 37.994 0.173 6.98 0.85 12.78
1/5/2022 6:45:00 PM 3.3 37.94 0.173 6.97 1.36 12.76
1/5/2022 7:00:00 PM 3.25 37.85 0.173 6.96 1.46 12.76
1/5/2022 7:15:00 PM 3.21 37.778 0.173 6.96 1.06 12.76
1/5/2022 7:30:00 PM 3.18 37.724 0.173 6.96 0.72 12.75
1/5/2022 7:45:00 PM 3.14 37.652 0.173 6.95 1.74 12.75
1/5/2022 8:00:00 PM 3.09 37.562 0.173 6.94 0.91 12.74
1/5/2022 8:15:00 PM 3.06 37.508 0.173 6.94 0.8 12.72
1/5/2022 8:30:00 PM 3.02 37.436 0.173 6.94 1.17 12.73
1/5/2022 8:45:00 PM 2.98 37.364 0.173 6.94 1.54 12.73
1/5/2022 9:00:00 PM 2.94 37.292 0.173 6.93 0.49 12.73
1/5/2022 9:15:00 PM 2.91 37.238 0.173 6.93 1.4 12.73
1/5/2022 9:30:00 PM 2.89 37.202 0.173 6.92 1.2 12.75
1/5/2022 9:45:00 PM 2.86 37.148 0.173 6.92 1.2 12.75
1/5/2022 10:00:00 PM 2.83 37.094 0.173 6.91 0.78 12.75
1/5/2022 10:15:00 PM 2.81 37.058 0.173 6.91 0.77 12.75
1/5/2022 10:30:00 PM 2.8 37.04 0.173 6.91 1.32 12.76
1/5/2022 10:45:00 PM 2.79 37.022 0.173 6.91 0.73 12.77
1/5/2022 11:00:00 PM 2.77 36.986 0.173 6.91 1.21 12.75
1/5/2022 11:15:00 PM 2.76 36.968 0.173 6.91 0.92 12.76
1/5/2022 11:30:00 PM 2.75 36.95 0.173 6.9 2.26 12.75
1/5/2022 11:45:00 PM 2.75 36.95 0.173 6.9 1.18 12.76
1/6/2022 12:00:00 AM 2.74 36.932 0.173 6.9 1.16 12.79
1/6/2022 12:15:00 AM 2.73 36.914 0.173 6.9 0.88 12.76
1/6/2022 12:30:00 AM 2.72 36.896 0.173 6.9 1.28 12.77
1/6/2022 12:45:00 AM 2.7 36.86 0.173 6.9 0.86 12.76
1/6/2022 1:00:00 AM 2.68 36.824 0.174 6.9 1.17 12.8
1/6/2022 1:15:00 AM 2.66 36.788 0.173 6.9 1.23 12.78
1/6/2022 1:30:00 AM 2.64 36.752 0.173 6.89 0.97 12.77
1/6/2022 1:45:00 AM 2.63 36.734 0.173 6.9 0.78 12.78
1/6/2022 2:00:00 AM 2.6 36.68 0.173 6.89 1.4 12.79
1/6/2022 2:15:00 AM 2.58 36.644 0.173 6.89 1.59 12.82
1/6/2022 2:30:00 AM 2.55 36.59 0.173 6.89 1.25 12.83
1/6/2022 2:45:00 AM 2.54 36.572 0.173 6.89 1.03 12.82
1/6/2022 3:00:00 AM 2.52 36.536 0.173 6.89 1.56 12.82
1/6/2022 3:15:00 AM 2.5 36.5 0.174 6.89 0.68 12.82
1/6/2022 3:30:00 AM 2.49 36.482 0.174 6.89 1.02 12.83
1/6/2022 3:45:00 AM 2.47 36.446 0.174 6.88 0.95 12.85
1/6/2022 4:00:00 AM 2.45 36.41 0.174 6.89 1.64 12.86
1/6/2022 4:15:00 AM 2.43 36.374 0.174 6.88 1.08 12.89
1/6/2022 4:30:00 AM 2.4 36.32 0.174 6.88 1.36 12.9
1/6/2022 4:45:00 AM 2.36 36.248 0.174 6.88 1.4 12.9
1/6/2022 5:00:00 AM 2.34 36.212 0.174 6.88 1.56 12.9
1/6/2022 5:15:00 AM 2.31 36.158 0.174 6.87 1.74 12.93
1/6/2022 5:30:00 AM 2.28 36.104 0.174 6.88 1.38 12.93
1/6/2022 5:45:00 AM 2.24 36.032 0.174 6.88 0.95 12.95
1/6/2022 6:00:00 AM 2.21 35.978 0.174 6.87 1.71 12.97
1/6/2022 6:15:00 AM 2.17 35.906 0.174 6.88 1.3 12.99
1/6/2022 6:30:00 AM 2.16 35.888 0.174 6.88 1.31 13.01
1/6/2022 6:45:00 AM 2.13 35.834 0.175 6.87 1.62 13.02
1/6/2022 7:00:00 AM 2.12 35.816 0.175 6.88 1.62 13.03
1/6/2022 7:15:00 AM 2.1 35.78 0.175 6.87 1.29 13.03
1/6/2022 7:30:00 AM 2.08 35.744 0.175 6.87 1.05 13.07
1/6/2022 7:45:00 AM 2.08 35.744 0.175 6.87 0.66 13.07
1/6/2022 8:00:00 AM 2.07 35.726 0.175 6.87 0.93 13.09
1/6/2022 8:15:00 AM 2.07 35.726 0.175 6.86 1.32 13.11
1/6/2022 8:30:00 AM 2.08 35.744 0.175 6.86 1.13 13.15
1/6/2022 8:45:00 AM 2.1 35.78 0.175 6.87 1.13 13.21
1/6/2022 9:00:00 AM 2.11 35.798 0.175 6.87 0.84 13.25
1/6/2022 9:15:00 AM 2.13 35.834 0.174 6.87 1.14 13.28
1/6/2022 9:30:00 AM 2.14 35.852 0.175 6.88 0.97 13.33
1/6/2022 9:45:00 AM 2.17 35.906 0.175 6.88 0.89 13.35
1/6/2022 10:00:00 AM 2.21 35.978 0.174 6.89 0.75 13.38
1/6/2022 10:15:00 AM 2.23 36.014 0.174 6.89 1.33 13.41
1/6/2022 10:30:00 AM 2.24 36.032 0.174 6.89 1.91 13.44
1/6/2022 10:45:00 AM 2.29 36.122 0.174 6.9 1.26 13.46
1/6/2022 11:00:00 AM 2.35 36.23 0.174 6.91 1 13.48
1/6/2022 11:15:00 AM 2.43 36.374 0.174 6.91 1.11 13.5
1/6/2022 11:30:00 AM 2.49 36.482 0.174 6.91 1.18 13.52
1/6/2022 11:45:00 AM 2.57 36.626 0.174 6.92 0.89 13.53
1/6/2022 12:00:00 PM 2.66 36.788 0.174 6.93 0.85 13.55
1/6/2022 12:15:00 PM 2.75 36.95 0.174 6.93 1.3 13.55
1/6/2022 12:30:00 PM 2.85 37.13 0.174 6.94 0.84 13.53
1/6/2022 12:45:00 PM 3.01 37.418 0.174 6.94 0.81 13.52
1/6/2022 1:00:00 PM 3.11 37.598 0.174 6.95 1.01 13.5
1/6/2022 1:15:00 PM 3.18 37.724 0.174 6.96 1.54 13.49
1/6/2022 1:30:00 PM 3.23 37.814 0.174 6.96 1.22 13.47
1/6/2022 1:45:00 PM 3.27 37.886 0.174 6.96 1.14 13.47
1/6/2022 2:00:00 PM 3.32 37.976 0.174 6.97 0.86 13.43
1/6/2022 2:15:00 PM 3.37 38.066 0.174 6.97 1.01 13.4
1/6/2022 2:30:00 PM 3.42 38.156 0.174 6.98 1.07 13.37
1/6/2022 2:45:00 PM 3.47 38.246 0.174 6.98 1.26 13.34
1/6/2022 3:00:00 PM 3.51 38.318 0.173 6.98 1.05 13.28
1/6/2022 3:15:00 PM 3.52 38.336 0.173 6.98 0.75 13.29
1/6/2022 3:30:00 PM 3.53 38.354 0.174 6.99 1.29 13.24
1/6/2022 3:45:00 PM 3.51 38.318 0.174 6.98 0.86 13.23
1/6/2022 4:00:00 PM 3.49 38.282 0.174 6.99 2.06 13.18
1/6/2022 4:15:00 PM 3.47 38.246 0.174 6.98 1 13.14
1/6/2022 4:30:00 PM 3.45 38.21 0.174 6.99 0.99 13.12
1/6/2022 4:45:00 PM 3.42 38.156 0.174 6.98 0.88 13.08
1/6/2022 5:00:00 PM 3.4 38.12 0.174 6.97 0.72 13.05
1/6/2022 5:15:00 PM 3.37 38.066 0.174 6.97 0.82 13.01
1/6/2022 5:30:00 PM 3.35 38.03 0.174 6.97 1.23 12.95
1/6/2022 5:45:00 PM 3.33 37.994 0.174 6.96 1.07 12.93
1/6/2022 6:00:00 PM 3.31 37.958 0.173 6.96 0.93 12.91
1/6/2022 6:15:00 PM 3.29 37.922 0.173 6.95 0.73 12.88
1/6/2022 6:30:00 PM 3.27 37.886 0.173 6.95 1.1 12.87
1/6/2022 6:45:00 PM 3.24 37.832 0.173 6.95 0.68 12.85
1/6/2022 7:00:00 PM 3.22 37.796 0.173 6.94 1.03 12.84
1/6/2022 7:15:00 PM 3.2 37.76 0.165 6.94 2.08 12.83
1/6/2022 7:30:00 PM 3.18 37.724 0.174 6.93 0.87 12.82
1/6/2022 7:45:00 PM 3.16 37.688 0.174 6.93 1.22 12.83
1/6/2022 8:00:00 PM 3.14 37.652 0.173 6.92 0.97 12.83
1/6/2022 8:15:00 PM 3.11 37.598 0.173 6.92 0.99 12.83
1/6/2022 8:30:00 PM 3.08 37.544 0.173 6.92 0.92 12.83
1/6/2022 8:45:00 PM 3.07 37.526 0.174 6.92 0.99 12.81
1/6/2022 9:00:00 PM 3.05 37.49 0.173 6.92 0.85 12.8
1/6/2022 9:15:00 PM 3.03 37.454 0.173 6.91 0.89 12.81
1/6/2022 9:30:00 PM 3 37.4 0.173 6.91 1.04 12.81
1/6/2022 9:45:00 PM 2.99 37.382 0.173 6.91 0.88 12.81
1/6/2022 10:00:00 PM 2.97 37.346 0.173 6.91 1.74 12.81
1/6/2022 10:15:00 PM 2.95 37.31 0.173 6.91 0.8 12.83
1/6/2022 10:30:00 PM 2.93 37.274 0.173 6.91 0.79 12.8
1/6/2022 10:45:00 PM 2.89 37.202 0.173 6.9 0.71 12.81
1/6/2022 11:00:00 PM 2.86 37.148 0.173 6.91 0.83 12.82
1/6/2022 11:15:00 PM 2.85 37.13 0.173 6.9 0.83 12.81
1/6/2022 11:30:00 PM 2.79 37.022 0.172 6.9 1.21 12.81
1/6/2022 11:45:00 PM 2.76 36.968 0.173 6.9 0.56 12.78
1/7/2022 12:00:00 AM 2.71 36.878 0.165 6.9 1.89 12.8
1/7/2022 12:15:00 AM 2.65 36.77 0.172 6.9 1.12 12.81
1/7/2022 12:30:00 AM 2.56 36.608 0.171 6.9 1.07 12.81
1/7/2022 12:45:00 AM 2.43 36.374 0.172 6.9 1.15 12.83
1/7/2022 1:00:00 AM 2.32 36.176 0.172 6.9 1.07 12.84
1/7/2022 1:15:00 AM 2.23 36.014 0.173 6.89 1.4 12.88
1/7/2022 1:30:00 AM 2.11 35.798 0.173 6.89 0.78 12.89
1/7/2022 1:45:00 AM 2.02 35.636 0.173 6.89 0.76 12.9
1/7/2022 2:00:00 AM 1.91 35.438 0.173 6.88 1.15 12.92
1/7/2022 2:15:00 AM 1.8 35.24 0.172 6.88 1.37 12.96
1/7/2022 2:30:00 AM 1.67 35.006 0.171 6.87 0.87 12.99
1/7/2022 2:45:00 AM 1.56 34.808 0.171 6.87 0.93 13.03
1/7/2022 3:00:00 AM 1.5 34.7 0.171 6.86 1.9 13.06
1/7/2022 3:15:00 AM 1.47 34.646 0.171 6.86 1.06 13.06
1/7/2022 3:30:00 AM 1.41 34.538 0.171 6.85 0.74 13.12
1/7/2022 3:45:00 AM 1.37 34.466 0.171 6.86 0.81 13.15
1/7/2022 4:00:00 AM 1.34 34.412 0.171 6.85 1.21 13.2
1/7/2022 4:15:00 AM 1.31 34.358 0.17 6.85 0.43 13.23
1/7/2022 4:30:00 AM 1.31 34.358 0.17 6.85 1.01 13.23
1/7/2022 4:45:00 AM 1.3 34.34 0.17 6.85 1.01 13.26
1/7/2022 5:00:00 AM 1.31 34.358 0.17 6.85 0.54 13.29
1/7/2022 5:15:00 AM 1.32 34.376 0.17 6.85 0.43 12.87
1/7/2022 5:30:00 AM 1.32 34.376 0.17 6.85 0.33 7.27
1/7/2022 5:45:00 AM 1.25 34.25 0.17 6.86 401.5 4.34
1/7/2022 6:00:00 AM 1.3 34.34 0.17 6.86 634.3 9.75
1/7/2022 6:15:00 AM 1.3 34.34 0.17 6.86 782 11.5
1/7/2022 6:30:00 AM 1.24 34.232 0.17 6.85 891.1 12.31
1/7/2022 6:45:00 AM 1.21 34.178 0.17 6.85 966.4 12.69
1/7/2022 7:00:00 AM 1.2 34.16 0.17 6.85 1028 12.91
1/7/2022 7:15:00 AM 1.19 34.142 0.17 6.85 1064 13.03
1/7/2022 7:30:00 AM 1.19 34.142 0.171 6.85 1075 13.1
1/7/2022 7:45:00 AM 1.17 34.106 0.171 6.85 1079 13.16
1/7/2022 8:00:00 AM 1.16 34.088 0.171 6.85 1090 13.21
1/7/2022 8:15:00 AM 1.15 34.07 0.171 6.85 1093 13.24
1/7/2022 8:30:00 AM 1.07 33.926 0.171 6.85 1098 13.29
1/7/2022 8:45:00 AM 1.09 33.962 0.171 6.86 1104 13.32
1/7/2022 9:00:00 AM 1.08 33.944 0.171 6.85 1109 13.37
1/7/2022 9:15:00 AM 1.08 33.944 0.171 6.85 1117 13.42
1/7/2022 9:30:00 AM 1.05 33.89 0.171 6.86 1127 13.48
1/7/2022 9:45:00 AM 1.02 33.836 0.171 6.86 1137 13.52
1/7/2022 10:00:00 AM 0.99 33.782 0.171 6.86 1156 13.59
1/7/2022 10:15:00 AM 0.98 33.764 0.171 6.87 1192 13.64
1/7/2022 10:30:00 AM 1 33.8 0.171 6.87 1218 13.66
1/7/2022 10:45:00 AM 1.02 33.836 0.171 6.87 1233 13.68
1/7/2022 11:00:00 AM 1.08 33.944 0.171 6.87 1265 13.73
1/7/2022 11:15:00 AM 1.15 34.07 0.171 6.89 1304 13.76
1/7/2022 11:30:00 AM 1.24 34.232 0.171 6.89 1334 13.78
1/7/2022 11:45:00 AM 1.34 34.412 0.171 6.9 1374 13.8
1/7/2022 12:00:00 PM 1.42 34.556 0.171 6.9 1407 13.8
1/7/2022 12:15:00 PM 1.5 34.7 0.17 6.9 1419 13.8
1/7/2022 12:30:00 PM 1.54 34.772 0.17 6.91 1459 13.81
1/7/2022 12:45:00 PM 1.67 35.006 0.17 6.91 1481 13.82
1/7/2022 1:00:00 PM 1.81 35.258 0.17 6.92 1521 13.8
1/7/2022 1:15:00 PM 1.9 35.42 0.17 6.92 1543 13.81
1/7/2022 1:30:00 PM 1.99 35.582 0.17 6.94 1559 13.77
1/7/2022 1:45:00 PM 2.01 35.618 0.17 6.94 1567 13.77
1/7/2022 2:00:00 PM 2.03 35.654 0.17 6.95 1567 13.75
1/7/2022 2:15:00 PM 2.1 35.78 0.17 6.95 1567 13.71
1/7/2022 2:30:00 PM 2.17 35.906 0.17 6.94 1567 13.69
1/7/2022 2:45:00 PM 2.23 36.014 0.17 6.95 1567 13.67
1/7/2022 3:00:00 PM 2.25 36.05 0.17 6.96 1567 13.68
1/7/2022 3:15:00 PM 2.15 35.87 0.17 6.96 1566 13.69
1/7/2022 3:30:00 PM 2.14 35.852 0.17 6.96 1566 13.66
1/7/2022 3:45:00 PM 2.07 35.726 0.17 6.96 1566 13.66
1/7/2022 4:00:00 PM 2.03 35.654 0.17 6.96 1566 13.65
1/7/2022 4:15:00 PM 1.96 35.528 0.17 6.95 1566 13.63
1/7/2022 4:30:00 PM 1.85 35.33 0.17 6.95 1566 13.66
1/7/2022 4:45:00 PM 1.77 35.186 0.17 6.95 1566 13.62
1/7/2022 5:00:00 PM 1.71 35.078 0.17 6.94 1566 13.62
1/7/2022 5:15:00 PM 1.63 34.934 0.17 6.93 1566 13.62
1/7/2022 5:30:00 PM 1.56 34.808 0.17 6.93 1566 13.59
1/7/2022 5:45:00 PM 1.49 34.682 0.17 6.92 1566 13.59
1/7/2022 6:00:00 PM 1.41 34.538 0.17 6.92 1566 13.6
1/7/2022 6:15:00 PM 1.33 34.394 0.171 6.91 1566 13.58
1/7/2022 6:30:00 PM 1.26 34.268 0.171 6.91 1566 13.58
1/7/2022 6:45:00 PM 1.17 34.106 0.171 6.9 1566 13.61
1/7/2022 7:00:00 PM 1.12 34.016 0.171 6.9 1566 13.61
1/7/2022 7:15:00 PM 1.04 33.872 0.171 6.89 1566 13.64
1/7/2022 7:30:00 PM 0.97 33.746 0.17 6.89 1566 13.66
1/7/2022 7:45:00 PM 0.91 33.638 0.171 6.9 1566 13.66
1/7/2022 8:00:00 PM 0.83 33.494 0.17 6.88 1566 13.69
1/7/2022 8:15:00 PM 0.77 33.386 0.17 6.88 1566 13.7
1/7/2022 8:30:00 PM 0.71 33.278 0.171 6.87 1566 13.71
1/7/2022 8:45:00 PM 0.65 33.17 0.171 6.87 1566 13.75
1/7/2022 9:00:00 PM 0.58 33.044 0.171 6.87 1566 13.79
1/7/2022 9:15:00 PM 0.53 32.954 0.171 6.87 1566 13.81
1/7/2022 9:30:00 PM 0.49 32.882 0.171 6.86 1566 13.81
1/7/2022 9:45:00 PM 0.4 32.72 0.171 6.86 1566 13.86
1/7/2022 10:00:00 PM 0.35 32.63 0.171 6.86 1566 13.88
1/7/2022 10:15:00 PM 0.3 32.54 0.171 6.86 1566 13.9
1/7/2022 10:30:00 PM 0.26 32.468 0.171 6.85 1566 13.93
1/7/2022 10:45:00 PM 0.21 32.378 0.171 6.85 1566 13.96
1/7/2022 11:00:00 PM 0.17 32.306 0.172 6.84 1566 14
1/7/2022 11:15:00 PM 0.13 32.234 0.172 6.85 1566 14.02
1/7/2022 11:30:00 PM 0.09 32.162 0.172 6.84 1566 14.04
1/7/2022 11:45:00 PM 0.06 32.108 0.172 6.84 1566 14.04
1/8/2022 12:00:00 AM 0.03 32.054 0.172 6.84 1566 14.07
1/8/2022 12:15:00 AM 0 32 0.172 6.84 1566 14.1
1/8/2022 12:30:00 AM -0.01 31.982 0.172 6.84 1566 14.08
1/8/2022 12:45:00 AM -0.04 31.928 0.172 6.84 1566 14.13
1/8/2022 1:00:00 AM -0.05 31.91 0.172 6.83 1566 14.15
1/8/2022 1:15:00 AM -0.04 31.928 0.172 6.84 1566 14.16
1/8/2022 1:30:00 AM -0.01 31.982 0.172 6.83 1566 14.15
1/8/2022 1:45:00 AM -0.02 31.964 0.173 6.83 1566 14.17
1/8/2022 2:00:00 AM -0.01 31.982 0.173 6.83 1566 14.21
1/8/2022 2:15:00 AM -0.02 31.964 0.173 6.83 1566 14.22
1/8/2022 2:30:00 AM -0.01 31.982 0.173 6.83 1566 14.22
1/8/2022 2:45:00 AM -0.01 31.982 0.173 6.83 1566 14.25
1/8/2022 3:00:00 AM -0.01 31.982 0.174 6.84 1566 14.24
1/8/2022 3:15:00 AM 0 32 0.174 6.83 1566 14.23
1/8/2022 3:30:00 AM 0 32 0.174 6.83 1566 14.27
1/8/2022 3:45:00 AM 0 32 0.174 6.84 1566 14.28
1/8/2022 4:00:00 AM 0 32 0.174 6.83 1566 14.3
1/8/2022 4:15:00 AM 0 32 0.174 6.83 1566 14.3
1/8/2022 4:30:00 AM 0 32 0.175 6.83 1567 14.32
1/8/2022 4:45:00 AM 0 32 0.175 6.83 1566 14.34
1/8/2022 5:00:00 AM 0 32 0.175 6.83 1566 14.35
1/8/2022 5:15:00 AM 0 32 0.176 6.83 1566 14.38
1/8/2022 5:30:00 AM 0 32 0.176 6.83 1566 14.37
1/8/2022 5:45:00 AM 0 32 0.177 6.83 1566 14.38
1/8/2022 6:00:00 AM 0 32 0.177 6.83 1566 14.37
1/8/2022 6:15:00 AM 0 32 0.177 6.83 1566 14.4
1/8/2022 6:30:00 AM 0 32 0.178 6.83 1566 14.4
1/8/2022 6:45:00 AM 0 32 0.178 6.83 1566 14.4
1/8/2022 7:00:00 AM 0 32 0.178 6.83 1566 14.42
1/8/2022 7:15:00 AM 0 32 0.179 6.83 1566 14.43
1/8/2022 7:30:00 AM 0.01 32.018 0.179 6.83 1566 14.43
1/8/2022 7:45:00 AM 0.01 32.018 0.179 6.83 1566 14.45
1/8/2022 8:00:00 AM 0.01 32.018 0.179 6.83 1566 14.45
1/8/2022 8:15:00 AM 0.02 32.036 0.18 6.83 1566 14.45
1/8/2022 8:30:00 AM 0.02 32.036 0.18 6.83 1566 14.46
1/8/2022 8:45:00 AM 0.01 32.018 0.18 6.83 1566 14.5
1/8/2022 9:00:00 AM 0.01 32.018 0.18 6.83 1566 14.55
1/8/2022 9:15:00 AM 0.01 32.018 0.181 6.83 1566 14.59
1/8/2022 9:30:00 AM 0.02 32.036 0.181 6.83 1566 14.6
1/8/2022 9:45:00 AM 0.02 32.036 0.181 6.83 1566 14.65
1/8/2022 10:00:00 AM 0.02 32.036 0.181 6.84 1566 14.63
1/8/2022 10:15:00 AM 0.02 32.036 0.181 6.83 1566 14.66
1/8/2022 10:30:00 AM 0.03 32.054 0.181 6.83 1566 14.68
1/8/2022 10:45:00 AM 0.03 32.054 0.181 6.84 1567 14.71
1/8/2022 11:00:00 AM 0.05 32.09 0.18 6.84 1566 14.71
1/8/2022 11:15:00 AM 0.06 32.108 0.18 6.85 1566 14.72
1/8/2022 11:30:00 AM 0.06 32.108 0.18 6.85 1566 14.71
1/8/2022 11:45:00 AM 0.04 32.072 0.18 6.86 1566 14.73
1/8/2022 12:00:00 PM 0.06 32.108 0.18 6.86 1566 14.74
1/8/2022 12:15:00 PM 0.04 32.072 0.18 6.86 1566 14.72
1/8/2022 12:30:00 PM 0.03 32.054 0.18 6.86 1566 14.75
1/8/2022 12:45:00 PM 0.04 32.072 0.179 6.85 1566 14.74
1/8/2022 1:00:00 PM 0.06 32.108 0.178 6.85 1566 14.71
1/8/2022 1:15:00 PM 0.07 32.126 0.177 6.86 1566 14.69
1/8/2022 1:30:00 PM 0.08 32.144 0.177 6.86 1566 14.68
1/8/2022 1:45:00 PM 0 32 0.177 6.86 1566 14.69
1/8/2022 2:00:00 PM 0 32 0.176 6.86 1566 14.69
1/8/2022 2:15:00 PM -0.01 31.982 0.176 6.86 1566 14.69
1/8/2022 2:30:00 PM -0.02 31.964 0.176 6.86 1566 14.67
1/8/2022 2:45:00 PM -0.02 31.964 0.176 6.86 1566 14.65
1/8/2022 3:00:00 PM -0.02 31.964 0.176 6.86 1566 14.66
1/8/2022 3:15:00 PM -0.02 31.964 0.176 6.86 1566 14.62
1/8/2022 3:30:00 PM -0.02 31.964 0.177 6.86 1566 14.66
1/8/2022 3:45:00 PM -0.02 31.964 0.177 6.86 1567 14.64
1/8/2022 4:00:00 PM -0.03 31.946 0.178 6.86 1566 14.65
1/8/2022 4:15:00 PM -0.03 31.946 0.178 6.86 1567 14.63
1/8/2022 4:30:00 PM -0.03 31.946 0.179 6.86 1566 14.65
1/8/2022 4:45:00 PM -0.03 31.946 0.18 6.86 1566 14.65
1/8/2022 5:00:00 PM -0.04 31.928 0.18 6.86 1566 14.66
1/8/2022 5:15:00 PM -0.04 31.928 0.181 6.86 1566 14.64
1/8/2022 5:30:00 PM -0.04 31.928 0.181 6.86 1566 14.64
1/8/2022 5:45:00 PM -0.05 31.91 0.181 6.86 1566 14.62
1/8/2022 6:00:00 PM -0.05 31.91 0.182 6.86 1566 14.63
1/8/2022 6:15:00 PM -0.05 31.91 0.182 6.86 1566 14.61
1/8/2022 6:30:00 PM -0.05 31.91 0.183 6.86 1566 14.64
1/8/2022 6:45:00 PM -0.05 31.91 0.183 6.86 1566 14.63
1/8/2022 7:00:00 PM -0.04 31.928 0.182 6.86 1566 14.64
1/8/2022 7:15:00 PM -0.04 31.928 0.182 6.86 1566 14.64
1/8/2022 7:30:00 PM -0.04 31.928 0.182 6.85 1567 14.64
1/8/2022 7:45:00 PM -0.04 31.928 0.182 6.86 1566 14.63
1/8/2022 8:00:00 PM -0.05 31.91 0.181 6.86 1566 14.64
1/8/2022 8:15:00 PM -0.04 31.928 0.183 6.85 1566 14.64
1/8/2022 8:30:00 PM -0.04 31.928 0.182 6.85 1566 14.64
1/8/2022 8:45:00 PM -0.04 31.928 0.182 6.85 1566 14.64
1/8/2022 9:00:00 PM -0.04 31.928 0.181 6.85 1566 14.61
1/8/2022 9:15:00 PM -0.04 31.928 0.182 6.85 1566 14.65
1/8/2022 9:30:00 PM -0.04 31.928 0.182 6.85 1566 14.61
1/8/2022 9:45:00 PM -0.04 31.928 0.18 6.85 1566 14.63
1/8/2022 10:00:00 PM -0.04 31.928 0.181 6.85 1566 14.63
1/8/2022 10:15:00 PM -0.04 31.928 0.179 6.84 1566 14.63
1/8/2022 10:30:00 PM -0.04 31.928 0.18 6.84 1566 14.61
1/8/2022 10:45:00 PM -0.04 31.928 0.177 6.85 1566 14.61
1/8/2022 11:00:00 PM -0.04 31.928 0.185 6.85 1566 14.61
1/8/2022 11:15:00 PM -0.04 31.928 0.182 6.84 1567 14.62
1/8/2022 11:30:00 PM -0.04 31.928 0.18 6.84 1566 14.62
1/8/2022 11:45:00 PM -0.04 31.928 0.178 6.85 1566 14.63
1/9/2022 12:00:00 AM -0.04 31.928 0.183 6.85 1566 14.63
1/9/2022 12:15:00 AM -0.04 31.928 0.183 6.85 1566 14.62
1/9/2022 12:30:00 AM -0.04 31.928 0.184 6.84 1566 14.61
1/9/2022 12:45:00 AM -0.04 31.928 0.184 6.84 1567 14.63
1/9/2022 1:00:00 AM -0.04 31.928 0.184 6.84 1567 14.62
1/9/2022 1:15:00 AM -0.04 31.928 0.184 6.84 1566 14.63
1/9/2022 1:30:00 AM -0.04 31.928 0.183 6.84 1566 14.62
1/9/2022 1:45:00 AM -0.04 31.928 0.185 6.84 1567 14.61
1/9/2022 2:00:00 AM -0.04 31.928 0.185 6.84 1567 14.6
1/9/2022 2:15:00 AM -0.04 31.928 0.185 6.84 1567 14.6
1/9/2022 2:30:00 AM -0.04 31.928 0.184 6.84 1566 14.6
1/9/2022 2:45:00 AM -0.04 31.928 0.184 6.84 1566 14.57
1/9/2022 3:00:00 AM -0.04 31.928 0.184 6.84 1567 14.59
1/9/2022 3:15:00 AM -0.04 31.928 0.184 6.84 1567 14.57
1/9/2022 3:30:00 AM -0.04 31.928 0.184 6.84 1566 14.57
1/9/2022 3:45:00 AM -0.04 31.928 0.184 6.84 1566 14.55
1/9/2022 4:00:00 AM -0.04 31.928 0.184 6.84 1566 14.54
1/9/2022 4:15:00 AM -0.04 31.928 0.184 6.83 1566 14.51
1/9/2022 4:30:00 AM -0.04 31.928 0.184 6.83 1566 14.53
1/9/2022 4:45:00 AM -0.04 31.928 0.184 6.83 1566 14.51
1/9/2022 5:00:00 AM -0.04 31.928 0.184 6.83 1566 14.5
1/9/2022 5:15:00 AM -0.04 31.928 0.184 6.83 1566 14.49
1/9/2022 5:30:00 AM -0.04 31.928 0.183 6.83 1566 14.47
1/9/2022 5:45:00 AM -0.04 31.928 0.183 6.83 1566 14.47
1/9/2022 6:00:00 AM -0.04 31.928 0.183 6.83 1566 14.47
1/9/2022 6:15:00 AM -0.04 31.928 0.183 6.83 1566 14.45
1/9/2022 6:30:00 AM -0.04 31.928 0.182 6.83 1566 14.46
1/9/2022 6:45:00 AM -0.04 31.928 0.182 6.83 1567 14.45
1/9/2022 7:00:00 AM -0.04 31.928 0.182 6.83 1538 14.45
1/9/2022 7:15:00 AM -0.04 31.928 0.182 6.83 1475 14.41
1/9/2022 7:30:00 AM -0.04 31.928 0.181 6.83 1445 14.43
1/9/2022 7:45:00 AM -0.04 31.928 0.181 6.83 1395 14.44
1/9/2022 8:00:00 AM -0.04 31.928 0.181 6.83 1210 14.43
1/9/2022 8:15:00 AM -0.04 31.928 0.18 6.83 1188 14.44
1/9/2022 8:30:00 AM -0.04 31.928 0.18 6.83 1122 14.45
1/9/2022 8:45:00 AM -0.04 31.928 0.18 6.83 1080 14.43
1/9/2022 9:00:00 AM -0.04 31.928 0.179 6.83 1055 14.46
1/9/2022 9:15:00 AM -0.04 31.928 0.179 6.83 1540 14.47
1/9/2022 9:30:00 AM -0.03 31.946 0.179 6.83 1566 14.47
1/9/2022 9:45:00 AM -0.03 31.946 0.179 6.83 1566 14.48
1/9/2022 10:00:00 AM -0.03 31.946 0.179 6.83 1557 14.46
1/9/2022 10:15:00 AM -0.03 31.946 0.179 6.83 1515 14.47
1/9/2022 10:30:00 AM -0.03 31.946 0.178 6.84 1424 14.49
1/9/2022 10:45:00 AM -0.03 31.946 0.178 6.84 1388 14.49
1/9/2022 11:00:00 AM -0.02 31.964 0.178 6.83 1360 14.48
1/9/2022 11:15:00 AM -0.02 31.964 0.178 6.84 1320 14.49
1/9/2022 11:30:00 AM -0.02 31.964 0.178 6.83 1305 14.49
1/9/2022 11:45:00 AM -0.02 31.964 0.178 6.84 1280 14.48
1/9/2022 12:00:00 PM -0.01 31.982 0.178 6.84 1249 14.48
1/9/2022 12:15:00 PM 0 32 0.178 6.84 1214 14.48
1/9/2022 12:30:00 PM 0.02 32.036 0.178 6.84 1230 14.46
1/9/2022 12:45:00 PM 0.03 32.054 0.178 6.85 1278 14.46
1/9/2022 1:00:00 PM 0.05 32.09 0.178 6.85 1252 14.45
1/9/2022 1:15:00 PM 0.07 32.126 0.178 6.85 1222 14.42
1/9/2022 1:30:00 PM 0.09 32.162 0.178 6.86 1230 14.42
1/9/2022 1:45:00 PM 0.12 32.216 0.178 6.86 1218 14.38
1/9/2022 2:00:00 PM 0.15 32.27 0.178 6.86 1202 14.36
1/9/2022 2:15:00 PM 0.19 32.342 0.178 6.86 1179 14.34
1/9/2022 2:30:00 PM 0.25 32.45 0.178 6.86 1185 14.33
1/9/2022 2:45:00 PM 0.29 32.522 0.178 6.86 1177 14.31
1/9/2022 3:00:00 PM 0.33 32.594 0.177 6.87 1174 14.29
1/9/2022 3:15:00 PM 0.35 32.63 0.177 6.87 1168 14.26
1/9/2022 3:30:00 PM 0.38 32.684 0.177 6.87 1160 14.22
1/9/2022 3:45:00 PM 0.41 32.738 0.177 6.88 1148 14.2
1/9/2022 4:00:00 PM 0.44 32.792 0.177 6.88 1136 14.17
1/9/2022 4:15:00 PM 0.48 32.864 0.177 6.87 1129 14.12
1/9/2022 4:30:00 PM 0.53 32.954 0.176 6.88 1120 14.09
1/9/2022 4:45:00 PM 0.56 33.008 0.176 6.88 1112 14.07
1/9/2022 5:00:00 PM 0.59 33.062 0.176 6.88 1104 14.03
1/9/2022 5:15:00 PM 0.63 33.134 0.176 6.88 1095 14
1/9/2022 5:30:00 PM 0.67 33.206 0.176 6.87 1083 13.97
1/9/2022 5:45:00 PM 0.7 33.26 0.175 6.88 1069 13.93
1/9/2022 6:00:00 PM 0.74 33.332 0.175 6.88 1062 13.91
1/9/2022 6:15:00 PM 0.78 33.404 0.176 6.88 1050 13.92
1/9/2022 6:30:00 PM 0.8 33.44 0.176 6.88 1046 13.9
1/9/2022 6:45:00 PM 0.84 33.512 0.175 6.88 1042 13.84
1/9/2022 7:00:00 PM 0.86 33.548 0.175 6.88 1037 13.85
1/9/2022 7:15:00 PM 0.9 33.62 0.175 6.88 1027 13.82
1/9/2022 7:30:00 PM 0.91 33.638 0.175 6.88 1018 13.81
1/9/2022 7:45:00 PM 0.93 33.674 0.175 6.88 1013 13.82
1/9/2022 8:00:00 PM 0.96 33.728 0.175 6.87 1000 13.78
1/9/2022 8:15:00 PM 0.96 33.728 0.175 6.87 993.5 13.81
1/9/2022 8:30:00 PM 0.98 33.764 0.175 6.87 991.4 13.79
1/9/2022 8:45:00 PM 0.99 33.782 0.175 6.87 981.1 13.78
1/9/2022 9:00:00 PM 1 33.8 0.174 6.87 978.7 13.74
1/9/2022 9:15:00 PM 1.02 33.836 0.174 6.86 971.3 13.74
1/9/2022 9:30:00 PM 1.03 33.854 0.174 6.87 968.8 13.74
1/9/2022 9:45:00 PM 1.04 33.872 0.174 6.87 961.8 13.72
1/9/2022 10:00:00 PM 1.06 33.908 0.174 6.86 953.1 13.71
1/9/2022 10:15:00 PM 1.08 33.944 0.174 6.85 944.3 13.72
1/9/2022 10:30:00 PM 1.09 33.962 0.174 6.85 935 13.69
1/9/2022 10:45:00 PM 1.1 33.98 0.174 6.85 922.6 13.69
1/9/2022 11:00:00 PM 1.12 34.016 0.174 6.85 907.2 13.69
1/9/2022 11:15:00 PM 1.13 34.034 0.174 6.85 900.2 13.7
1/9/2022 11:30:00 PM 1.15 34.07 0.174 6.85 899.9 13.68
1/9/2022 11:45:00 PM 1.17 34.106 0.175 6.86 898.4 13.67
1/10/2022 12:00:00 AM 1.19 34.142 0.175 6.85 895.9 13.67
1/10/2022 12:15:00 AM 1.2 34.16 0.176 6.85 895.4 13.67
1/10/2022 12:30:00 AM 1.21 34.178 0.176 6.85 892.3 13.65
1/10/2022 12:45:00 AM 1.22 34.196 0.176 6.86 889.7 13.64
1/10/2022 1:00:00 AM 1.22 34.196 0.177 6.86 885.3 13.64
1/10/2022 1:15:00 AM 1.23 34.214 0.177 6.86 874.9 13.62
1/10/2022 1:30:00 AM 1.24 34.232 0.177 6.86 871 13.6
1/10/2022 1:45:00 AM 1.23 34.214 0.178 6.85 868.9 13.63
1/10/2022 2:00:00 AM 1.23 34.214 0.178 6.86 862.6 13.62
1/10/2022 2:15:00 AM 1.24 34.232 0.178 6.86 861.2 13.62
1/10/2022 2:30:00 AM 1.23 34.214 0.179 6.86 851 13.62
1/10/2022 2:45:00 AM 1.22 34.196 0.179 6.86 843.5 13.62
1/10/2022 3:00:00 AM 1.21 34.178 0.18 6.86 832.8 13.61
1/10/2022 3:15:00 AM 1.19 34.142 0.18 6.86 820.1 13.63
1/10/2022 3:30:00 AM 1.19 34.142 0.18 6.86 814 13.63
1/10/2022 3:45:00 AM 1.19 34.142 0.181 6.86 804.8 13.63
1/10/2022 4:00:00 AM 1.17 34.106 0.181 6.86 780 13.6
1/10/2022 4:15:00 AM 1.16 34.088 0.182 6.86 786.6 13.62
1/10/2022 4:30:00 AM 1.16 34.088 0.182 6.86 777.3 13.64
1/10/2022 4:45:00 AM 1.16 34.088 0.183 6.86 763.6 13.63
1/10/2022 5:00:00 AM 1.17 34.106 0.184 6.86 756.5 13.62
1/10/2022 5:15:00 AM 1.16 34.088 0.184 6.86 745.2 13.64
1/10/2022 5:30:00 AM 1.16 34.088 0.185 6.86 743.2 13.64
1/10/2022 5:45:00 AM 1.15 34.07 0.186 6.86 739.9 13.64
1/10/2022 6:00:00 AM 1.14 34.052 0.186 6.86 738.7 13.64
1/10/2022 6:15:00 AM 1.12 34.016 0.187 6.86 732.5 13.64
1/10/2022 6:30:00 AM 1.1 33.98 0.187 6.86 733.4 13.65
1/10/2022 6:45:00 AM 1.07 33.926 0.188 6.87 723.7 13.66
1/10/2022 7:00:00 AM 1.03 33.854 0.188 6.86 723 13.67
1/10/2022 7:15:00 AM 1 33.8 0.188 6.86 718.9 13.67
1/10/2022 7:30:00 AM 0.96 33.728 0.187 6.86 709.6 13.7
1/10/2022 7:45:00 AM 0.93 33.674 0.187 6.86 699.7 13.72
1/10/2022 8:00:00 AM 0.91 33.638 0.187 6.86 692.7 13.71
1/10/2022 8:15:00 AM 0.89 33.602 0.187 6.85 680.7 13.75
1/10/2022 8:30:00 AM 0.86 33.548 0.187 6.86 675.5 13.78
1/10/2022 8:45:00 AM 0.84 33.512 0.186 6.86 671.7 13.79
1/10/2022 9:00:00 AM 0.82 33.476 0.186 6.86 671.5 13.84
1/10/2022 9:15:00 AM 0.79 33.422 0.186 6.86 669.4 13.87
1/10/2022 9:30:00 AM 0.77 33.386 0.186 6.86 666.8 13.89
1/10/2022 9:45:00 AM 0.74 33.332 0.186 6.86 663.5 13.93
1/10/2022 10:00:00 AM 0.75 33.35 0.186 6.86 660.8 13.97
1/10/2022 10:15:00 AM 0.75 33.35 0.186 6.87 660.9 14.01
1/10/2022 10:30:00 AM 0.78 33.404 0.186 6.87 658.2 14.02
1/10/2022 10:45:00 AM 0.81 33.458 0.187 6.87 656.4 14.06
1/10/2022 11:00:00 AM 0.91 33.638 0.187 6.87 655.8 14.06
1/10/2022 11:15:00 AM 1.02 33.836 0.187 6.88 652 14.08
1/10/2022 11:30:00 AM 1.09 33.962 0.187 6.89 649.1 14.11
1/10/2022 11:45:00 AM 1.2 34.16 0.187 6.89 647.4 14.08
1/10/2022 12:00:00 PM 1.39 34.502 0.187 6.9 644.6 14.06
1/10/2022 12:15:00 PM 1.49 34.682 0.187 6.9 641.4 14.05
1/10/2022 12:30:00 PM 1.56 34.808 0.187 6.91 636.7 14.04
1/10/2022 12:45:00 PM 1.66 34.988 0.187 6.92 634.1 14.03
1/10/2022 1:00:00 PM 1.79 35.222 0.187 6.92 630.9 13.99
1/10/2022 1:15:00 PM 1.89 35.402 0.186 6.93 629.9 13.97
1/10/2022 1:30:00 PM 1.97 35.546 0.187 6.93 632.4 13.96
1/10/2022 1:45:00 PM 1.99 35.582 0.187 6.94 628.2 13.96
1/10/2022 2:00:00 PM 2 35.6 0.187 6.94 630.7 13.93
1/10/2022 2:15:00 PM 2.02 35.636 0.187 6.94 630.5 13.92
1/10/2022 2:30:00 PM 1.99 35.582 0.187 6.94 627.4 13.89
1/10/2022 2:45:00 PM 2.02 35.636 0.187 6.94 626.5 13.86
1/10/2022 3:00:00 PM 2.01 35.618 0.187 6.94 623 13.83
1/10/2022 3:15:00 PM 1.98 35.564 0.187 6.94 618.4 13.81
1/10/2022 3:30:00 PM 1.93 35.474 0.188 6.95 616.4 13.83
1/10/2022 3:45:00 PM 1.86 35.348 0.188 6.95 612.5 13.79
1/10/2022 4:00:00 PM 1.81 35.258 0.188 6.94 605.9 13.82
1/10/2022 4:15:00 PM 1.76 35.168 0.189 6.94 596.7 13.78
1/10/2022 4:30:00 PM 1.67 35.006 0.189 6.94 581.2 13.8
1/10/2022 4:45:00 PM 1.6 34.88 0.189 6.94 559.4 13.81
1/10/2022 5:00:00 PM 1.53 34.754 0.19 6.94 538.8 13.78
1/10/2022 5:15:00 PM 1.45 34.61 0.19 6.93 512.3 13.75
1/10/2022 5:30:00 PM 1.36 34.448 0.191 6.93 481.7 13.78
1/10/2022 5:45:00 PM 1.28 34.304 0.192 6.93 440.8 13.77
1/10/2022 6:00:00 PM 1.2 34.16 0.192 6.92 411.2 13.79
1/10/2022 6:15:00 PM 1.13 34.034 0.193 6.92 384.3 13.8
1/10/2022 6:30:00 PM 1.06 33.908 0.193 6.91 359.4 13.8
1/10/2022 6:45:00 PM 1 33.8 0.194 6.9 335.4 13.81
1/10/2022 7:00:00 PM 0.94 33.692 0.195 6.9 320.7 13.82
1/10/2022 7:15:00 PM 0.87 33.566 0.196 6.9 309.3 13.84
1/10/2022 7:30:00 PM 0.82 33.476 0.197 6.89 298.4 13.87
1/10/2022 7:45:00 PM 0.76 33.368 0.198 6.89 283.7 13.87
1/10/2022 8:00:00 PM 0.71 33.278 0.199 6.89 270.6 13.89
1/10/2022 8:15:00 PM 0.66 33.188 0.2 6.89 257.3 13.92
1/10/2022 8:30:00 PM 0.6 33.08 0.201 6.88 244 13.9
1/10/2022 8:45:00 PM 0.57 33.026 0.202 6.88 237.1 13.93
1/10/2022 9:00:00 PM 0.53 32.954 0.204 6.88 234.3 13.95
1/10/2022 9:15:00 PM 0.5 32.9 0.205 6.87 233.3 13.96
1/10/2022 9:30:00 PM 0.46 32.828 0.206 6.87 233 13.99
1/10/2022 9:45:00 PM 0.4 32.72 0.207 6.87 234.2 13.98
1/10/2022 10:00:00 PM 0.37 32.666 0.208 6.87 235.3 14.02
1/10/2022 10:15:00 PM 0.32 32.576 0.209 6.86 236.1 14.01
1/10/2022 10:30:00 PM 0.27 32.486 0.21 6.86 236.3 14.04
1/10/2022 10:45:00 PM 0.24 32.432 0.211 6.86 237.2 14.03
1/10/2022 11:00:00 PM 0.21 32.378 0.211 6.86 237.7 14.07
1/10/2022 11:15:00 PM 0.17 32.306 0.212 6.86 238.8 14.08
1/10/2022 11:30:00 PM 0.12 32.216 0.212 6.86 239.7 14.11
1/10/2022 11:45:00 PM 0.06 32.108 0.213 6.86 240 14.12
1/11/2022 12:00:00 AM 0.03 32.054 0.213 6.85 240 14.15
1/11/2022 12:15:00 AM 0 32 0.213 6.85 240.4 14.16
1/11/2022 12:30:00 AM -0.03 31.946 0.213 6.85 240.9 14.2
1/11/2022 12:45:00 AM -0.06 31.892 0.213 6.84 241.3 14.22
1/11/2022 1:00:00 AM -0.08 31.856 0.213 6.85 241.8 14.23
1/11/2022 1:15:00 AM -0.09 31.838 0.213 6.84 242.6 14.22
1/11/2022 1:30:00 AM -0.08 31.856 0.213 6.84 243.3 14.25
1/11/2022 1:45:00 AM -0.07 31.874 0.213 6.84 245.2 14.26
1/11/2022 2:00:00 AM -0.07 31.874 0.213 6.83 247.3 14.29
1/11/2022 2:15:00 AM -0.06 31.892 0.213 6.84 249.7 14.3
1/11/2022 2:30:00 AM -0.06 31.892 0.213 6.84 251.7 14.32
1/11/2022 2:45:00 AM -0.05 31.91 0.212 6.84 254.3 14.32
1/11/2022 3:00:00 AM -0.04 31.928 0.212 6.84 256.9 14.33
1/11/2022 3:15:00 AM -0.04 31.928 0.212 6.83 260.2 14.37
1/11/2022 3:30:00 AM -0.04 31.928 0.212 6.83 263 14.37
1/11/2022 3:45:00 AM -0.04 31.928 0.211 6.83 265.8 14.36
1/11/2022 4:00:00 AM -0.04 31.928 0.211 6.83 268.7 14.36
1/11/2022 4:15:00 AM -0.04 31.928 0.211 6.83 271.1 14.4
1/11/2022 4:30:00 AM -0.04 31.928 0.211 6.84 272.3 14.4
1/11/2022 4:45:00 AM -0.03 31.946 0.211 6.83 273.9 14.41
1/11/2022 5:00:00 AM -0.03 31.946 0.21 6.82 275.3 14.44
1/11/2022 5:15:00 AM -0.03 31.946 0.21 6.83 276.8 14.46
1/11/2022 5:30:00 AM -0.03 31.946 0.21 6.82 278.5 14.47
1/11/2022 5:45:00 AM -0.02 31.964 0.21 6.82 280.9 14.5
1/11/2022 6:00:00 AM -0.02 31.964 0.209 6.82 282.1 14.49
1/11/2022 6:15:00 AM -0.02 31.964 0.209 6.82 284.5 14.49
1/11/2022 6:30:00 AM -0.02 31.964 0.209 6.82 287.4 14.5
1/11/2022 6:45:00 AM -0.02 31.964 0.209 6.82 291.6 14.52
1/11/2022 7:00:00 AM -0.02 31.964 0.209 6.82 293.6 14.51
1/11/2022 7:15:00 AM -0.01 31.982 0.208 6.82 297.2 14.52
1/11/2022 7:30:00 AM -0.01 31.982 0.208 6.82 298.9 14.53
1/11/2022 7:45:00 AM 0 32 0.208 6.82 300.2 14.56
1/11/2022 8:00:00 AM -0.01 31.982 0.208 6.82 300.3 14.53
1/11/2022 8:15:00 AM 0 32 0.207 6.82 301.6 14.54
1/11/2022 8:30:00 AM 0 32 0.207 6.82 302 14.56
1/11/2022 8:45:00 AM 0 32 0.207 6.82 302.8 14.59
1/11/2022 9:00:00 AM 0 32 0.207 6.82 303.7 14.64
1/11/2022 9:15:00 AM 0.01 32.018 0.207 6.83 304.3 14.67
1/11/2022 9:30:00 AM 0.01 32.018 0.207 6.82 305.2 14.71
1/11/2022 9:45:00 AM 0.01 32.018 0.206 6.83 305.6 14.73
1/11/2022 10:00:00 AM 0.01 32.018 0.206 6.83 306.8 14.73
1/11/2022 10:15:00 AM 0.02 32.036 0.206 6.83 307.5 14.76
1/11/2022 10:30:00 AM 0.02 32.036 0.205 6.84 308.2 14.77
1/11/2022 10:45:00 AM 0.03 32.054 0.205 6.83 309.6 14.79
1/11/2022 11:00:00 AM 0.06 32.108 0.204 6.84 310.8 14.81
1/11/2022 11:15:00 AM 0.09 32.162 0.204 6.84 310.9 14.83
1/11/2022 11:30:00 AM 0.11 32.198 0.204 6.85 311.4 14.83
1/11/2022 11:45:00 AM 0.11 32.198 0.203 6.85 312.1 14.83
1/11/2022 12:00:00 PM 0.14 32.252 0.202 6.86 312.3 14.86
1/11/2022 12:15:00 PM 0.12 32.216 0.202 6.86 313.2 14.85
1/11/2022 12:30:00 PM 0.13 32.234 0.201 6.86 313.6 14.82
1/11/2022 12:45:00 PM 0.18 32.324 0.199 6.86 314.1 14.8
1/11/2022 1:00:00 PM 0.2 32.36 0.198 6.86 314.5 14.72
1/11/2022 1:15:00 PM 0.23 32.414 0.197 6.87 315.3 14.75
1/11/2022 1:30:00 PM 0.25 32.45 0.196 6.87 315.8 14.73
1/11/2022 1:45:00 PM 0.24 32.432 0.195 6.87 315.5 14.71
1/11/2022 2:00:00 PM 0.22 32.396 0.194 6.87 316.6 14.72
1/11/2022 2:15:00 PM 0.18 32.324 0.194 6.87 317.7 14.72
1/11/2022 2:30:00 PM 0.11 32.198 0.193 6.87 318.3 14.74
1/11/2022 2:45:00 PM 0.07 32.126 0.192 6.87 319.3 14.71
1/11/2022 3:00:00 PM 0.03 32.054 0.192 6.87 320.4 14.72
1/11/2022 3:15:00 PM 0 32 0.191 6.86 321.9 14.71
1/11/2022 3:30:00 PM -0.01 31.982 0.191 6.86 324.3 14.72
1/11/2022 3:45:00 PM -0.01 31.982 0.191 6.85 326.7 14.72
1/11/2022 4:00:00 PM -0.02 31.964 0.191 6.86 331.2 14.73
1/11/2022 4:15:00 PM -0.02 31.964 0.191 6.86 334.5 14.73
1/11/2022 4:30:00 PM -0.03 31.946 0.191 6.86 337.6 14.73
1/11/2022 4:45:00 PM -0.03 31.946 0.192 6.86 340.1 14.72
1/11/2022 5:00:00 PM -0.03 31.946 0.192 6.86 341.7 14.72
1/11/2022 5:15:00 PM -0.02 31.964 0.193 6.86 343.7 14.7
1/11/2022 5:30:00 PM -0.03 31.946 0.194 6.86 345.2 14.7
1/11/2022 5:45:00 PM -0.03 31.946 0.194 6.86 347.2 14.69
1/11/2022 6:00:00 PM -0.03 31.946 0.195 6.86 350.7 14.69
1/11/2022 6:15:00 PM -0.03 31.946 0.196 6.85 356 14.63
1/11/2022 6:30:00 PM -0.03 31.946 0.196 6.86 361.7 14.65
1/11/2022 6:45:00 PM -0.03 31.946 0.196 6.86 369.2 14.65
1/11/2022 7:00:00 PM -0.03 31.946 0.197 6.85 377.1 14.65
1/11/2022 7:15:00 PM -0.03 31.946 0.197 6.85 384 14.64
1/11/2022 7:30:00 PM -0.03 31.946 0.198 6.85 389.5 14.65
1/11/2022 7:45:00 PM -0.02 31.964 0.198 6.85 397 14.64
1/11/2022 8:00:00 PM -0.03 31.946 0.198 6.85 410.2 14.63
1/11/2022 8:15:00 PM -0.02 31.964 0.198 6.85 427.8 14.61
1/11/2022 8:30:00 PM -0.03 31.946 0.198 6.85 452.2 14.63
1/11/2022 8:45:00 PM -0.02 31.964 0.198 6.85 472.3 14.64
1/11/2022 9:00:00 PM -0.03 31.946 0.198 6.85 487.9 14.64
1/11/2022 9:15:00 PM -0.03 31.946 0.197 6.84 505.7 14.64
1/11/2022 9:30:00 PM -0.02 31.964 0.197 6.84 523.6 14.63
1/11/2022 9:45:00 PM -0.02 31.964 0.197 6.84 547.5 14.63
1/11/2022 10:00:00 PM -0.02 31.964 0.197 6.84 562.8 14.62
1/11/2022 10:15:00 PM -0.03 31.946 0.197 6.84 573.2 14.61
1/11/2022 10:30:00 PM -0.02 31.964 0.196 6.84 579.4 14.63
1/11/2022 10:45:00 PM -0.02 31.964 0.196 6.83 584.3 14.62
1/11/2022 11:00:00 PM -0.02 31.964 0.196 6.83 589.3 14.62
1/11/2022 11:15:00 PM -0.02 31.964 0.196 6.83 595.3 14.59
1/11/2022 11:30:00 PM -0.02 31.964 0.196 6.83 599.9 14.59
1/11/2022 11:45:00 PM -0.02 31.964 0.196 6.83 605.9 14.58
1/12/2022 12:00:00 AM -0.02 31.964 0.196 6.83 611.8 14.57
1/12/2022 12:15:00 AM -0.01 31.982 0.196 6.83 618.8 14.56
1/12/2022 12:30:00 AM -0.02 31.964 0.196 6.83 626.8 14.58
1/12/2022 12:45:00 AM -0.02 31.964 0.196 6.83 636.7 14.57
1/12/2022 1:00:00 AM -0.01 31.982 0.196 6.83 644.5 14.58
1/12/2022 1:15:00 AM -0.01 31.982 0.196 6.83 652.5 14.56
1/12/2022 1:30:00 AM -0.01 31.982 0.196 6.83 661.4 14.57
1/12/2022 1:45:00 AM -0.01 31.982 0.197 6.83 667 14.56
1/12/2022 2:00:00 AM -0.01 31.982 0.197 6.83 671.3 14.55
1/12/2022 2:15:00 AM -0.01 31.982 0.197 6.83 679.1 14.56
1/12/2022 2:30:00 AM -0.01 31.982 0.197 6.83 684.8 14.57
1/12/2022 2:45:00 AM -0.01 31.982 0.197 6.84 690.1 14.6
1/12/2022 3:00:00 AM -0.01 31.982 0.197 6.83 695.2 14.56
1/12/2022 3:15:00 AM -0.01 31.982 0.197 6.83 698.8 14.56
1/12/2022 3:30:00 AM -0.01 31.982 0.197 6.83 701.9 14.58
1/12/2022 3:45:00 AM -0.01 31.982 0.197 6.83 707 14.53
1/12/2022 4:00:00 AM -0.01 31.982 0.198 6.83 711.1 14.57
1/12/2022 4:15:00 AM -0.01 31.982 0.198 6.83 718 14.55
1/12/2022 4:30:00 AM -0.01 31.982 0.198 6.83 725.8 14.56
1/12/2022 4:45:00 AM 0 32 0.198 6.83 736.8 14.57
1/12/2022 5:00:00 AM 0 32 0.198 6.83 751.8 14.53
1/12/2022 5:15:00 AM 0 32 0.198 6.83 771.9 14.56
1/12/2022 5:30:00 AM 0 32 0.198 6.83 799 14.52
1/12/2022 5:45:00 AM 0 32 0.198 6.83 828.3 14.53
1/12/2022 6:00:00 AM 0 32 0.198 6.83 864 14.54
1/12/2022 6:15:00 AM -0.01 31.982 0.198 6.83 900.8 14.51
1/12/2022 6:30:00 AM 0 32 0.198 6.82 931.1 14.5
1/12/2022 6:45:00 AM -0.01 31.982 0.198 6.82 951.4 14.5
1/12/2022 7:00:00 AM 0 32 0.198 6.82 965 14.49
1/12/2022 7:15:00 AM -0.01 31.982 0.198 6.82 978.1 14.48
1/12/2022 7:45:00 AM 0 32 0.198 6.8 1048 14.43
1/12/2022 8:00:00 AM 0 32 0.197 6.81 1057 14.44
1/12/2022 8:15:00 AM 0 32 0.197 6.81 1059 14.47
1/12/2022 8:30:00 AM 0.01 32.018 0.197 6.81 1064 14.46
1/12/2022 8:45:00 AM 0 32 0.197 6.82 1064 14.47
1/12/2022 9:00:00 AM 0 32 0.197 6.82 1067 14.51
1/12/2022 9:15:00 AM 0.01 32.018 0.196 6.82 1069 14.52
1/12/2022 9:30:00 AM 0.02 32.036 0.196 6.82 1073 14.53
1/12/2022 9:45:00 AM 0.02 32.036 0.196 6.82 1085 14.56
1/12/2022 10:00:00 AM 0.04 32.072 0.195 6.82 1092 14.58
1/12/2022 10:15:00 AM 0.05 32.09 0.195 6.82 1098 14.6
1/12/2022 10:30:00 AM 0.04 32.072 0.194 6.82 1106 14.61
1/12/2022 10:45:00 AM 0.03 32.054 0.194 6.82 1108 14.63
1/12/2022 11:00:00 AM 0.03 32.054 0.193 6.82 1115 14.63
1/12/2022 11:15:00 AM 0 32 0.194 6.83 1118 14.61
1/12/2022 11:30:00 AM 0 32 0.192 6.83 1122 14.6
1/12/2022 11:45:00 AM 0 32 0.192 6.83 1124 14.56
1/12/2022 12:00:00 PM 0 32 0.191 6.83 1129 14.56
1/12/2022 12:15:00 PM 0 32 0.191 6.83 1129 14.55
1/12/2022 12:30:00 PM -0.01 31.982 0.19 6.83 1131 14.53
1/12/2022 12:45:00 PM -0.01 31.982 0.189 6.83 1132 14.52
1/12/2022 1:00:00 PM -0.01 31.982 0.189 6.83 1133 14.51
1/12/2022 1:15:00 PM -0.02 31.964 0.188 6.83 1135 14.47
1/12/2022 1:30:00 PM -0.03 31.946 0.188 6.84 1137 14.46
1/12/2022 1:45:00 PM -0.02 31.964 0.187 6.83 1138 14.43
1/12/2022 2:00:00 PM -0.02 31.964 0.187 6.83 1141 14.46
1/12/2022 2:15:00 PM -0.02 31.964 0.187 6.84 1142 14.46
1/12/2022 2:30:00 PM -0.02 31.964 0.187 6.83 1143 14.44
1/12/2022 2:45:00 PM -0.03 31.946 0.187 6.84 1145 14.43
1/12/2022 3:00:00 PM -0.03 31.946 0.187 6.84 1145 14.47
1/12/2022 3:15:00 PM -0.03 31.946 0.187 6.84 1149 14.45
1/12/2022 3:30:00 PM -0.03 31.946 0.187 6.84 1150 14.46
1/12/2022 3:45:00 PM -0.03 31.946 0.188 6.84 1148 14.44
1/12/2022 4:00:00 PM -0.03 31.946 0.188 6.84 1151 14.44
1/12/2022 4:15:00 PM -0.03 31.946 0.188 6.84 1154 14.44
1/12/2022 4:30:00 PM -0.03 31.946 0.189 6.84 1156 14.44
1/12/2022 4:45:00 PM -0.04 31.928 0.189 6.84 1157 14.43
1/12/2022 5:00:00 PM -0.04 31.928 0.189 6.84 1159 14.4
1/12/2022 5:15:00 PM -0.04 31.928 0.189 6.84 1162 14.4
1/12/2022 5:30:00 PM -0.04 31.928 0.189 6.84 1164 14.37
1/12/2022 5:45:00 PM -0.04 31.928 0.189 6.84 1170 14.36
1/12/2022 6:00:00 PM -0.04 31.928 0.189 6.83 1180 14.34
1/12/2022 6:15:00 PM -0.04 31.928 0.189 6.83 1202 14.34
1/12/2022 6:30:00 PM -0.04 31.928 0.189 6.83 1221 14.33
1/12/2022 6:45:00 PM -0.04 31.928 0.189 6.83 1233 14.32
1/12/2022 7:00:00 PM -0.04 31.928 0.188 6.83 1246 14.31
1/12/2022 7:15:00 PM -0.04 31.928 0.188 6.83 1255 14.3
1/12/2022 7:30:00 PM -0.04 31.928 0.187 6.82 1261 14.3
1/12/2022 7:45:00 PM -0.04 31.928 0.187 6.82 1275 14.31
1/12/2022 8:00:00 PM -0.04 31.928 0.186 6.82 1283 14.3
1/12/2022 8:15:00 PM -0.04 31.928 0.186 6.82 1292 14.28
1/12/2022 8:30:00 PM -0.04 31.928 0.185 6.82 1296 14.27
1/12/2022 8:45:00 PM -0.04 31.928 0.185 6.81 1300 14.29
1/12/2022 9:00:00 PM -0.04 31.928 0.184 6.81 1305 14.28
1/12/2022 9:15:00 PM -0.04 31.928 0.184 6.81 1306 14.26
1/12/2022 9:30:00 PM -0.04 31.928 0.184 6.81 1312 14.25
1/12/2022 9:45:00 PM -0.04 31.928 0.184 6.8 1319 14.28
1/12/2022 10:00:00 PM -0.04 31.928 0.183 6.8 1323 14.28
1/12/2022 10:15:00 PM -0.04 31.928 0.183 6.8 1331 14.26
1/12/2022 10:30:00 PM -0.04 31.928 0.183 6.8 1343 14.28
1/12/2022 10:45:00 PM -0.04 31.928 0.183 6.8 1354 14.26
1/12/2022 11:00:00 PM -0.04 31.928 0.183 6.8 1369 14.25
1/12/2022 11:15:00 PM -0.04 31.928 0.183 6.8 1381 14.24
1/12/2022 11:30:00 PM -0.04 31.928 0.183 6.8 1394 14.26
1/12/2022 11:45:00 PM -0.04 31.928 0.183 6.8 1405 14.25
1/13/2022 12:00:00 AM -0.04 31.928 0.183 6.79 1413 14.23
1/13/2022 12:15:00 AM -0.04 31.928 0.183 6.79 1424 14.23
1/13/2022 12:30:00 AM -0.04 31.928 0.183 6.79 1426 14.26
1/13/2022 12:45:00 AM -0.04 31.928 0.183 6.79 1441 14.25
1/13/2022 1:00:00 AM -0.04 31.928 0.183 6.79 1447 14.23
1/13/2022 1:15:00 AM -0.04 31.928 0.183 6.79 1454 14.26
1/13/2022 1:30:00 AM -0.04 31.928 0.183 6.79 1463 14.23
1/13/2022 1:45:00 AM -0.04 31.928 0.183 6.79 1471 14.23
1/13/2022 2:00:00 AM -0.04 31.928 0.183 6.79 1480 14.24
1/13/2022 2:15:00 AM -0.04 31.928 0.183 6.79 1487 14.24
1/13/2022 2:30:00 AM -0.04 31.928 0.183 6.79 1494 14.24
1/13/2022 2:45:00 AM -0.04 31.928 0.182 6.79 1501 14.23
1/13/2022 3:00:00 AM -0.04 31.928 0.182 6.79 1509 14.23
1/13/2022 3:15:00 AM -0.04 31.928 0.182 6.79 1515 14.24
1/13/2022 3:30:00 AM -0.04 31.928 0.182 6.79 1519 14.25
1/13/2022 3:45:00 AM -0.04 31.928 0.182 6.79 1524 14.23
1/13/2022 4:00:00 AM -0.04 31.928 0.181 6.79 1526 14.23
1/13/2022 4:15:00 AM -0.04 31.928 0.181 6.79 1530 14.22
1/13/2022 4:30:00 AM -0.04 31.928 0.181 6.78 1530 14.21
1/13/2022 4:45:00 AM -0.04 31.928 0.181 6.79 1536 14.22
1/13/2022 5:00:00 AM -0.04 31.928 0.18 6.79 1537 14.24
1/13/2022 5:15:00 AM -0.04 31.928 0.18 6.79 1544 14.23
1/13/2022 5:30:00 AM -0.05 31.91 0.18 6.79 1545 14.22
1/13/2022 5:45:00 AM -0.05 31.91 0.18 6.78 1551 14.23
1/13/2022 6:00:00 AM -0.05 31.91 0.18 6.79 1558 14.21
1/13/2022 6:15:00 AM -0.05 31.91 0.18 6.79 1567 14.24
1/13/2022 6:30:00 AM -0.05 31.91 0.18 6.79 1567 14.25
1/13/2022 6:45:00 AM -0.05 31.91 0.179 6.78 1566 14.24
1/13/2022 7:00:00 AM -0.05 31.91 0.179 6.79 1566 14.24
1/13/2022 7:15:00 AM -0.05 31.91 0.179 6.78 1566 14.24
1/13/2022 7:30:00 AM -0.05 31.91 0.179 6.78 1566 14.26
1/13/2022 7:45:00 AM -0.04 31.928 0.179 6.78 1566 14.24
1/13/2022 8:00:00 AM -0.04 31.928 0.179 6.78 1566 14.27
1/13/2022 8:15:00 AM -0.04 31.928 0.179 6.78 1566 14.28
1/13/2022 8:30:00 AM -0.04 31.928 0.179 6.78 1567 14.3
1/13/2022 8:45:00 AM -0.04 31.928 0.179 6.79 1566 14.31
1/13/2022 9:00:00 AM -0.03 31.946 0.179 6.79 1566 14.34
1/13/2022 9:15:00 AM -0.03 31.946 0.179 6.79 1566 14.35
1/13/2022 9:30:00 AM -0.03 31.946 0.179 6.79 1566 14.36
1/13/2022 9:45:00 AM -0.03 31.946 0.179 6.78 1566 14.39
1/13/2022 10:00:00 AM -0.02 31.964 0.179 6.79 1566 14.39
1/13/2022 10:15:00 AM -0.02 31.964 0.179 6.79 1566 14.4
1/13/2022 10:30:00 AM 0 32 0.179 6.79 1566 14.41
1/13/2022 10:45:00 AM 0 32 0.178 6.8 1566 14.41
1/13/2022 11:00:00 AM 0.02 32.036 0.178 6.8 1566 14.41
1/13/2022 11:15:00 AM 0.05 32.09 0.177 6.81 1566 14.39
1/13/2022 11:30:00 AM 0.07 32.126 0.177 6.81 1566 14.37
1/13/2022 11:45:00 AM 0.09 32.162 0.177 6.81 1566 14.37
1/13/2022 12:00:00 PM 0.11 32.198 0.176 6.82 1566 14.34
1/13/2022 12:15:00 PM 0.12 32.216 0.176 6.82 1566 14.32
1/13/2022 12:30:00 PM 0.14 32.252 0.176 6.82 1566 14.3
1/13/2022 12:45:00 PM 0.17 32.306 0.175 6.83 1566 14.28
1/13/2022 1:00:00 PM 0.21 32.378 0.175 6.83 1566 14.24
1/13/2022 1:15:00 PM 0.25 32.45 0.175 6.83 1566 14.23
1/13/2022 1:30:00 PM 0.29 32.522 0.175 6.84 1566 14.2
1/13/2022 1:45:00 PM 0.33 32.594 0.174 6.84 1566 14.19
1/13/2022 2:00:00 PM 0.38 32.684 0.174 6.85 1566 14.17
1/13/2022 2:15:00 PM 0.42 32.756 0.174 6.85 1566 14.12
1/13/2022 2:30:00 PM 0.46 32.828 0.174 6.85 1566 14.12
1/13/2022 2:45:00 PM 0.49 32.882 0.174 6.86 1566 14.1
1/13/2022 3:00:00 PM 0.53 32.954 0.174 6.86 1566 14.06
1/13/2022 3:15:00 PM 0.57 33.026 0.174 6.86 1566 14.04
1/13/2022 3:30:00 PM 0.59 33.062 0.174 6.86 1566 14.01
1/13/2022 3:45:00 PM 0.62 33.116 0.174 6.87 1566 13.95
1/13/2022 4:00:00 PM 0.65 33.17 0.174 6.87 1566 13.94
1/13/2022 4:15:00 PM 0.67 33.206 0.174 6.87 1566 13.92
1/13/2022 4:30:00 PM 0.68 33.224 0.174 6.87 1566 13.89
1/13/2022 4:45:00 PM 0.7 33.26 0.175 6.88 1566 13.85
1/13/2022 5:00:00 PM 0.72 33.296 0.175 6.88 1566 13.82
1/13/2022 5:15:00 PM 0.74 33.332 0.175 6.88 1566 13.78
1/13/2022 5:30:00 PM 0.76 33.368 0.175 6.88 1566 13.75
1/13/2022 5:45:00 PM 0.77 33.386 0.174 6.88 1566 13.74
1/13/2022 6:00:00 PM 0.78 33.404 0.174 6.88 1566 13.7
1/13/2022 6:15:00 PM 0.79 33.422 0.174 6.87 1566 13.68
1/13/2022 6:30:00 PM 0.8 33.44 0.174 6.87 1566 13.67
1/13/2022 6:45:00 PM 0.81 33.458 0.174 6.87 1566 13.67
1/13/2022 7:00:00 PM 0.81 33.458 0.174 6.87 1566 13.67
1/13/2022 7:15:00 PM 0.82 33.476 0.174 6.87 1566 13.66
1/13/2022 7:30:00 PM 0.82 33.476 0.174 6.87 1566 13.66
1/13/2022 7:45:00 PM 0.83 33.494 0.174 6.87 1566 13.67
1/13/2022 8:00:00 PM 0.84 33.512 0.174 6.86 1566 13.65
1/13/2022 8:15:00 PM 0.83 33.494 0.174 6.86 1566 13.63
1/13/2022 8:30:00 PM 0.84 33.512 0.174 6.86 1566 13.64
1/13/2022 8:45:00 PM 0.86 33.548 0.174 6.86 1566 13.63
1/13/2022 9:00:00 PM 0.86 33.548 0.174 6.86 1566 13.6
1/13/2022 9:15:00 PM 0.87 33.566 0.174 6.85 1566 13.62
1/13/2022 9:30:00 PM 0.9 33.62 0.174 6.85 1566 13.64
1/13/2022 9:45:00 PM 0.91 33.638 0.174 6.85 1566 13.64
1/13/2022 10:00:00 PM 0.92 33.656 0.174 6.85 1566 13.62
1/13/2022 10:15:00 PM 0.93 33.674 0.174 6.85 1566 13.63
1/13/2022 10:30:00 PM 0.94 33.692 0.174 6.85 1566 13.6
1/13/2022 10:45:00 PM 0.95 33.71 0.174 6.85 1566 13.62
1/13/2022 11:00:00 PM 0.97 33.746 0.174 6.85 1566 13.62
1/13/2022 11:15:00 PM 0.98 33.764 0.174 6.84 1566 13.63
1/13/2022 11:30:00 PM 1 33.8 0.174 6.84 1566 13.61
1/13/2022 11:45:00 PM 1.02 33.836 0.174 6.84 1566 13.59
1/14/2022 12:00:00 AM 1.03 33.854 0.174 6.84 1566 13.6
1/14/2022 12:15:00 AM 1.05 33.89 0.174 6.84 1566 13.5
1/14/2022 12:30:00 AM 1.06 33.908 0.174 6.84 1566 13.45
1/14/2022 12:45:00 AM 1.06 33.908 0.175 6.84 1566 13.47
1/14/2022 1:00:00 AM 1.04 33.872 0.175 6.84 1566 13.43
1/14/2022 1:15:00 AM 1.04 33.872 0.175 6.84 1566 13.44
1/14/2022 1:30:00 AM 1.04 33.872 0.175 6.83 1566 13.43
1/14/2022 1:45:00 AM 1.04 33.872 0.175 6.83 1566 13.48
1/14/2022 2:00:00 AM 1.03 33.854 0.175 6.83 1566 13.43
1/14/2022 2:15:00 AM 1.04 33.872 0.175 6.83 1566 13.45
1/14/2022 2:30:00 AM 1.05 33.89 0.175 6.82 1566 13.46
1/14/2022 2:45:00 AM 1.07 33.926 0.175 6.83 1566 13.49
1/14/2022 3:00:00 AM 1.1 33.98 0.175 6.83 1566 13.49
1/14/2022 3:15:00 AM 1.12 34.016 0.175 6.83 1566 13.5
1/14/2022 3:30:00 AM 1.14 34.052 0.175 6.83 1566 13.46
1/14/2022 3:45:00 AM 1.16 34.088 0.176 6.83 1566 13.46
1/14/2022 4:00:00 AM 1.19 34.142 0.176 6.83 1566 13.41
1/14/2022 4:15:00 AM 1.21 34.178 0.176 6.83 1566 13.44
1/14/2022 4:30:00 AM 1.24 34.232 0.176 6.83 1566 13.42
1/14/2022 4:45:00 AM 1.26 34.268 0.176 6.83 1567 13.42
1/14/2022 5:00:00 AM 1.28 34.304 0.176 6.83 1566 13.4
1/14/2022 5:15:00 AM 1.3 34.34 0.176 6.83 1566 13.38
1/14/2022 5:30:00 AM 1.32 34.376 0.176 6.83 1566 13.37
1/14/2022 5:45:00 AM 1.34 34.412 0.176 6.83 1566 13.39
1/14/2022 6:00:00 AM 1.36 34.448 0.176 6.83 1566 13.38
1/14/2022 6:15:00 AM 1.38 34.484 0.176 6.83 1566 13.36
1/14/2022 6:30:00 AM 1.4 34.52 0.176 6.83 1566 13.35
1/14/2022 6:45:00 AM 1.42 34.556 0.176 6.84 1566 13.33
1/14/2022 7:00:00 AM 1.42 34.556 0.176 6.83 1566 13.33
1/14/2022 7:15:00 AM 1.43 34.574 0.176 6.83 1566 13.33
1/14/2022 7:30:00 AM 1.43 34.574 0.176 6.83 1566 13.32
1/14/2022 7:45:00 AM 1.42 34.556 0.176 6.83 1566 13.34
1/14/2022 8:00:00 AM 1.44 34.592 0.176 6.83 1566 13.31
1/14/2022 8:15:00 AM 1.47 34.646 0.176 6.83 1566 13.35
1/14/2022 8:30:00 AM 1.51 34.718 0.176 6.83 1566 13.35
1/14/2022 8:45:00 AM 1.55 34.79 0.176 6.84 1566 13.38
1/14/2022 9:00:00 AM 1.59 34.862 0.176 6.84 1566 13.38
1/14/2022 9:15:00 AM 1.65 34.97 0.176 6.84 1566 13.39
1/14/2022 9:30:00 AM 1.71 35.078 0.176 6.84 1566 13.42
1/14/2022 9:45:00 AM 1.79 35.222 0.176 6.85 1566 13.44
1/14/2022 10:00:00 AM 1.87 35.366 0.176 6.85 1566 13.47
1/14/2022 10:15:00 AM 1.93 35.474 0.176 6.86 1567 13.47
1/14/2022 10:30:00 AM 2.02 35.636 0.176 6.86 1566 13.45
1/14/2022 10:45:00 AM 2.14 35.852 0.176 6.87 1567 13.44
1/14/2022 11:00:00 AM 2.26 36.068 0.176 6.87 1567 13.44
1/14/2022 11:15:00 AM 2.35 36.23 0.176 6.88 1567 13.45
1/14/2022 11:30:00 AM 2.42 36.356 0.176 6.89 1566 13.39
1/14/2022 11:45:00 AM 2.49 36.482 0.176 6.9 1567 13.35
1/14/2022 12:00:00 PM 2.54 36.572 0.176 6.9 1567 13.35
1/14/2022 12:15:00 PM 2.64 36.752 0.176 6.9 1567 13.33
1/14/2022 12:30:00 PM 2.78 37.004 0.176 6.91 1567 13.34
1/14/2022 12:45:00 PM 2.92 37.256 0.176 6.92 1567 13.28
1/14/2022 1:00:00 PM 3.1 37.58 0.176 6.92 1567 13.31
1/14/2022 1:15:00 PM 3.31 37.958 0.175 6.93 1567 13.25
1/14/2022 1:30:00 PM 3.4 38.12 0.175 6.93 1567 13.25
1/14/2022 1:45:00 PM 3.49 38.282 0.175 6.94 1567 13.21
1/14/2022 2:00:00 PM 3.45 38.21 0.175 6.94 1567 13.19
1/14/2022 2:15:00 PM 3.43 38.174 0.175 6.95 1566 13.18
1/14/2022 2:30:00 PM 3.46 38.228 0.175 6.95 1566 13.09
1/14/2022 2:45:00 PM 3.51 38.318 0.175 6.95 1567 13.1
1/14/2022 3:00:00 PM 3.56 38.408 0.175 6.95 1567 13.05
1/14/2022 3:15:00 PM 3.59 38.462 0.175 6.95 1567 13.01
1/14/2022 3:30:00 PM 3.58 38.444 0.175 6.96 1567 12.98
1/14/2022 3:45:00 PM 3.58 38.444 0.175 6.96 1566 12.94
1/14/2022 4:00:00 PM 3.55 38.39 0.175 6.96 1567 12.94
1/14/2022 4:15:00 PM 3.5 38.3 0.175 6.96 1566 12.92
1/14/2022 4:30:00 PM 3.45 38.21 0.175 6.96 1566 12.9
1/14/2022 4:45:00 PM 3.35 38.03 0.175 6.96 1567 12.92
1/14/2022 5:00:00 PM 3.27 37.886 0.175 6.96 1566 12.92
1/14/2022 5:15:00 PM 3.18 37.724 0.175 6.95 1567 12.87
1/14/2022 5:30:00 PM 3.08 37.544 0.175 6.94 1567 12.88
1/14/2022 5:45:00 PM 2.99 37.382 0.175 6.94 1566 12.87
1/14/2022 6:00:00 PM 2.93 37.274 0.175 6.93 1567 12.89
1/14/2022 6:15:00 PM 2.86 37.148 0.175 6.93 1567 12.89
1/14/2022 6:30:00 PM 2.79 37.022 0.175 6.92 1566 12.89
1/14/2022 6:45:00 PM 2.75 36.95 0.175 6.92 1566 12.9
1/14/2022 7:00:00 PM 2.67 36.806 0.175 6.91 1566 12.92
1/14/2022 7:15:00 PM 2.61 36.698 0.175 6.91 1566 12.93
1/14/2022 7:30:00 PM 2.53 36.554 0.176 6.91 1566 12.93
1/14/2022 7:45:00 PM 2.46 36.428 0.176 6.9 1566 12.96
1/14/2022 8:00:00 PM 2.37 36.266 0.176 6.9 1567 12.98
1/14/2022 8:15:00 PM 2.29 36.122 0.176 6.9 1567 13.03
1/14/2022 8:30:00 PM 2.22 35.996 0.176 6.9 1566 13.05
1/14/2022 8:45:00 PM 2.15 35.87 0.176 6.89 1566 13.06
1/14/2022 9:00:00 PM 2.07 35.726 0.176 6.89 1566 13.06
1/14/2022 9:15:00 PM 1.99 35.582 0.176 6.89 1566 13.11
1/14/2022 9:30:00 PM 1.93 35.474 0.176 6.88 1567 13.14
1/14/2022 9:45:00 PM 1.88 35.384 0.176 6.87 1566 13.15
1/14/2022 10:00:00 PM 1.82 35.276 0.176 6.87 1566 13.17
1/14/2022 10:15:00 PM 1.77 35.186 0.176 6.86 1566 13.18
1/14/2022 10:30:00 PM 1.69 35.042 0.176 6.86 1566 13.22
1/14/2022 10:45:00 PM 1.6 34.88 0.176 6.86 1566 13.26
1/14/2022 11:00:00 PM 1.56 34.808 0.176 6.86 1566 13.28
1/14/2022 11:15:00 PM 1.49 34.682 0.176 6.85 1566 13.3
1/14/2022 11:30:00 PM 1.44 34.592 0.176 6.85 1566 13.33
1/14/2022 11:45:00 PM 1.38 34.484 0.176 6.85 1566 13.36
1/15/2022 12:00:00 AM 1.31 34.358 0.176 6.84 1566 13.38
1/15/2022 12:15:00 AM 1.24 34.232 0.177 6.84 1566 13.41
1/15/2022 12:30:00 AM 1.21 34.178 0.176 6.84 1566 13.44
1/15/2022 12:45:00 AM 1.13 34.034 0.177 6.83 1567 13.46
1/15/2022 1:00:00 AM 1.06 33.908 0.177 6.84 1566 13.49
1/15/2022 1:15:00 AM 0.97 33.746 0.177 6.83 1566 13.53
1/15/2022 1:30:00 AM 0.89 33.602 0.177 6.83 1567 13.55
1/15/2022 1:45:00 AM 0.85 33.53 0.177 6.83 1566 13.57
1/15/2022 2:00:00 AM 0.8 33.44 0.177 6.82 1567 13.59
1/15/2022 2:15:00 AM 0.69 33.242 0.177 6.82 1566 13.64
1/15/2022 2:30:00 AM 0.64 33.152 0.177 6.82 1566 13.68
1/15/2022 2:45:00 AM 0.59 33.062 0.177 6.82 1566 13.71
1/15/2022 3:00:00 AM 0.51 32.918 0.177 6.81 1566 13.72
1/15/2022 3:15:00 AM 0.45 32.81 0.177 6.81 1566 13.77
1/15/2022 3:30:00 AM 0.39 32.702 0.178 6.81 1566 13.83
1/15/2022 3:45:00 AM 0.33 32.594 0.178 6.81 1566 13.83
1/15/2022 4:00:00 AM 0.28 32.504 0.178 6.81 1566 13.84
1/15/2022 4:15:00 AM 0.21 32.378 0.178 6.8 1566 13.89
1/15/2022 4:30:00 AM 0.16 32.288 0.178 6.81 1566 13.88
1/15/2022 4:45:00 AM 0.11 32.198 0.178 6.8 1566 13.95
1/15/2022 5:00:00 AM 0.07 32.126 0.178 6.8 1566 13.97
1/15/2022 5:15:00 AM 0.02 32.036 0.178 6.79 1566 13.96
1/15/2022 5:30:00 AM -0.01 31.982 0.178 6.8 1566 14.01
1/15/2022 5:45:00 AM -0.04 31.928 0.178 6.8 1566 14.07
1/15/2022 6:00:00 AM -0.08 31.856 0.179 6.79 1566 14.1
1/15/2022 6:15:00 AM -0.06 31.892 0.179 6.79 1566 14.15
1/15/2022 6:30:00 AM -0.04 31.928 0.179 6.79 1567 14.17
1/15/2022 6:45:00 AM -0.04 31.928 0.179 6.78 1566 14.17
1/15/2022 7:00:00 AM -0.02 31.964 0.179 6.77 1566 14.21
1/15/2022 7:15:00 AM -0.03 31.946 0.179 6.78 1566 14.24
1/15/2022 7:30:00 AM -0.03 31.946 0.18 6.78 1567 14.27
1/15/2022 7:45:00 AM -0.03 31.946 0.18 6.77 1566 14.32
1/15/2022 8:00:00 AM -0.02 31.964 0.18 6.77 1566 14.35
1/15/2022 8:15:00 AM -0.01 31.982 0.18 6.78 1566 14.39
1/15/2022 8:30:00 AM 0 32 0.18 6.78 1566 14.41
1/15/2022 8:45:00 AM 0 32 0.18 6.78 1566 14.43
1/15/2022 9:00:00 AM 0 32 0.18 6.79 1566 14.47
1/15/2022 9:15:00 AM 0.01 32.018 0.181 6.79 1566 14.49
1/15/2022 9:30:00 AM 0.02 32.036 0.181 6.79 1566 14.51
1/15/2022 9:45:00 AM 0.02 32.036 0.181 6.79 1566 14.56
1/15/2022 10:00:00 AM 0.03 32.054 0.181 6.79 1566 14.57
1/15/2022 10:15:00 AM 0.03 32.054 0.181 6.8 1566 14.62
1/15/2022 10:30:00 AM 0.05 32.09 0.181 6.8 1566 14.64
1/15/2022 10:45:00 AM 0.06 32.108 0.181 6.8 1567 14.66
1/15/2022 11:00:00 AM 0.07 32.126 0.181 6.81 1566 14.71
1/15/2022 11:15:00 AM 0.07 32.126 0.181 6.8 1566 14.74
1/15/2022 11:30:00 AM 0.07 32.126 0.181 6.81 1566 14.73
1/15/2022 11:45:00 AM 0.08 32.144 0.181 6.82 1567 14.75
1/15/2022 12:00:00 PM 0.11 32.198 0.181 6.82 1566 14.74
1/15/2022 12:15:00 PM 0.12 32.216 0.18 6.81 1566 14.71
1/15/2022 12:30:00 PM 0.11 32.198 0.18 6.82 1566 14.75
1/15/2022 12:45:00 PM 0.11 32.198 0.18 6.82 1566 14.74
1/15/2022 1:00:00 PM 0.11 32.198 0.179 6.81 1566 14.71
1/15/2022 1:15:00 PM 0.14 32.252 0.179 6.81 1566 14.71
1/15/2022 1:30:00 PM 0.15 32.27 0.179 6.82 1567 14.72
1/15/2022 1:45:00 PM 0.21 32.378 0.178 6.82 1567 14.69
1/15/2022 2:00:00 PM 0.19 32.342 0.178 6.82 1566 14.69
1/15/2022 2:15:00 PM 0.17 32.306 0.178 6.83 1566 14.72
1/15/2022 2:30:00 PM 0.13 32.234 0.178 6.83 1566 14.7
1/15/2022 2:45:00 PM 0.11 32.198 0.177 6.83 1567 14.69
1/15/2022 3:00:00 PM 0.1 32.18 0.177 6.83 1566 14.69
1/15/2022 3:15:00 PM 0.07 32.126 0.177 6.83 1566 14.68
1/15/2022 3:30:00 PM 0.07 32.126 0.176 6.83 1566 14.63
1/15/2022 3:45:00 PM 0.04 32.072 0.176 6.83 1566 14.66
1/15/2022 4:00:00 PM 0.03 32.054 0.176 6.83 1566 14.65
1/15/2022 4:15:00 PM 0.01 32.018 0.176 6.82 1566 14.62
1/15/2022 4:30:00 PM 0 32 0.176 6.83 1566 14.64
1/15/2022 4:45:00 PM -0.01 31.982 0.176 6.82 1566 14.63
1/15/2022 5:00:00 PM -0.02 31.964 0.176 6.82 1566 14.62
1/15/2022 5:15:00 PM -0.03 31.946 0.177 6.82 1566 14.59
1/15/2022 5:30:00 PM -0.03 31.946 0.177 6.81 1566 14.6
1/15/2022 5:45:00 PM -0.03 31.946 0.178 6.82 1566 14.6
1/15/2022 6:00:00 PM -0.03 31.946 0.178 6.81 1566 14.57
1/15/2022 6:15:00 PM -0.03 31.946 0.179 6.82 1567 14.57
1/15/2022 6:30:00 PM -0.02 31.964 0.179 6.81 1566 14.57
1/15/2022 6:45:00 PM -0.03 31.946 0.18 6.81 1566 14.57
1/15/2022 7:00:00 PM -0.03 31.946 0.18 6.81 1566 14.57
1/15/2022 7:15:00 PM -0.03 31.946 0.181 6.81 1566 14.57
1/15/2022 7:30:00 PM -0.02 31.964 0.181 6.81 1567 14.53
1/15/2022 7:45:00 PM -0.02 31.964 0.182 6.81 1566 14.55
1/15/2022 8:00:00 PM -0.02 31.964 0.182 6.81 1566 14.57
1/15/2022 8:15:00 PM -0.02 31.964 0.183 6.81 1566 14.54
1/15/2022 8:30:00 PM -0.01 31.982 0.183 6.81 1566 14.55
1/15/2022 8:45:00 PM -0.02 31.964 0.183 6.81 1566 14.56
1/15/2022 9:00:00 PM -0.02 31.964 0.183 6.81 1566 14.51
1/15/2022 9:15:00 PM -0.01 31.982 0.184 6.81 1566 14.56
1/15/2022 9:30:00 PM -0.02 31.964 0.184 6.82 1567 14.57
1/15/2022 9:45:00 PM -0.01 31.982 0.184 6.81 1567 14.57
1/15/2022 10:00:00 PM -0.01 31.982 0.184 6.81 1566 14.55
1/15/2022 10:15:00 PM -0.01 31.982 0.184 6.82 1566 14.58
1/15/2022 10:30:00 PM -0.01 31.982 0.184 6.82 1566 14.57
1/15/2022 10:45:00 PM -0.01 31.982 0.184 6.82 1566 14.57
1/15/2022 11:00:00 PM -0.01 31.982 0.184 6.81 1567 14.53
1/15/2022 11:15:00 PM -0.01 31.982 0.184 6.81 1566 14.56
1/15/2022 11:30:00 PM -0.01 31.982 0.184 6.81 1566 14.59
1/15/2022 11:45:00 PM -0.01 31.982 0.184 6.81 1566 14.58
1/16/2022 12:00:00 AM -0.01 31.982 0.184 6.81 1566 14.56
1/16/2022 12:15:00 AM -0.01 31.982 0.184 6.81 1567 14.58
1/16/2022 12:30:00 AM -0.01 31.982 0.184 6.81 1566 14.54
1/16/2022 12:45:00 AM -0.01 31.982 0.184 6.81 1566 14.58
1/16/2022 1:00:00 AM 0 32 0.184 6.81 1566 14.54
1/16/2022 1:15:00 AM -0.01 31.982 0.185 6.81 1566 14.59
1/16/2022 1:30:00 AM -0.01 31.982 0.185 6.81 1566 14.59
1/16/2022 1:45:00 AM -0.01 31.982 0.185 6.81 1567 14.59
1/16/2022 2:00:00 AM -0.01 31.982 0.185 6.82 1566 14.59
1/16/2022 2:15:00 AM 0 32 0.185 6.82 1566 14.59
1/16/2022 2:30:00 AM -0.01 31.982 0.185 6.82 1566 14.58
1/16/2022 2:45:00 AM 0 32 0.186 6.83 1566 14.58
1/16/2022 3:00:00 AM 0 32 0.186 6.84 1566 14.61
1/16/2022 3:15:00 AM 0 32 0.186 6.84 1566 14.59
1/16/2022 3:30:00 AM 0 32 0.186 6.85 1567 14.49
1/16/2022 3:45:00 AM 0 32 0.186 6.85 1566 14.59
1/16/2022 4:00:00 AM 0 32 0.186 6.86 1566 14.54
1/16/2022 4:15:00 AM 0 32 0.187 6.86 1566 14.57
1/16/2022 4:30:00 AM 0 32 0.187 6.87 1566 14.58
1/16/2022 4:45:00 AM 0 32 0.187 6.88 1566 14.58
1/16/2022 5:00:00 AM 0 32 0.187 6.89 1567 14.59
1/16/2022 5:15:00 AM 0 32 0.187 6.9 1566 14.58
1/16/2022 5:30:00 AM 0 32 0.187 6.91 1566 14.57
1/16/2022 5:45:00 AM 0 32 0.188 6.93 1566 14.51
1/16/2022 6:00:00 AM 0 32 0.188 6.94 1566 14.57
1/16/2022 6:15:00 AM 0 32 0.188 6.96 1566 14.57
1/16/2022 6:30:00 AM 0 32 0.188 6.97 1566 14.56
1/16/2022 6:45:00 AM 0 32 0.188 6.98 1566 14.58
1/16/2022 7:00:00 AM 0 32 0.188 6.99 1566 14.56
1/16/2022 7:15:00 AM 0 32 0.188 7 1566 14.57
1/16/2022 7:30:00 AM 0 32 0.189 7.01 1566 14.57
1/16/2022 7:45:00 AM 0 32 0.189 7.02 1567 14.58
1/16/2022 8:00:00 AM 0.01 32.018 0.189 7.02 1566 14.52
1/16/2022 8:15:00 AM 0.02 32.036 0.189 7.03 1566 14.55
1/16/2022 8:30:00 AM 0.02 32.036 0.189 7.03 1566 14.59
1/16/2022 8:45:00 AM 0.04 32.072 0.189 7.04 1566 14.61
1/16/2022 9:00:00 AM 0.05 32.09 0.189 7.03 1566 14.62
1/16/2022 9:15:00 AM 0.06 32.108 0.189 7.03 1566 14.61
1/16/2022 9:30:00 AM 0.07 32.126 0.189 7.02 1566 14.67
1/16/2022 9:45:00 AM 0.08 32.144 0.189 7.01 1566 14.68
1/16/2022 10:00:00 AM 0.08 32.144 0.189 6.99 1566 14.71
1/16/2022 10:15:00 AM 0.11 32.198